<?xml version="1.0" encoding="UTF-8" standalone="no" ?>
<gpx xmlns="http://www.topografix.com/GPX/1/1" xmlns:xsi="http://www.w3.org/2001/XMLSchema-instance" xsi:schemaLocation="http://www.topografix.com/GPX/1/1 http://www.topografix.com/GPX/1/1/gpx.xsd" version="1.1" creator="VisuGPX - https://www.visugpx.com">
  <metadata>
    <name>GORDESN-abbaye</name>
    <desc><![CDATA[abbaye]]></desc>
  </metadata>
  <trk>
    <name><![CDATA[GORDESN-15 17:02:28]]></name>
    <trkseg>
      <trkpt lat="43.9331" lon="5.18897">
        <ele>325.54</ele>
        <time>2015-06-11T08:40:34Z</time>
      </trkpt>
      <trkpt lat="43.93317" lon="5.18904">
        <ele>326.5</ele>
        <time>2015-06-11T08:40:44Z</time>
      </trkpt>
      <trkpt lat="43.93333" lon="5.1889">
        <ele>327.95</ele>
        <time>2015-06-11T08:41:02Z</time>
      </trkpt>
      <trkpt lat="43.93338" lon="5.18885">
        <ele>328.43</ele>
        <time>2015-06-11T08:41:08Z</time>
      </trkpt>
      <trkpt lat="43.93342" lon="5.18884">
        <ele>328.43</ele>
        <time>2015-06-11T08:41:11Z</time>
      </trkpt>
      <trkpt lat="43.93346" lon="5.18884">
        <ele>328.91</ele>
        <time>2015-06-11T08:41:15Z</time>
      </trkpt>
      <trkpt lat="43.9335" lon="5.18884">
        <ele>328.91</ele>
        <time>2015-06-11T08:41:18Z</time>
      </trkpt>
      <trkpt lat="43.93355" lon="5.18883">
        <ele>329.39</ele>
        <time>2015-06-11T08:41:22Z</time>
      </trkpt>
      <trkpt lat="43.93365" lon="5.18874">
        <ele>329.87</ele>
        <time>2015-06-11T08:41:36Z</time>
      </trkpt>
      <trkpt lat="43.93367" lon="5.18874">
        <ele>329.87</ele>
        <time>2015-06-11T08:41:40Z</time>
      </trkpt>
      <trkpt lat="43.93385" lon="5.1887">
        <ele>332.27</ele>
        <time>2015-06-11T08:41:59Z</time>
      </trkpt>
      <trkpt lat="43.93388" lon="5.18867">
        <ele>332.75</ele>
        <time>2015-06-11T08:42:10Z</time>
      </trkpt>
      <trkpt lat="43.9339" lon="5.18863">
        <ele>333.71</ele>
        <time>2015-06-11T08:42:14Z</time>
      </trkpt>
      <trkpt lat="43.93387" lon="5.18858">
        <ele>334.68</ele>
        <time>2015-06-11T08:42:18Z</time>
      </trkpt>
      <trkpt lat="43.93386" lon="5.18853">
        <ele>334.68</ele>
        <time>2015-06-11T08:42:21Z</time>
      </trkpt>
      <trkpt lat="43.93374" lon="5.18843">
        <ele>334.68</ele>
        <time>2015-06-11T08:42:36Z</time>
      </trkpt>
      <trkpt lat="43.93367" lon="5.18835">
        <ele>335.16</ele>
        <time>2015-06-11T08:42:47Z</time>
      </trkpt>
      <trkpt lat="43.93367" lon="5.18834">
        <ele>335.64</ele>
        <time>2015-06-11T08:42:53Z</time>
      </trkpt>
      <trkpt lat="43.93359" lon="5.18829">
        <ele>336.12</ele>
        <time>2015-06-11T08:43:01Z</time>
      </trkpt>
      <trkpt lat="43.93348" lon="5.18818">
        <ele>337.08</ele>
        <time>2015-06-11T08:43:15Z</time>
      </trkpt>
      <trkpt lat="43.93337" lon="5.18802">
        <ele>338.04</ele>
        <time>2015-06-11T08:43:31Z</time>
      </trkpt>
      <trkpt lat="43.93331" lon="5.18791">
        <ele>340.44</ele>
        <time>2015-06-11T08:43:48Z</time>
      </trkpt>
      <trkpt lat="43.93329" lon="5.18776">
        <ele>342.85</ele>
        <time>2015-06-11T08:44:04Z</time>
      </trkpt>
      <trkpt lat="43.9333" lon="5.18766">
        <ele>345.25</ele>
        <time>2015-06-11T08:44:21Z</time>
      </trkpt>
      <trkpt lat="43.93334" lon="5.18762">
        <ele>348.62</ele>
        <time>2015-06-11T08:44:37Z</time>
      </trkpt>
      <trkpt lat="43.93339" lon="5.18758">
        <ele>348.62</ele>
        <time>2015-06-11T08:44:42Z</time>
      </trkpt>
      <trkpt lat="43.93342" lon="5.18758">
        <ele>349.58</ele>
        <time>2015-06-11T08:44:44Z</time>
      </trkpt>
      <trkpt lat="43.93349" lon="5.18759">
        <ele>349.58</ele>
        <time>2015-06-11T08:44:54Z</time>
      </trkpt>
      <trkpt lat="43.93354" lon="5.18759">
        <ele>350.54</ele>
        <time>2015-06-11T08:44:59Z</time>
      </trkpt>
      <trkpt lat="43.93359" lon="5.18757">
        <ele>353.42</ele>
        <time>2015-06-11T08:45:12Z</time>
      </trkpt>
      <trkpt lat="43.93364" lon="5.18756">
        <ele>356.31</ele>
        <time>2015-06-11T08:45:26Z</time>
      </trkpt>
      <trkpt lat="43.93372" lon="5.18749">
        <ele>357.75</ele>
        <time>2015-06-11T08:45:44Z</time>
      </trkpt>
      <trkpt lat="43.93378" lon="5.18752">
        <ele>359.67</ele>
        <time>2015-06-11T08:46:03Z</time>
      </trkpt>
      <trkpt lat="43.93392" lon="5.18751">
        <ele>362.55</ele>
        <time>2015-06-11T08:46:23Z</time>
      </trkpt>
      <trkpt lat="43.93402" lon="5.18749">
        <ele>364.96</ele>
        <time>2015-06-11T08:46:42Z</time>
      </trkpt>
      <trkpt lat="43.93415" lon="5.18746">
        <ele>367.84</ele>
        <time>2015-06-11T08:47:01Z</time>
      </trkpt>
      <trkpt lat="43.93426" lon="5.1875">
        <ele>370.24</ele>
        <time>2015-06-11T08:47:19Z</time>
      </trkpt>
      <trkpt lat="43.93434" lon="5.18754">
        <ele>372.17</ele>
        <time>2015-06-11T08:47:32Z</time>
      </trkpt>
      <trkpt lat="43.93441" lon="5.18755">
        <ele>373.61</ele>
        <time>2015-06-11T08:47:47Z</time>
      </trkpt>
      <trkpt lat="43.93451" lon="5.18754">
        <ele>376.49</ele>
        <time>2015-06-11T08:48:06Z</time>
      </trkpt>
      <trkpt lat="43.93463" lon="5.18752">
        <ele>378.9</ele>
        <time>2015-06-11T08:48:24Z</time>
      </trkpt>
      <trkpt lat="43.93474" lon="5.18756">
        <ele>380.82</ele>
        <time>2015-06-11T08:48:39Z</time>
      </trkpt>
      <trkpt lat="43.93484" lon="5.18753">
        <ele>382.74</ele>
        <time>2015-06-11T08:48:54Z</time>
      </trkpt>
      <trkpt lat="43.93495" lon="5.18747">
        <ele>384.18</ele>
        <time>2015-06-11T08:49:10Z</time>
      </trkpt>
      <trkpt lat="43.93503" lon="5.18746">
        <ele>386.11</ele>
        <time>2015-06-11T08:49:24Z</time>
      </trkpt>
      <trkpt lat="43.93519" lon="5.18746">
        <ele>387.55</ele>
        <time>2015-06-11T08:49:38Z</time>
      </trkpt>
      <trkpt lat="43.93527" lon="5.1874">
        <ele>389.47</ele>
        <time>2015-06-11T08:49:54Z</time>
      </trkpt>
      <trkpt lat="43.93542" lon="5.18732">
        <ele>392.36</ele>
        <time>2015-06-11T08:50:11Z</time>
      </trkpt>
      <trkpt lat="43.93547" lon="5.18733">
        <ele>392.84</ele>
        <time>2015-06-11T08:50:19Z</time>
      </trkpt>
      <trkpt lat="43.9355" lon="5.18732">
        <ele>392.84</ele>
        <time>2015-06-11T08:50:22Z</time>
      </trkpt>
      <trkpt lat="43.93562" lon="5.18727">
        <ele>394.76</ele>
        <time>2015-06-11T08:50:40Z</time>
      </trkpt>
      <trkpt lat="43.93569" lon="5.18725">
        <ele>396.68</ele>
        <time>2015-06-11T08:50:55Z</time>
      </trkpt>
      <trkpt lat="43.93577" lon="5.1872">
        <ele>398.12</ele>
        <time>2015-06-11T08:51:09Z</time>
      </trkpt>
      <trkpt lat="43.93586" lon="5.1872">
        <ele>400.53</ele>
        <time>2015-06-11T08:51:24Z</time>
      </trkpt>
      <trkpt lat="43.93594" lon="5.18724">
        <ele>401.97</ele>
        <time>2015-06-11T08:51:38Z</time>
      </trkpt>
      <trkpt lat="43.936" lon="5.18724">
        <ele>403.89</ele>
        <time>2015-06-11T08:51:55Z</time>
      </trkpt>
      <trkpt lat="43.93606" lon="5.18723">
        <ele>406.29</ele>
        <time>2015-06-11T08:52:08Z</time>
      </trkpt>
      <trkpt lat="43.93612" lon="5.18717">
        <ele>408.7</ele>
        <time>2015-06-11T08:52:22Z</time>
      </trkpt>
      <trkpt lat="43.93618" lon="5.18716">
        <ele>410.14</ele>
        <time>2015-06-11T08:52:35Z</time>
      </trkpt>
      <trkpt lat="43.93624" lon="5.18715">
        <ele>412.06</ele>
        <time>2015-06-11T08:52:44Z</time>
      </trkpt>
      <trkpt lat="43.93632" lon="5.1871">
        <ele>414.47</ele>
        <time>2015-06-11T08:52:56Z</time>
      </trkpt>
      <trkpt lat="43.93636" lon="5.18705">
        <ele>415.43</ele>
        <time>2015-06-11T08:53:11Z</time>
      </trkpt>
      <trkpt lat="43.93645" lon="5.18702">
        <ele>416.39</ele>
        <time>2015-06-11T08:53:23Z</time>
      </trkpt>
      <trkpt lat="43.93658" lon="5.18698">
        <ele>418.79</ele>
        <time>2015-06-11T08:53:37Z</time>
      </trkpt>
      <trkpt lat="43.93664" lon="5.18696">
        <ele>420.71</ele>
        <time>2015-06-11T08:53:51Z</time>
      </trkpt>
      <trkpt lat="43.93673" lon="5.18694">
        <ele>423.12</ele>
        <time>2015-06-11T08:54:06Z</time>
      </trkpt>
      <trkpt lat="43.93687" lon="5.18687">
        <ele>425.04</ele>
        <time>2015-06-11T08:54:23Z</time>
      </trkpt>
      <trkpt lat="43.93696" lon="5.18686">
        <ele>426.96</ele>
        <time>2015-06-11T08:54:37Z</time>
      </trkpt>
      <trkpt lat="43.93702" lon="5.18685">
        <ele>427.92</ele>
        <time>2015-06-11T08:54:50Z</time>
      </trkpt>
      <trkpt lat="43.93708" lon="5.18666">
        <ele>429.85</ele>
        <time>2015-06-11T08:55:10Z</time>
      </trkpt>
      <trkpt lat="43.93716" lon="5.18651">
        <ele>430.81</ele>
        <time>2015-06-11T08:55:25Z</time>
      </trkpt>
      <trkpt lat="43.93725" lon="5.18634">
        <ele>430.81</ele>
        <time>2015-06-11T08:55:40Z</time>
      </trkpt>
      <trkpt lat="43.93732" lon="5.18617">
        <ele>431.77</ele>
        <time>2015-06-11T08:55:56Z</time>
      </trkpt>
      <trkpt lat="43.93733" lon="5.18614">
        <ele>432.25</ele>
        <time>2015-06-11T08:55:58Z</time>
      </trkpt>
      <trkpt lat="43.93735" lon="5.18605">
        <ele>432.73</ele>
        <time>2015-06-11T08:56:04Z</time>
      </trkpt>
      <trkpt lat="43.93736" lon="5.18588">
        <ele>433.21</ele>
        <time>2015-06-11T08:56:17Z</time>
      </trkpt>
      <trkpt lat="43.93738" lon="5.18577">
        <ele>434.65</ele>
        <time>2015-06-11T08:56:25Z</time>
      </trkpt>
      <trkpt lat="43.93739" lon="5.18574">
        <ele>434.65</ele>
        <time>2015-06-11T08:56:28Z</time>
      </trkpt>
      <trkpt lat="43.93747" lon="5.18556">
        <ele>436.58</ele>
        <time>2015-06-11T08:56:43Z</time>
      </trkpt>
      <trkpt lat="43.93754" lon="5.1855">
        <ele>437.54</ele>
        <time>2015-06-11T08:56:56Z</time>
      </trkpt>
      <trkpt lat="43.93758" lon="5.18548">
        <ele>438.02</ele>
        <time>2015-06-11T08:57:02Z</time>
      </trkpt>
      <trkpt lat="43.93774" lon="5.18538">
        <ele>439.94</ele>
        <time>2015-06-11T08:57:17Z</time>
      </trkpt>
      <trkpt lat="43.93782" lon="5.1853">
        <ele>441.86</ele>
        <time>2015-06-11T08:57:30Z</time>
      </trkpt>
      <trkpt lat="43.93787" lon="5.18528">
        <ele>442.34</ele>
        <time>2015-06-11T08:57:35Z</time>
      </trkpt>
      <trkpt lat="43.93794" lon="5.18525">
        <ele>442.82</ele>
        <time>2015-06-11T08:57:43Z</time>
      </trkpt>
      <trkpt lat="43.93797" lon="5.18525">
        <ele>442.82</ele>
        <time>2015-06-11T08:57:46Z</time>
      </trkpt>
      <trkpt lat="43.93807" lon="5.18524">
        <ele>443.79</ele>
        <time>2015-06-11T08:57:57Z</time>
      </trkpt>
      <trkpt lat="43.93809" lon="5.18516">
        <ele>442.82</ele>
        <time>2015-06-11T08:58:12Z</time>
      </trkpt>
      <trkpt lat="43.9381" lon="5.18514">
        <ele>443.31</ele>
        <time>2015-06-11T08:58:41Z</time>
      </trkpt>
      <trkpt lat="43.9381" lon="5.18514">
        <ele>443.79</ele>
        <time>2015-06-11T08:59:07Z</time>
      </trkpt>
      <trkpt lat="43.93812" lon="5.18514">
        <ele>444.75</ele>
        <time>2015-06-11T08:59:35Z</time>
      </trkpt>
      <trkpt lat="43.93812" lon="5.18515">
        <ele>445.71</ele>
        <time>2015-06-11T09:00:11Z</time>
      </trkpt>
      <trkpt lat="43.9381" lon="5.18512">
        <ele>447.15</ele>
        <time>2015-06-11T09:00:46Z</time>
      </trkpt>
      <trkpt lat="43.9381" lon="5.18512">
        <ele>447.63</ele>
        <time>2015-06-11T09:01:12Z</time>
      </trkpt>
      <trkpt lat="43.93808" lon="5.18513">
        <ele>448.11</ele>
        <time>2015-06-11T09:01:41Z</time>
      </trkpt>
      <trkpt lat="43.93814" lon="5.18514">
        <ele>450.03</ele>
        <time>2015-06-11T09:01:59Z</time>
      </trkpt>
      <trkpt lat="43.93825" lon="5.1851">
        <ele>451.48</ele>
        <time>2015-06-11T09:02:14Z</time>
      </trkpt>
      <trkpt lat="43.93838" lon="5.18508">
        <ele>453.4</ele>
        <time>2015-06-11T09:02:31Z</time>
      </trkpt>
      <trkpt lat="43.9385" lon="5.18505">
        <ele>455.32</ele>
        <time>2015-06-11T09:02:49Z</time>
      </trkpt>
      <trkpt lat="43.93861" lon="5.18493">
        <ele>457.72</ele>
        <time>2015-06-11T09:03:07Z</time>
      </trkpt>
      <trkpt lat="43.93867" lon="5.18486">
        <ele>459.65</ele>
        <time>2015-06-11T09:03:23Z</time>
      </trkpt>
      <trkpt lat="43.93875" lon="5.18481">
        <ele>461.57</ele>
        <time>2015-06-11T09:03:36Z</time>
      </trkpt>
      <trkpt lat="43.9388" lon="5.18469">
        <ele>463.97</ele>
        <time>2015-06-11T09:03:51Z</time>
      </trkpt>
      <trkpt lat="43.93881" lon="5.18459">
        <ele>466.86</ele>
        <time>2015-06-11T09:04:08Z</time>
      </trkpt>
      <trkpt lat="43.93887" lon="5.18451">
        <ele>469.26</ele>
        <time>2015-06-11T09:04:22Z</time>
      </trkpt>
      <trkpt lat="43.93894" lon="5.18437">
        <ele>471.18</ele>
        <time>2015-06-11T09:04:40Z</time>
      </trkpt>
      <trkpt lat="43.93899" lon="5.18434">
        <ele>473.11</ele>
        <time>2015-06-11T09:04:53Z</time>
      </trkpt>
      <trkpt lat="43.93906" lon="5.18426">
        <ele>475.03</ele>
        <time>2015-06-11T09:05:06Z</time>
      </trkpt>
      <trkpt lat="43.93913" lon="5.18415">
        <ele>477.43</ele>
        <time>2015-06-11T09:05:24Z</time>
      </trkpt>
      <trkpt lat="43.93921" lon="5.1841">
        <ele>480.32</ele>
        <time>2015-06-11T09:05:40Z</time>
      </trkpt>
      <trkpt lat="43.93931" lon="5.18408">
        <ele>482.24</ele>
        <time>2015-06-11T09:05:54Z</time>
      </trkpt>
      <trkpt lat="43.9394" lon="5.18399">
        <ele>484.16</ele>
        <time>2015-06-11T09:06:08Z</time>
      </trkpt>
      <trkpt lat="43.93953" lon="5.18395">
        <ele>485.6</ele>
        <time>2015-06-11T09:06:24Z</time>
      </trkpt>
      <trkpt lat="43.93962" lon="5.18392">
        <ele>487.05</ele>
        <time>2015-06-11T09:06:40Z</time>
      </trkpt>
      <trkpt lat="43.93971" lon="5.18385">
        <ele>489.93</ele>
        <time>2015-06-11T09:06:57Z</time>
      </trkpt>
      <trkpt lat="43.93982" lon="5.18371">
        <ele>492.81</ele>
        <time>2015-06-11T09:07:14Z</time>
      </trkpt>
      <trkpt lat="43.9399" lon="5.18367">
        <ele>494.74</ele>
        <time>2015-06-11T09:07:31Z</time>
      </trkpt>
      <trkpt lat="43.93997" lon="5.18361">
        <ele>497.14</ele>
        <time>2015-06-11T09:07:45Z</time>
      </trkpt>
      <trkpt lat="43.94008" lon="5.18356">
        <ele>498.58</ele>
        <time>2015-06-11T09:08:01Z</time>
      </trkpt>
      <trkpt lat="43.94014" lon="5.18347">
        <ele>501.46</ele>
        <time>2015-06-11T09:08:16Z</time>
      </trkpt>
      <trkpt lat="43.94021" lon="5.18333">
        <ele>504.83</ele>
        <time>2015-06-11T09:08:34Z</time>
      </trkpt>
      <trkpt lat="43.94025" lon="5.18326">
        <ele>506.75</ele>
        <time>2015-06-11T09:08:48Z</time>
      </trkpt>
      <trkpt lat="43.94032" lon="5.1832">
        <ele>506.75</ele>
        <time>2015-06-11T09:08:59Z</time>
      </trkpt>
      <trkpt lat="43.94043" lon="5.18311">
        <ele>508.67</ele>
        <time>2015-06-11T09:09:15Z</time>
      </trkpt>
      <trkpt lat="43.94053" lon="5.18298">
        <ele>511.56</ele>
        <time>2015-06-11T09:09:32Z</time>
      </trkpt>
      <trkpt lat="43.94065" lon="5.18294">
        <ele>512.52</ele>
        <time>2015-06-11T09:09:47Z</time>
      </trkpt>
      <trkpt lat="43.94077" lon="5.18286">
        <ele>515.4</ele>
        <time>2015-06-11T09:10:03Z</time>
      </trkpt>
      <trkpt lat="43.9409" lon="5.18287">
        <ele>517.33</ele>
        <time>2015-06-11T09:10:21Z</time>
      </trkpt>
      <trkpt lat="43.94097" lon="5.18284">
        <ele>518.77</ele>
        <time>2015-06-11T09:10:36Z</time>
      </trkpt>
      <trkpt lat="43.94105" lon="5.18281">
        <ele>521.65</ele>
        <time>2015-06-11T09:10:51Z</time>
      </trkpt>
      <trkpt lat="43.94109" lon="5.18279">
        <ele>523.58</ele>
        <time>2015-06-11T09:11:06Z</time>
      </trkpt>
      <trkpt lat="43.94116" lon="5.18276">
        <ele>526.46</ele>
        <time>2015-06-11T09:11:22Z</time>
      </trkpt>
      <trkpt lat="43.94127" lon="5.18275">
        <ele>528.38</ele>
        <time>2015-06-11T09:11:35Z</time>
      </trkpt>
      <trkpt lat="43.94134" lon="5.18276">
        <ele>529.82</ele>
        <time>2015-06-11T09:11:50Z</time>
      </trkpt>
      <trkpt lat="43.94144" lon="5.18275">
        <ele>532.23</ele>
        <time>2015-06-11T09:12:05Z</time>
      </trkpt>
      <trkpt lat="43.94152" lon="5.18272">
        <ele>535.11</ele>
        <time>2015-06-11T09:12:21Z</time>
      </trkpt>
      <trkpt lat="43.94163" lon="5.18266">
        <ele>537.51</ele>
        <time>2015-06-11T09:12:39Z</time>
      </trkpt>
      <trkpt lat="43.94176" lon="5.18258">
        <ele>540.4</ele>
        <time>2015-06-11T09:12:59Z</time>
      </trkpt>
      <trkpt lat="43.94184" lon="5.18247">
        <ele>542.32</ele>
        <time>2015-06-11T09:13:14Z</time>
      </trkpt>
      <trkpt lat="43.94189" lon="5.18237">
        <ele>541.84</ele>
        <time>2015-06-11T09:13:30Z</time>
      </trkpt>
      <trkpt lat="43.94189" lon="5.18238">
        <ele>542.32</ele>
        <time>2015-06-11T09:14:04Z</time>
      </trkpt>
      <trkpt lat="43.9419" lon="5.18239">
        <ele>542.8</ele>
        <time>2015-06-11T09:14:30Z</time>
      </trkpt>
      <trkpt lat="43.9419" lon="5.18239">
        <ele>543.28</ele>
        <time>2015-06-11T09:14:55Z</time>
      </trkpt>
      <trkpt lat="43.9419" lon="5.18239">
        <ele>543.76</ele>
        <time>2015-06-11T09:15:23Z</time>
      </trkpt>
      <trkpt lat="43.9419" lon="5.18239">
        <ele>544.24</ele>
        <time>2015-06-11T09:15:53Z</time>
      </trkpt>
      <trkpt lat="43.94192" lon="5.18239">
        <ele>544.72</ele>
        <time>2015-06-11T09:16:13Z</time>
      </trkpt>
      <trkpt lat="43.94192" lon="5.18239">
        <ele>545.69</ele>
        <time>2015-06-11T09:16:44Z</time>
      </trkpt>
      <trkpt lat="43.94191" lon="5.18238">
        <ele>547.13</ele>
        <time>2015-06-11T09:17:09Z</time>
      </trkpt>
      <trkpt lat="43.94199" lon="5.18236">
        <ele>548.09</ele>
        <time>2015-06-11T09:17:23Z</time>
      </trkpt>
      <trkpt lat="43.94213" lon="5.18233">
        <ele>549.53</ele>
        <time>2015-06-11T09:17:42Z</time>
      </trkpt>
      <trkpt lat="43.94221" lon="5.18233">
        <ele>550.97</ele>
        <time>2015-06-11T09:18:00Z</time>
      </trkpt>
      <trkpt lat="43.94231" lon="5.18229">
        <ele>552.9</ele>
        <time>2015-06-11T09:18:20Z</time>
      </trkpt>
      <trkpt lat="43.94245" lon="5.18222">
        <ele>553.86</ele>
        <time>2015-06-11T09:18:37Z</time>
      </trkpt>
      <trkpt lat="43.94252" lon="5.18221">
        <ele>555.78</ele>
        <time>2015-06-11T09:18:51Z</time>
      </trkpt>
      <trkpt lat="43.94256" lon="5.18219">
        <ele>555.78</ele>
        <time>2015-06-11T09:18:57Z</time>
      </trkpt>
      <trkpt lat="43.94274" lon="5.1821">
        <ele>558.66</ele>
        <time>2015-06-11T09:19:16Z</time>
      </trkpt>
      <trkpt lat="43.94289" lon="5.18203">
        <ele>560.59</ele>
        <time>2015-06-11T09:19:34Z</time>
      </trkpt>
      <trkpt lat="43.943" lon="5.18196">
        <ele>561.55</ele>
        <time>2015-06-11T09:19:49Z</time>
      </trkpt>
      <trkpt lat="43.94316" lon="5.18189">
        <ele>562.99</ele>
        <time>2015-06-11T09:20:07Z</time>
      </trkpt>
      <trkpt lat="43.94325" lon="5.18187">
        <ele>564.43</ele>
        <time>2015-06-11T09:20:23Z</time>
      </trkpt>
      <trkpt lat="43.94334" lon="5.18188">
        <ele>566.35</ele>
        <time>2015-06-11T09:20:39Z</time>
      </trkpt>
      <trkpt lat="43.94349" lon="5.18184">
        <ele>567.32</ele>
        <time>2015-06-11T09:20:54Z</time>
      </trkpt>
      <trkpt lat="43.94368" lon="5.18182">
        <ele>569.24</ele>
        <time>2015-06-11T09:21:13Z</time>
      </trkpt>
      <trkpt lat="43.94385" lon="5.18175">
        <ele>571.16</ele>
        <time>2015-06-11T09:21:31Z</time>
      </trkpt>
      <trkpt lat="43.94404" lon="5.18166">
        <ele>572.6</ele>
        <time>2015-06-11T09:21:50Z</time>
      </trkpt>
      <trkpt lat="43.94421" lon="5.18156">
        <ele>574.04</ele>
        <time>2015-06-11T09:22:09Z</time>
      </trkpt>
      <trkpt lat="43.94435" lon="5.18147">
        <ele>575.49</ele>
        <time>2015-06-11T09:22:26Z</time>
      </trkpt>
      <trkpt lat="43.94446" lon="5.18129">
        <ele>575.97</ele>
        <time>2015-06-11T09:22:43Z</time>
      </trkpt>
      <trkpt lat="43.94448" lon="5.18119">
        <ele>576.45</ele>
        <time>2015-06-11T09:22:55Z</time>
      </trkpt>
      <trkpt lat="43.94446" lon="5.18107">
        <ele>576.93</ele>
        <time>2015-06-11T09:23:03Z</time>
      </trkpt>
      <trkpt lat="43.94445" lon="5.18097">
        <ele>577.41</ele>
        <time>2015-06-11T09:23:10Z</time>
      </trkpt>
      <trkpt lat="43.9444" lon="5.18084">
        <ele>576.93</ele>
        <time>2015-06-11T09:23:25Z</time>
      </trkpt>
      <trkpt lat="43.94437" lon="5.1808">
        <ele>577.41</ele>
        <time>2015-06-11T09:23:52Z</time>
      </trkpt>
      <trkpt lat="43.94427" lon="5.18062">
        <ele>577.89</ele>
        <time>2015-06-11T09:24:08Z</time>
      </trkpt>
      <trkpt lat="43.94421" lon="5.1804">
        <ele>578.85</ele>
        <time>2015-06-11T09:24:26Z</time>
      </trkpt>
      <trkpt lat="43.94418" lon="5.18031">
        <ele>579.33</ele>
        <time>2015-06-11T09:24:32Z</time>
      </trkpt>
      <trkpt lat="43.94415" lon="5.18024">
        <ele>579.33</ele>
        <time>2015-06-11T09:24:38Z</time>
      </trkpt>
      <trkpt lat="43.94411" lon="5.18011">
        <ele>580.77</ele>
        <time>2015-06-11T09:24:49Z</time>
      </trkpt>
      <trkpt lat="43.94409" lon="5.17992">
        <ele>582.22</ele>
        <time>2015-06-11T09:25:03Z</time>
      </trkpt>
      <trkpt lat="43.94411" lon="5.17974">
        <ele>583.66</ele>
        <time>2015-06-11T09:25:17Z</time>
      </trkpt>
      <trkpt lat="43.94414" lon="5.17966">
        <ele>583.66</ele>
        <time>2015-06-11T09:25:32Z</time>
      </trkpt>
      <trkpt lat="43.9442" lon="5.17953">
        <ele>583.66</ele>
        <time>2015-06-11T09:25:46Z</time>
      </trkpt>
      <trkpt lat="43.94426" lon="5.17931">
        <ele>584.14</ele>
        <time>2015-06-11T09:26:03Z</time>
      </trkpt>
      <trkpt lat="43.94431" lon="5.17914">
        <ele>584.14</ele>
        <time>2015-06-11T09:26:18Z</time>
      </trkpt>
      <trkpt lat="43.94439" lon="5.1789">
        <ele>583.66</ele>
        <time>2015-06-11T09:26:36Z</time>
      </trkpt>
      <trkpt lat="43.94443" lon="5.17871">
        <ele>583.66</ele>
        <time>2015-06-11T09:26:53Z</time>
      </trkpt>
      <trkpt lat="43.94444" lon="5.17868">
        <ele>583.66</ele>
        <time>2015-06-11T09:26:55Z</time>
      </trkpt>
      <trkpt lat="43.94444" lon="5.17864">
        <ele>583.66</ele>
        <time>2015-06-11T09:26:58Z</time>
      </trkpt>
      <trkpt lat="43.94449" lon="5.17854">
        <ele>583.66</ele>
        <time>2015-06-11T09:27:07Z</time>
      </trkpt>
      <trkpt lat="43.94454" lon="5.17835">
        <ele>584.14</ele>
        <time>2015-06-11T09:27:24Z</time>
      </trkpt>
      <trkpt lat="43.94457" lon="5.17814">
        <ele>584.14</ele>
        <time>2015-06-11T09:27:41Z</time>
      </trkpt>
      <trkpt lat="43.94459" lon="5.17798">
        <ele>583.18</ele>
        <time>2015-06-11T09:27:58Z</time>
      </trkpt>
      <trkpt lat="43.94458" lon="5.1779">
        <ele>583.18</ele>
        <time>2015-06-11T09:28:04Z</time>
      </trkpt>
      <trkpt lat="43.94458" lon="5.17772">
        <ele>583.18</ele>
        <time>2015-06-11T09:28:19Z</time>
      </trkpt>
      <trkpt lat="43.94463" lon="5.17759">
        <ele>582.7</ele>
        <time>2015-06-11T09:28:32Z</time>
      </trkpt>
      <trkpt lat="43.94468" lon="5.17744">
        <ele>582.7</ele>
        <time>2015-06-11T09:28:46Z</time>
      </trkpt>
      <trkpt lat="43.94478" lon="5.17732">
        <ele>581.73</ele>
        <time>2015-06-11T09:28:59Z</time>
      </trkpt>
      <trkpt lat="43.94494" lon="5.17719">
        <ele>581.25</ele>
        <time>2015-06-11T09:29:15Z</time>
      </trkpt>
      <trkpt lat="43.94503" lon="5.17698">
        <ele>580.29</ele>
        <time>2015-06-11T09:29:31Z</time>
      </trkpt>
      <trkpt lat="43.94514" lon="5.17682">
        <ele>578.85</ele>
        <time>2015-06-11T09:29:48Z</time>
      </trkpt>
      <trkpt lat="43.94525" lon="5.17667">
        <ele>577.89</ele>
        <time>2015-06-11T09:30:05Z</time>
      </trkpt>
      <trkpt lat="43.94525" lon="5.17666">
        <ele>577.89</ele>
        <time>2015-06-11T09:30:26Z</time>
      </trkpt>
      <trkpt lat="43.94524" lon="5.17666">
        <ele>578.37</ele>
        <time>2015-06-11T09:30:47Z</time>
      </trkpt>
      <trkpt lat="43.94524" lon="5.17665">
        <ele>578.85</ele>
        <time>2015-06-11T09:31:02Z</time>
      </trkpt>
      <trkpt lat="43.94524" lon="5.17664">
        <ele>578.85</ele>
        <time>2015-06-11T09:31:24Z</time>
      </trkpt>
      <trkpt lat="43.94524" lon="5.17664">
        <ele>577.89</ele>
        <time>2015-06-11T09:31:44Z</time>
      </trkpt>
      <trkpt lat="43.94524" lon="5.17663">
        <ele>579.33</ele>
        <time>2015-06-11T09:32:04Z</time>
      </trkpt>
      <trkpt lat="43.94524" lon="5.17663">
        <ele>579.33</ele>
        <time>2015-06-11T09:32:26Z</time>
      </trkpt>
      <trkpt lat="43.94525" lon="5.17663">
        <ele>579.81</ele>
        <time>2015-06-11T09:32:51Z</time>
      </trkpt>
      <trkpt lat="43.94525" lon="5.17661">
        <ele>579.81</ele>
        <time>2015-06-11T09:33:13Z</time>
      </trkpt>
      <trkpt lat="43.94531" lon="5.17647">
        <ele>581.73</ele>
        <time>2015-06-11T09:33:29Z</time>
      </trkpt>
      <trkpt lat="43.94538" lon="5.1763">
        <ele>582.7</ele>
        <time>2015-06-11T09:33:46Z</time>
      </trkpt>
      <trkpt lat="43.94548" lon="5.17617">
        <ele>583.18</ele>
        <time>2015-06-11T09:34:00Z</time>
      </trkpt>
      <trkpt lat="43.94559" lon="5.17602">
        <ele>583.66</ele>
        <time>2015-06-11T09:34:13Z</time>
      </trkpt>
      <trkpt lat="43.94569" lon="5.17585">
        <ele>584.14</ele>
        <time>2015-06-11T09:34:27Z</time>
      </trkpt>
      <trkpt lat="43.94575" lon="5.17576">
        <ele>584.14</ele>
        <time>2015-06-11T09:34:35Z</time>
      </trkpt>
      <trkpt lat="43.94579" lon="5.17573">
        <ele>584.14</ele>
        <time>2015-06-11T09:34:39Z</time>
      </trkpt>
      <trkpt lat="43.94593" lon="5.17553">
        <ele>583.66</ele>
        <time>2015-06-11T09:34:56Z</time>
      </trkpt>
      <trkpt lat="43.94598" lon="5.17545">
        <ele>583.66</ele>
        <time>2015-06-11T09:35:02Z</time>
      </trkpt>
      <trkpt lat="43.94603" lon="5.1752">
        <ele>583.18</ele>
        <time>2015-06-11T09:35:19Z</time>
      </trkpt>
      <trkpt lat="43.94606" lon="5.17511">
        <ele>583.18</ele>
        <time>2015-06-11T09:35:25Z</time>
      </trkpt>
      <trkpt lat="43.94611" lon="5.17499">
        <ele>583.18</ele>
        <time>2015-06-11T09:35:34Z</time>
      </trkpt>
      <trkpt lat="43.94619" lon="5.17474">
        <ele>583.66</ele>
        <time>2015-06-11T09:35:51Z</time>
      </trkpt>
      <trkpt lat="43.94624" lon="5.17461">
        <ele>583.66</ele>
        <time>2015-06-11T09:36:00Z</time>
      </trkpt>
      <trkpt lat="43.94624" lon="5.17456">
        <ele>584.14</ele>
        <time>2015-06-11T09:36:03Z</time>
      </trkpt>
      <trkpt lat="43.94629" lon="5.17433">
        <ele>584.14</ele>
        <time>2015-06-11T09:36:19Z</time>
      </trkpt>
      <trkpt lat="43.94635" lon="5.17414">
        <ele>584.14</ele>
        <time>2015-06-11T09:36:33Z</time>
      </trkpt>
      <trkpt lat="43.9464" lon="5.17403">
        <ele>584.14</ele>
        <time>2015-06-11T09:36:46Z</time>
      </trkpt>
      <trkpt lat="43.94642" lon="5.17398">
        <ele>584.14</ele>
        <time>2015-06-11T09:36:49Z</time>
      </trkpt>
      <trkpt lat="43.94643" lon="5.17394">
        <ele>584.14</ele>
        <time>2015-06-11T09:36:51Z</time>
      </trkpt>
      <trkpt lat="43.9465" lon="5.17376">
        <ele>584.14</ele>
        <time>2015-06-11T09:37:05Z</time>
      </trkpt>
      <trkpt lat="43.9465" lon="5.17374">
        <ele>584.14</ele>
        <time>2015-06-11T09:37:06Z</time>
      </trkpt>
      <trkpt lat="43.94657" lon="5.17355">
        <ele>584.14</ele>
        <time>2015-06-11T09:37:20Z</time>
      </trkpt>
      <trkpt lat="43.94657" lon="5.17354">
        <ele>584.14</ele>
        <time>2015-06-11T09:37:21Z</time>
      </trkpt>
      <trkpt lat="43.94661" lon="5.17348">
        <ele>584.14</ele>
        <time>2015-06-11T09:37:25Z</time>
      </trkpt>
      <trkpt lat="43.94666" lon="5.17331">
        <ele>585.1</ele>
        <time>2015-06-11T09:37:38Z</time>
      </trkpt>
      <trkpt lat="43.94672" lon="5.17318">
        <ele>585.58</ele>
        <time>2015-06-11T09:37:48Z</time>
      </trkpt>
      <trkpt lat="43.94676" lon="5.173">
        <ele>586.06</ele>
        <time>2015-06-11T09:38:04Z</time>
      </trkpt>
      <trkpt lat="43.94678" lon="5.17279">
        <ele>587.02</ele>
        <time>2015-06-11T09:38:22Z</time>
      </trkpt>
      <trkpt lat="43.94683" lon="5.17262">
        <ele>587.02</ele>
        <time>2015-06-11T09:38:37Z</time>
      </trkpt>
      <trkpt lat="43.94692" lon="5.17242">
        <ele>587.02</ele>
        <time>2015-06-11T09:38:54Z</time>
      </trkpt>
      <trkpt lat="43.94699" lon="5.17227">
        <ele>587.02</ele>
        <time>2015-06-11T09:39:08Z</time>
      </trkpt>
      <trkpt lat="43.94707" lon="5.17215">
        <ele>587.02</ele>
        <time>2015-06-11T09:39:24Z</time>
      </trkpt>
      <trkpt lat="43.94714" lon="5.17197">
        <ele>586.54</ele>
        <time>2015-06-11T09:39:41Z</time>
      </trkpt>
      <trkpt lat="43.94725" lon="5.17178">
        <ele>587.02</ele>
        <time>2015-06-11T09:39:58Z</time>
      </trkpt>
      <trkpt lat="43.94726" lon="5.17173">
        <ele>587.02</ele>
        <time>2015-06-11T09:40:02Z</time>
      </trkpt>
      <trkpt lat="43.94737" lon="5.17157">
        <ele>587.5</ele>
        <time>2015-06-11T09:40:17Z</time>
      </trkpt>
      <trkpt lat="43.94746" lon="5.17144">
        <ele>587.98</ele>
        <time>2015-06-11T09:40:34Z</time>
      </trkpt>
      <trkpt lat="43.94759" lon="5.1713">
        <ele>588.46</ele>
        <time>2015-06-11T09:40:52Z</time>
      </trkpt>
      <trkpt lat="43.94775" lon="5.17116">
        <ele>588.46</ele>
        <time>2015-06-11T09:41:11Z</time>
      </trkpt>
      <trkpt lat="43.94791" lon="5.17104">
        <ele>588.46</ele>
        <time>2015-06-11T09:41:27Z</time>
      </trkpt>
      <trkpt lat="43.94803" lon="5.17088">
        <ele>587.98</ele>
        <time>2015-06-11T09:41:44Z</time>
      </trkpt>
      <trkpt lat="43.94818" lon="5.17077">
        <ele>587.02</ele>
        <time>2015-06-11T09:42:00Z</time>
      </trkpt>
      <trkpt lat="43.94833" lon="5.17071">
        <ele>586.54</ele>
        <time>2015-06-11T09:42:14Z</time>
      </trkpt>
      <trkpt lat="43.94843" lon="5.17065">
        <ele>586.54</ele>
        <time>2015-06-11T09:42:23Z</time>
      </trkpt>
      <trkpt lat="43.94859" lon="5.1706">
        <ele>585.1</ele>
        <time>2015-06-11T09:42:40Z</time>
      </trkpt>
      <trkpt lat="43.94871" lon="5.17051">
        <ele>583.66</ele>
        <time>2015-06-11T09:42:56Z</time>
      </trkpt>
      <trkpt lat="43.94878" lon="5.17042">
        <ele>581.73</ele>
        <time>2015-06-11T09:43:11Z</time>
      </trkpt>
      <trkpt lat="43.94882" lon="5.17037">
        <ele>580.29</ele>
        <time>2015-06-11T09:43:25Z</time>
      </trkpt>
      <trkpt lat="43.94888" lon="5.17029">
        <ele>577.89</ele>
        <time>2015-06-11T09:43:42Z</time>
      </trkpt>
      <trkpt lat="43.94895" lon="5.17024">
        <ele>575.97</ele>
        <time>2015-06-11T09:43:59Z</time>
      </trkpt>
      <trkpt lat="43.94897" lon="5.17022">
        <ele>573.08</ele>
        <time>2015-06-11T09:44:18Z</time>
      </trkpt>
      <trkpt lat="43.94908" lon="5.17017">
        <ele>571.64</ele>
        <time>2015-06-11T09:44:35Z</time>
      </trkpt>
      <trkpt lat="43.94927" lon="5.17012">
        <ele>569.24</ele>
        <time>2015-06-11T09:44:54Z</time>
      </trkpt>
      <trkpt lat="43.9494" lon="5.17009">
        <ele>567.32</ele>
        <time>2015-06-11T09:45:09Z</time>
      </trkpt>
      <trkpt lat="43.94953" lon="5.17016">
        <ele>566.35</ele>
        <time>2015-06-11T09:45:26Z</time>
      </trkpt>
      <trkpt lat="43.94971" lon="5.17008">
        <ele>566.83</ele>
        <time>2015-06-11T09:45:43Z</time>
      </trkpt>
      <trkpt lat="43.94986" lon="5.17006">
        <ele>565.39</ele>
        <time>2015-06-11T09:46:03Z</time>
      </trkpt>
      <trkpt lat="43.95" lon="5.17003">
        <ele>563.95</ele>
        <time>2015-06-11T09:46:21Z</time>
      </trkpt>
      <trkpt lat="43.95016" lon="5.17003">
        <ele>564.91</ele>
        <time>2015-06-11T09:46:38Z</time>
      </trkpt>
      <trkpt lat="43.95033" lon="5.17001">
        <ele>565.39</ele>
        <time>2015-06-11T09:46:55Z</time>
      </trkpt>
      <trkpt lat="43.95053" lon="5.17001">
        <ele>565.39</ele>
        <time>2015-06-11T09:47:13Z</time>
      </trkpt>
      <trkpt lat="43.95071" lon="5.16999">
        <ele>564.91</ele>
        <time>2015-06-11T09:47:29Z</time>
      </trkpt>
      <trkpt lat="43.95074" lon="5.16999">
        <ele>564.91</ele>
        <time>2015-06-11T09:47:33Z</time>
      </trkpt>
      <trkpt lat="43.9509" lon="5.1699">
        <ele>563.95</ele>
        <time>2015-06-11T09:47:49Z</time>
      </trkpt>
      <trkpt lat="43.95099" lon="5.16976">
        <ele>562.51</ele>
        <time>2015-06-11T09:48:05Z</time>
      </trkpt>
      <trkpt lat="43.95103" lon="5.16952">
        <ele>561.55</ele>
        <time>2015-06-11T09:48:23Z</time>
      </trkpt>
      <trkpt lat="43.95105" lon="5.16935">
        <ele>561.07</ele>
        <time>2015-06-11T09:48:40Z</time>
      </trkpt>
      <trkpt lat="43.95108" lon="5.16926">
        <ele>562.03</ele>
        <time>2015-06-11T09:48:53Z</time>
      </trkpt>
      <trkpt lat="43.95112" lon="5.16911">
        <ele>562.03</ele>
        <time>2015-06-11T09:49:08Z</time>
      </trkpt>
      <trkpt lat="43.95115" lon="5.16898">
        <ele>562.51</ele>
        <time>2015-06-11T09:49:22Z</time>
      </trkpt>
      <trkpt lat="43.95116" lon="5.16883">
        <ele>563.95</ele>
        <time>2015-06-11T09:49:38Z</time>
      </trkpt>
      <trkpt lat="43.95118" lon="5.16876">
        <ele>563.95</ele>
        <time>2015-06-11T09:49:44Z</time>
      </trkpt>
      <trkpt lat="43.95117" lon="5.16862">
        <ele>563.95</ele>
        <time>2015-06-11T09:49:56Z</time>
      </trkpt>
      <trkpt lat="43.95113" lon="5.16862">
        <ele>563.47</ele>
        <time>2015-06-11T09:50:01Z</time>
      </trkpt>
      <trkpt lat="43.951" lon="5.16865">
        <ele>563.95</ele>
        <time>2015-06-11T09:50:17Z</time>
      </trkpt>
      <trkpt lat="43.95094" lon="5.16868">
        <ele>563.95</ele>
        <time>2015-06-11T09:50:24Z</time>
      </trkpt>
      <trkpt lat="43.95092" lon="5.16868">
        <ele>564.43</ele>
        <time>2015-06-11T09:50:26Z</time>
      </trkpt>
      <trkpt lat="43.95078" lon="5.16875">
        <ele>565.39</ele>
        <time>2015-06-11T09:50:41Z</time>
      </trkpt>
      <trkpt lat="43.95068" lon="5.16873">
        <ele>566.83</ele>
        <time>2015-06-11T09:50:58Z</time>
      </trkpt>
      <trkpt lat="43.95055" lon="5.16868">
        <ele>568.76</ele>
        <time>2015-06-11T09:51:14Z</time>
      </trkpt>
      <trkpt lat="43.95049" lon="5.16861">
        <ele>570.2</ele>
        <time>2015-06-11T09:51:25Z</time>
      </trkpt>
      <trkpt lat="43.95044" lon="5.16859">
        <ele>571.16</ele>
        <time>2015-06-11T09:51:30Z</time>
      </trkpt>
      <trkpt lat="43.95033" lon="5.16854">
        <ele>572.12</ele>
        <time>2015-06-11T09:51:42Z</time>
      </trkpt>
      <trkpt lat="43.95024" lon="5.16851">
        <ele>573.08</ele>
        <time>2015-06-11T09:51:53Z</time>
      </trkpt>
      <trkpt lat="43.95016" lon="5.16851">
        <ele>574.04</ele>
        <time>2015-06-11T09:52:03Z</time>
      </trkpt>
      <trkpt lat="43.95005" lon="5.16853">
        <ele>574.53</ele>
        <time>2015-06-11T09:52:14Z</time>
      </trkpt>
      <trkpt lat="43.94994" lon="5.16849">
        <ele>575.01</ele>
        <time>2015-06-11T09:52:27Z</time>
      </trkpt>
      <trkpt lat="43.94985" lon="5.16841">
        <ele>576.45</ele>
        <time>2015-06-11T09:52:38Z</time>
      </trkpt>
      <trkpt lat="43.94975" lon="5.16832">
        <ele>577.89</ele>
        <time>2015-06-11T09:52:53Z</time>
      </trkpt>
      <trkpt lat="43.94969" lon="5.16816">
        <ele>579.33</ele>
        <time>2015-06-11T09:53:07Z</time>
      </trkpt>
      <trkpt lat="43.94965" lon="5.16805">
        <ele>580.77</ele>
        <time>2015-06-11T09:53:19Z</time>
      </trkpt>
      <trkpt lat="43.94958" lon="5.16797">
        <ele>581.25</ele>
        <time>2015-06-11T09:53:30Z</time>
      </trkpt>
      <trkpt lat="43.94952" lon="5.16781">
        <ele>582.7</ele>
        <time>2015-06-11T09:53:46Z</time>
      </trkpt>
      <trkpt lat="43.94954" lon="5.16762">
        <ele>583.18</ele>
        <time>2015-06-11T09:54:01Z</time>
      </trkpt>
      <trkpt lat="43.94954" lon="5.1676">
        <ele>583.66</ele>
        <time>2015-06-11T09:54:02Z</time>
      </trkpt>
      <trkpt lat="43.94953" lon="5.16742">
        <ele>585.1</ele>
        <time>2015-06-11T09:54:19Z</time>
      </trkpt>
      <trkpt lat="43.94955" lon="5.16726">
        <ele>587.5</ele>
        <time>2015-06-11T09:54:35Z</time>
      </trkpt>
      <trkpt lat="43.94953" lon="5.16712">
        <ele>587.98</ele>
        <time>2015-06-11T09:54:46Z</time>
      </trkpt>
      <trkpt lat="43.94951" lon="5.16708">
        <ele>587.98</ele>
        <time>2015-06-11T09:54:49Z</time>
      </trkpt>
      <trkpt lat="43.94947" lon="5.16688">
        <ele>587.98</ele>
        <time>2015-06-11T09:55:04Z</time>
      </trkpt>
      <trkpt lat="43.94947" lon="5.16672">
        <ele>589.43</ele>
        <time>2015-06-11T09:55:19Z</time>
      </trkpt>
      <trkpt lat="43.94947" lon="5.16652">
        <ele>592.31</ele>
        <time>2015-06-11T09:55:37Z</time>
      </trkpt>
      <trkpt lat="43.94944" lon="5.16635">
        <ele>594.23</ele>
        <time>2015-06-11T09:55:52Z</time>
      </trkpt>
      <trkpt lat="43.94941" lon="5.16631">
        <ele>594.23</ele>
        <time>2015-06-11T09:55:58Z</time>
      </trkpt>
      <trkpt lat="43.94934" lon="5.16616">
        <ele>596.15</ele>
        <time>2015-06-11T09:56:13Z</time>
      </trkpt>
      <trkpt lat="43.94926" lon="5.16603">
        <ele>597.6</ele>
        <time>2015-06-11T09:56:29Z</time>
      </trkpt>
      <trkpt lat="43.94926" lon="5.1659">
        <ele>599.04</ele>
        <time>2015-06-11T09:56:44Z</time>
      </trkpt>
      <trkpt lat="43.94924" lon="5.16574">
        <ele>601.44</ele>
        <time>2015-06-11T09:56:59Z</time>
      </trkpt>
      <trkpt lat="43.94925" lon="5.16557">
        <ele>603.36</ele>
        <time>2015-06-11T09:57:16Z</time>
      </trkpt>
      <trkpt lat="43.94926" lon="5.16539">
        <ele>604.81</ele>
        <time>2015-06-11T09:57:33Z</time>
      </trkpt>
      <trkpt lat="43.94925" lon="5.1652">
        <ele>605.77</ele>
        <time>2015-06-11T09:57:47Z</time>
      </trkpt>
      <trkpt lat="43.94923" lon="5.16502">
        <ele>606.73</ele>
        <time>2015-06-11T09:58:01Z</time>
      </trkpt>
      <trkpt lat="43.94922" lon="5.16483">
        <ele>607.21</ele>
        <time>2015-06-11T09:58:17Z</time>
      </trkpt>
      <trkpt lat="43.94924" lon="5.16468">
        <ele>607.21</ele>
        <time>2015-06-11T09:58:28Z</time>
      </trkpt>
      <trkpt lat="43.94925" lon="5.16457">
        <ele>607.21</ele>
        <time>2015-06-11T09:58:36Z</time>
      </trkpt>
      <trkpt lat="43.94924" lon="5.1644">
        <ele>606.73</ele>
        <time>2015-06-11T09:58:50Z</time>
      </trkpt>
      <trkpt lat="43.94921" lon="5.1643">
        <ele>604.81</ele>
        <time>2015-06-11T09:59:03Z</time>
      </trkpt>
      <trkpt lat="43.94922" lon="5.16426">
        <ele>603.85</ele>
        <time>2015-06-11T09:59:11Z</time>
      </trkpt>
      <trkpt lat="43.94918" lon="5.16417">
        <ele>602.88</ele>
        <time>2015-06-11T09:59:20Z</time>
      </trkpt>
      <trkpt lat="43.94915" lon="5.16414">
        <ele>602.88</ele>
        <time>2015-06-11T09:59:23Z</time>
      </trkpt>
      <trkpt lat="43.94913" lon="5.16411">
        <ele>602.4</ele>
        <time>2015-06-11T09:59:26Z</time>
      </trkpt>
      <trkpt lat="43.94903" lon="5.164">
        <ele>602.4</ele>
        <time>2015-06-11T09:59:40Z</time>
      </trkpt>
      <trkpt lat="43.94899" lon="5.16394">
        <ele>602.4</ele>
        <time>2015-06-11T09:59:46Z</time>
      </trkpt>
      <trkpt lat="43.94893" lon="5.16381">
        <ele>602.4</ele>
        <time>2015-06-11T09:59:58Z</time>
      </trkpt>
      <trkpt lat="43.94889" lon="5.16373">
        <ele>602.4</ele>
        <time>2015-06-11T10:00:05Z</time>
      </trkpt>
      <trkpt lat="43.94886" lon="5.16366">
        <ele>602.4</ele>
        <time>2015-06-11T10:00:10Z</time>
      </trkpt>
      <trkpt lat="43.94885" lon="5.16358">
        <ele>601.92</ele>
        <time>2015-06-11T10:00:18Z</time>
      </trkpt>
      <trkpt lat="43.94885" lon="5.16356">
        <ele>601.92</ele>
        <time>2015-06-11T10:00:20Z</time>
      </trkpt>
      <trkpt lat="43.94884" lon="5.16339">
        <ele>601.92</ele>
        <time>2015-06-11T10:00:34Z</time>
      </trkpt>
      <trkpt lat="43.94887" lon="5.16324">
        <ele>600.96</ele>
        <time>2015-06-11T10:00:49Z</time>
      </trkpt>
      <trkpt lat="43.94893" lon="5.16317">
        <ele>599.04</ele>
        <time>2015-06-11T10:01:05Z</time>
      </trkpt>
      <trkpt lat="43.94901" lon="5.16307">
        <ele>598.08</ele>
        <time>2015-06-11T10:01:22Z</time>
      </trkpt>
      <trkpt lat="43.94913" lon="5.16291">
        <ele>597.12</ele>
        <time>2015-06-11T10:01:36Z</time>
      </trkpt>
      <trkpt lat="43.94914" lon="5.16277">
        <ele>597.6</ele>
        <time>2015-06-11T10:01:51Z</time>
      </trkpt>
      <trkpt lat="43.94914" lon="5.16276">
        <ele>597.6</ele>
        <time>2015-06-11T10:01:53Z</time>
      </trkpt>
      <trkpt lat="43.94914" lon="5.16275">
        <ele>596.64</ele>
        <time>2015-06-11T10:02:04Z</time>
      </trkpt>
      <trkpt lat="43.94914" lon="5.16273">
        <ele>597.12</ele>
        <time>2015-06-11T10:02:29Z</time>
      </trkpt>
      <trkpt lat="43.94913" lon="5.16265">
        <ele>598.08</ele>
        <time>2015-06-11T10:02:50Z</time>
      </trkpt>
      <trkpt lat="43.94912" lon="5.16258">
        <ele>598.56</ele>
        <time>2015-06-11T10:03:04Z</time>
      </trkpt>
      <trkpt lat="43.94912" lon="5.16257">
        <ele>598.56</ele>
        <time>2015-06-11T10:03:23Z</time>
      </trkpt>
      <trkpt lat="43.94913" lon="5.16257">
        <ele>598.56</ele>
        <time>2015-06-11T10:03:42Z</time>
      </trkpt>
      <trkpt lat="43.94914" lon="5.16255">
        <ele>599.04</ele>
        <time>2015-06-11T10:04:04Z</time>
      </trkpt>
      <trkpt lat="43.94914" lon="5.16255">
        <ele>599.04</ele>
        <time>2015-06-11T10:04:21Z</time>
      </trkpt>
      <trkpt lat="43.94914" lon="5.16255">
        <ele>598.56</ele>
        <time>2015-06-11T10:04:47Z</time>
      </trkpt>
      <trkpt lat="43.94914" lon="5.16255">
        <ele>598.56</ele>
        <time>2015-06-11T10:05:13Z</time>
      </trkpt>
      <trkpt lat="43.94914" lon="5.16255">
        <ele>598.56</ele>
        <time>2015-06-11T10:05:33Z</time>
      </trkpt>
      <trkpt lat="43.94914" lon="5.16255">
        <ele>599.04</ele>
        <time>2015-06-11T10:06:04Z</time>
      </trkpt>
      <trkpt lat="43.94918" lon="5.16242">
        <ele>599.04</ele>
        <time>2015-06-11T10:06:22Z</time>
      </trkpt>
      <trkpt lat="43.94921" lon="5.16231">
        <ele>600</ele>
        <time>2015-06-11T10:06:37Z</time>
      </trkpt>
      <trkpt lat="43.94928" lon="5.1621">
        <ele>600.96</ele>
        <time>2015-06-11T10:06:54Z</time>
      </trkpt>
      <trkpt lat="43.94932" lon="5.16185">
        <ele>600.96</ele>
        <time>2015-06-11T10:07:12Z</time>
      </trkpt>
      <trkpt lat="43.94933" lon="5.16166">
        <ele>601.44</ele>
        <time>2015-06-11T10:07:28Z</time>
      </trkpt>
      <trkpt lat="43.9494" lon="5.1615">
        <ele>602.4</ele>
        <time>2015-06-11T10:07:43Z</time>
      </trkpt>
      <trkpt lat="43.94948" lon="5.16125">
        <ele>603.36</ele>
        <time>2015-06-11T10:08:02Z</time>
      </trkpt>
      <trkpt lat="43.94952" lon="5.16099">
        <ele>604.33</ele>
        <time>2015-06-11T10:08:20Z</time>
      </trkpt>
      <trkpt lat="43.94949" lon="5.16078">
        <ele>605.29</ele>
        <time>2015-06-11T10:08:37Z</time>
      </trkpt>
      <trkpt lat="43.94943" lon="5.16062">
        <ele>606.25</ele>
        <time>2015-06-11T10:08:50Z</time>
      </trkpt>
      <trkpt lat="43.94934" lon="5.16052">
        <ele>606.73</ele>
        <time>2015-06-11T10:09:03Z</time>
      </trkpt>
      <trkpt lat="43.94922" lon="5.16039">
        <ele>607.69</ele>
        <time>2015-06-11T10:09:18Z</time>
      </trkpt>
      <trkpt lat="43.94922" lon="5.16025">
        <ele>608.65</ele>
        <time>2015-06-11T10:09:33Z</time>
      </trkpt>
      <trkpt lat="43.94928" lon="5.16007">
        <ele>609.61</ele>
        <time>2015-06-11T10:09:48Z</time>
      </trkpt>
      <trkpt lat="43.94938" lon="5.15992">
        <ele>610.09</ele>
        <time>2015-06-11T10:10:04Z</time>
      </trkpt>
      <trkpt lat="43.94951" lon="5.15982">
        <ele>610.57</ele>
        <time>2015-06-11T10:10:18Z</time>
      </trkpt>
      <trkpt lat="43.94966" lon="5.15966">
        <ele>611.06</ele>
        <time>2015-06-11T10:10:37Z</time>
      </trkpt>
      <trkpt lat="43.94979" lon="5.15955">
        <ele>611.54</ele>
        <time>2015-06-11T10:10:52Z</time>
      </trkpt>
      <trkpt lat="43.94981" lon="5.15953">
        <ele>612.02</ele>
        <time>2015-06-11T10:10:54Z</time>
      </trkpt>
      <trkpt lat="43.94995" lon="5.15936">
        <ele>612.5</ele>
        <time>2015-06-11T10:11:12Z</time>
      </trkpt>
      <trkpt lat="43.95007" lon="5.15918">
        <ele>613.46</ele>
        <time>2015-06-11T10:11:31Z</time>
      </trkpt>
      <trkpt lat="43.95016" lon="5.15902">
        <ele>613.94</ele>
        <time>2015-06-11T10:11:47Z</time>
      </trkpt>
      <trkpt lat="43.95024" lon="5.15883">
        <ele>614.42</ele>
        <time>2015-06-11T10:12:04Z</time>
      </trkpt>
      <trkpt lat="43.95028" lon="5.15865">
        <ele>614.9</ele>
        <time>2015-06-11T10:12:20Z</time>
      </trkpt>
      <trkpt lat="43.95034" lon="5.15844">
        <ele>615.38</ele>
        <time>2015-06-11T10:12:37Z</time>
      </trkpt>
      <trkpt lat="43.95037" lon="5.15824">
        <ele>616.34</ele>
        <time>2015-06-11T10:12:52Z</time>
      </trkpt>
      <trkpt lat="43.95033" lon="5.15806">
        <ele>617.3</ele>
        <time>2015-06-11T10:13:08Z</time>
      </trkpt>
      <trkpt lat="43.95028" lon="5.15793">
        <ele>617.78</ele>
        <time>2015-06-11T10:13:23Z</time>
      </trkpt>
      <trkpt lat="43.9502" lon="5.15771">
        <ele>618.75</ele>
        <time>2015-06-11T10:13:38Z</time>
      </trkpt>
      <trkpt lat="43.95016" lon="5.15751">
        <ele>619.23</ele>
        <time>2015-06-11T10:13:52Z</time>
      </trkpt>
      <trkpt lat="43.95013" lon="5.15732">
        <ele>620.19</ele>
        <time>2015-06-11T10:14:06Z</time>
      </trkpt>
      <trkpt lat="43.95011" lon="5.15711">
        <ele>620.67</ele>
        <time>2015-06-11T10:14:22Z</time>
      </trkpt>
      <trkpt lat="43.95012" lon="5.15705">
        <ele>621.15</ele>
        <time>2015-06-11T10:14:26Z</time>
      </trkpt>
      <trkpt lat="43.95002" lon="5.15692">
        <ele>621.63</ele>
        <time>2015-06-11T10:14:38Z</time>
      </trkpt>
      <trkpt lat="43.94995" lon="5.15685">
        <ele>622.11</ele>
        <time>2015-06-11T10:14:45Z</time>
      </trkpt>
      <trkpt lat="43.94993" lon="5.15682">
        <ele>622.11</ele>
        <time>2015-06-11T10:14:48Z</time>
      </trkpt>
      <trkpt lat="43.94982" lon="5.15672">
        <ele>623.07</ele>
        <time>2015-06-11T10:15:00Z</time>
      </trkpt>
      <trkpt lat="43.94975" lon="5.15656">
        <ele>623.55</ele>
        <time>2015-06-11T10:15:14Z</time>
      </trkpt>
      <trkpt lat="43.94975" lon="5.1563">
        <ele>625.47</ele>
        <time>2015-06-11T10:15:35Z</time>
      </trkpt>
      <trkpt lat="43.94976" lon="5.15624">
        <ele>625.96</ele>
        <time>2015-06-11T10:15:56Z</time>
      </trkpt>
      <trkpt lat="43.94976" lon="5.15624">
        <ele>625.96</ele>
        <time>2015-06-11T10:16:14Z</time>
      </trkpt>
      <trkpt lat="43.94974" lon="5.15624">
        <ele>626.44</ele>
        <time>2015-06-11T10:16:31Z</time>
      </trkpt>
      <trkpt lat="43.94974" lon="5.15624">
        <ele>625.47</ele>
        <time>2015-06-11T10:16:43Z</time>
      </trkpt>
      <trkpt lat="43.94973" lon="5.15624">
        <ele>625.47</ele>
        <time>2015-06-11T10:17:11Z</time>
      </trkpt>
      <trkpt lat="43.94973" lon="5.15623">
        <ele>625.47</ele>
        <time>2015-06-11T10:17:32Z</time>
      </trkpt>
      <trkpt lat="43.9497" lon="5.15621">
        <ele>626.44</ele>
        <time>2015-06-11T10:17:49Z</time>
      </trkpt>
      <trkpt lat="43.94969" lon="5.15621">
        <ele>626.44</ele>
        <time>2015-06-11T10:17:50Z</time>
      </trkpt>
      <trkpt lat="43.94966" lon="5.15622">
        <ele>626.44</ele>
        <time>2015-06-11T10:17:53Z</time>
      </trkpt>
      <trkpt lat="43.94954" lon="5.15631">
        <ele>627.88</ele>
        <time>2015-06-11T10:18:08Z</time>
      </trkpt>
      <trkpt lat="43.94945" lon="5.15639">
        <ele>630.28</ele>
        <time>2015-06-11T10:18:22Z</time>
      </trkpt>
      <trkpt lat="43.94935" lon="5.1565">
        <ele>631.24</ele>
        <time>2015-06-11T10:18:38Z</time>
      </trkpt>
      <trkpt lat="43.94933" lon="5.15653">
        <ele>631.72</ele>
        <time>2015-06-11T10:18:41Z</time>
      </trkpt>
      <trkpt lat="43.94928" lon="5.15668">
        <ele>632.2</ele>
        <time>2015-06-11T10:18:56Z</time>
      </trkpt>
      <trkpt lat="43.94926" lon="5.15677">
        <ele>632.2</ele>
        <time>2015-06-11T10:19:11Z</time>
      </trkpt>
      <trkpt lat="43.94922" lon="5.15691">
        <ele>632.2</ele>
        <time>2015-06-11T10:19:26Z</time>
      </trkpt>
      <trkpt lat="43.94919" lon="5.1571">
        <ele>631.72</ele>
        <time>2015-06-11T10:19:42Z</time>
      </trkpt>
      <trkpt lat="43.94917" lon="5.15727">
        <ele>632.2</ele>
        <time>2015-06-11T10:19:56Z</time>
      </trkpt>
      <trkpt lat="43.94917" lon="5.15728">
        <ele>632.2</ele>
        <time>2015-06-11T10:19:57Z</time>
      </trkpt>
      <trkpt lat="43.94914" lon="5.1574">
        <ele>632.2</ele>
        <time>2015-06-11T10:20:05Z</time>
      </trkpt>
      <trkpt lat="43.94907" lon="5.15763">
        <ele>632.2</ele>
        <time>2015-06-11T10:20:21Z</time>
      </trkpt>
      <trkpt lat="43.94898" lon="5.15781">
        <ele>631.72</ele>
        <time>2015-06-11T10:20:33Z</time>
      </trkpt>
      <trkpt lat="43.94886" lon="5.15804">
        <ele>631.72</ele>
        <time>2015-06-11T10:20:48Z</time>
      </trkpt>
      <trkpt lat="43.94872" lon="5.15832">
        <ele>631.72</ele>
        <time>2015-06-11T10:21:05Z</time>
      </trkpt>
      <trkpt lat="43.94862" lon="5.15865">
        <ele>630.28</ele>
        <time>2015-06-11T10:21:24Z</time>
      </trkpt>
      <trkpt lat="43.94861" lon="5.1587">
        <ele>629.8</ele>
        <time>2015-06-11T10:21:39Z</time>
      </trkpt>
      <trkpt lat="43.94853" lon="5.15887">
        <ele>630.28</ele>
        <time>2015-06-11T10:21:52Z</time>
      </trkpt>
      <trkpt lat="43.94842" lon="5.15909">
        <ele>630.76</ele>
        <time>2015-06-11T10:22:08Z</time>
      </trkpt>
      <trkpt lat="43.94832" lon="5.15929">
        <ele>629.32</ele>
        <time>2015-06-11T10:22:22Z</time>
      </trkpt>
      <trkpt lat="43.94824" lon="5.1595">
        <ele>628.36</ele>
        <time>2015-06-11T10:22:38Z</time>
      </trkpt>
      <trkpt lat="43.94809" lon="5.15967">
        <ele>629.32</ele>
        <time>2015-06-11T10:22:54Z</time>
      </trkpt>
      <trkpt lat="43.94803" lon="5.15975">
        <ele>629.32</ele>
        <time>2015-06-11T10:23:00Z</time>
      </trkpt>
      <trkpt lat="43.94789" lon="5.15978">
        <ele>629.8</ele>
        <time>2015-06-11T10:23:15Z</time>
      </trkpt>
      <trkpt lat="43.94779" lon="5.15984">
        <ele>629.8</ele>
        <time>2015-06-11T10:23:26Z</time>
      </trkpt>
      <trkpt lat="43.94762" lon="5.15981">
        <ele>630.28</ele>
        <time>2015-06-11T10:23:43Z</time>
      </trkpt>
      <trkpt lat="43.94746" lon="5.15978">
        <ele>630.28</ele>
        <time>2015-06-11T10:23:57Z</time>
      </trkpt>
      <trkpt lat="43.94737" lon="5.15976">
        <ele>630.76</ele>
        <time>2015-06-11T10:24:06Z</time>
      </trkpt>
      <trkpt lat="43.94728" lon="5.15973">
        <ele>630.76</ele>
        <time>2015-06-11T10:24:15Z</time>
      </trkpt>
      <trkpt lat="43.94712" lon="5.15976">
        <ele>630.76</ele>
        <time>2015-06-11T10:24:28Z</time>
      </trkpt>
      <trkpt lat="43.94704" lon="5.15975">
        <ele>631.24</ele>
        <time>2015-06-11T10:24:34Z</time>
      </trkpt>
      <trkpt lat="43.94686" lon="5.1597">
        <ele>631.24</ele>
        <time>2015-06-11T10:24:52Z</time>
      </trkpt>
      <trkpt lat="43.94683" lon="5.1597">
        <ele>630.76</ele>
        <time>2015-06-11T10:24:54Z</time>
      </trkpt>
      <trkpt lat="43.94666" lon="5.15966">
        <ele>631.24</ele>
        <time>2015-06-11T10:25:08Z</time>
      </trkpt>
      <trkpt lat="43.94649" lon="5.15965">
        <ele>630.76</ele>
        <time>2015-06-11T10:25:23Z</time>
      </trkpt>
      <trkpt lat="43.94644" lon="5.15965">
        <ele>630.76</ele>
        <time>2015-06-11T10:25:27Z</time>
      </trkpt>
      <trkpt lat="43.94625" lon="5.15958">
        <ele>630.76</ele>
        <time>2015-06-11T10:25:43Z</time>
      </trkpt>
      <trkpt lat="43.94618" lon="5.15955">
        <ele>630.76</ele>
        <time>2015-06-11T10:25:50Z</time>
      </trkpt>
      <trkpt lat="43.946" lon="5.15949">
        <ele>630.76</ele>
        <time>2015-06-11T10:26:06Z</time>
      </trkpt>
      <trkpt lat="43.94596" lon="5.15947">
        <ele>630.76</ele>
        <time>2015-06-11T10:26:19Z</time>
      </trkpt>
      <trkpt lat="43.94586" lon="5.15944">
        <ele>630.76</ele>
        <time>2015-06-11T10:26:34Z</time>
      </trkpt>
      <trkpt lat="43.94568" lon="5.1594">
        <ele>630.28</ele>
        <time>2015-06-11T10:26:51Z</time>
      </trkpt>
      <trkpt lat="43.9455" lon="5.1594">
        <ele>629.32</ele>
        <time>2015-06-11T10:27:06Z</time>
      </trkpt>
      <trkpt lat="43.94531" lon="5.15946">
        <ele>629.32</ele>
        <time>2015-06-11T10:27:22Z</time>
      </trkpt>
      <trkpt lat="43.94529" lon="5.15947">
        <ele>628.84</ele>
        <time>2015-06-11T10:27:24Z</time>
      </trkpt>
      <trkpt lat="43.94526" lon="5.15947">
        <ele>628.84</ele>
        <time>2015-06-11T10:27:27Z</time>
      </trkpt>
      <trkpt lat="43.94508" lon="5.15947">
        <ele>628.84</ele>
        <time>2015-06-11T10:27:42Z</time>
      </trkpt>
      <trkpt lat="43.94491" lon="5.15948">
        <ele>628.36</ele>
        <time>2015-06-11T10:27:57Z</time>
      </trkpt>
      <trkpt lat="43.94473" lon="5.15941">
        <ele>628.36</ele>
        <time>2015-06-11T10:28:13Z</time>
      </trkpt>
      <trkpt lat="43.94455" lon="5.15939">
        <ele>627.4</ele>
        <time>2015-06-11T10:28:29Z</time>
      </trkpt>
      <trkpt lat="43.94439" lon="5.1594">
        <ele>627.4</ele>
        <time>2015-06-11T10:28:44Z</time>
      </trkpt>
      <trkpt lat="43.94424" lon="5.15927">
        <ele>627.4</ele>
        <time>2015-06-11T10:28:59Z</time>
      </trkpt>
      <trkpt lat="43.94416" lon="5.15919">
        <ele>627.88</ele>
        <time>2015-06-11T10:29:13Z</time>
      </trkpt>
      <trkpt lat="43.94411" lon="5.15915">
        <ele>627.4</ele>
        <time>2015-06-11T10:29:17Z</time>
      </trkpt>
      <trkpt lat="43.94407" lon="5.15912">
        <ele>627.4</ele>
        <time>2015-06-11T10:29:22Z</time>
      </trkpt>
      <trkpt lat="43.94384" lon="5.15905">
        <ele>626.44</ele>
        <time>2015-06-11T10:29:38Z</time>
      </trkpt>
      <trkpt lat="43.94364" lon="5.15899">
        <ele>625.47</ele>
        <time>2015-06-11T10:29:53Z</time>
      </trkpt>
      <trkpt lat="43.94362" lon="5.15898">
        <ele>625.47</ele>
        <time>2015-06-11T10:29:55Z</time>
      </trkpt>
      <trkpt lat="43.94359" lon="5.15896">
        <ele>625.47</ele>
        <time>2015-06-11T10:29:57Z</time>
      </trkpt>
      <trkpt lat="43.94353" lon="5.15892">
        <ele>624.99</ele>
        <time>2015-06-11T10:30:03Z</time>
      </trkpt>
      <trkpt lat="43.94336" lon="5.15882">
        <ele>624.51</ele>
        <time>2015-06-11T10:30:19Z</time>
      </trkpt>
      <trkpt lat="43.9432" lon="5.15875">
        <ele>623.55</ele>
        <time>2015-06-11T10:30:33Z</time>
      </trkpt>
      <trkpt lat="43.94306" lon="5.15867">
        <ele>623.07</ele>
        <time>2015-06-11T10:30:46Z</time>
      </trkpt>
      <trkpt lat="43.94292" lon="5.15858">
        <ele>621.63</ele>
        <time>2015-06-11T10:31:00Z</time>
      </trkpt>
      <trkpt lat="43.9429" lon="5.15856">
        <ele>621.63</ele>
        <time>2015-06-11T10:31:02Z</time>
      </trkpt>
      <trkpt lat="43.94276" lon="5.15844">
        <ele>619.71</ele>
        <time>2015-06-11T10:31:16Z</time>
      </trkpt>
      <trkpt lat="43.9426" lon="5.15829">
        <ele>618.26</ele>
        <time>2015-06-11T10:31:33Z</time>
      </trkpt>
      <trkpt lat="43.94248" lon="5.1581">
        <ele>616.82</ele>
        <time>2015-06-11T10:31:48Z</time>
      </trkpt>
      <trkpt lat="43.94236" lon="5.15799">
        <ele>616.34</ele>
        <time>2015-06-11T10:32:02Z</time>
      </trkpt>
      <trkpt lat="43.94228" lon="5.15797">
        <ele>616.34</ele>
        <time>2015-06-11T10:32:18Z</time>
      </trkpt>
      <trkpt lat="43.94227" lon="5.15796">
        <ele>615.86</ele>
        <time>2015-06-11T10:32:23Z</time>
      </trkpt>
      <trkpt lat="43.9422" lon="5.15785">
        <ele>616.34</ele>
        <time>2015-06-11T10:32:37Z</time>
      </trkpt>
      <trkpt lat="43.94218" lon="5.15784">
        <ele>616.34</ele>
        <time>2015-06-11T10:32:52Z</time>
      </trkpt>
      <trkpt lat="43.94219" lon="5.15786">
        <ele>616.34</ele>
        <time>2015-06-11T10:33:07Z</time>
      </trkpt>
      <trkpt lat="43.94218" lon="5.15787">
        <ele>615.38</ele>
        <time>2015-06-11T10:33:22Z</time>
      </trkpt>
      <trkpt lat="43.94218" lon="5.15788">
        <ele>615.38</ele>
        <time>2015-06-11T10:33:55Z</time>
      </trkpt>
      <trkpt lat="43.94218" lon="5.15789">
        <ele>615.38</ele>
        <time>2015-06-11T10:34:25Z</time>
      </trkpt>
      <trkpt lat="43.94217" lon="5.15789">
        <ele>614.9</ele>
        <time>2015-06-11T10:34:47Z</time>
      </trkpt>
      <trkpt lat="43.94217" lon="5.15789">
        <ele>614.9</ele>
        <time>2015-06-11T10:35:20Z</time>
      </trkpt>
      <trkpt lat="43.94216" lon="5.15788">
        <ele>615.38</ele>
        <time>2015-06-11T10:35:54Z</time>
      </trkpt>
      <trkpt lat="43.94217" lon="5.15789">
        <ele>615.38</ele>
        <time>2015-06-11T10:36:28Z</time>
      </trkpt>
      <trkpt lat="43.94217" lon="5.15789">
        <ele>615.86</ele>
        <time>2015-06-11T10:36:58Z</time>
      </trkpt>
      <trkpt lat="43.94217" lon="5.15789">
        <ele>615.86</ele>
        <time>2015-06-11T10:37:29Z</time>
      </trkpt>
      <trkpt lat="43.94217" lon="5.15788">
        <ele>615.86</ele>
        <time>2015-06-11T10:38:03Z</time>
      </trkpt>
      <trkpt lat="43.94217" lon="5.15788">
        <ele>615.86</ele>
        <time>2015-06-11T10:38:33Z</time>
      </trkpt>
      <trkpt lat="43.94217" lon="5.15788">
        <ele>615.86</ele>
        <time>2015-06-11T10:39:14Z</time>
      </trkpt>
      <trkpt lat="43.94217" lon="5.15788">
        <ele>615.38</ele>
        <time>2015-06-11T10:39:53Z</time>
      </trkpt>
      <trkpt lat="43.94217" lon="5.15788">
        <ele>615.86</ele>
        <time>2015-06-11T10:40:26Z</time>
      </trkpt>
      <trkpt lat="43.94217" lon="5.15788">
        <ele>615.86</ele>
        <time>2015-06-11T10:41:00Z</time>
      </trkpt>
      <trkpt lat="43.94218" lon="5.15788">
        <ele>615.86</ele>
        <time>2015-06-11T10:41:35Z</time>
      </trkpt>
      <trkpt lat="43.94217" lon="5.15789">
        <ele>616.34</ele>
        <time>2015-06-11T10:42:10Z</time>
      </trkpt>
      <trkpt lat="43.94217" lon="5.15788">
        <ele>615.86</ele>
        <time>2015-06-11T10:42:49Z</time>
      </trkpt>
      <trkpt lat="43.94217" lon="5.15788">
        <ele>615.86</ele>
        <time>2015-06-11T10:43:28Z</time>
      </trkpt>
      <trkpt lat="43.94218" lon="5.15788">
        <ele>616.34</ele>
        <time>2015-06-11T10:44:06Z</time>
      </trkpt>
      <trkpt lat="43.94218" lon="5.15788">
        <ele>616.34</ele>
        <time>2015-06-11T10:44:44Z</time>
      </trkpt>
      <trkpt lat="43.94218" lon="5.15788">
        <ele>616.82</ele>
        <time>2015-06-11T10:45:24Z</time>
      </trkpt>
      <trkpt lat="43.94218" lon="5.15788">
        <ele>616.34</ele>
        <time>2015-06-11T10:45:59Z</time>
      </trkpt>
      <trkpt lat="43.94218" lon="5.15788">
        <ele>615.86</ele>
        <time>2015-06-11T10:46:31Z</time>
      </trkpt>
      <trkpt lat="43.94217" lon="5.15788">
        <ele>616.34</ele>
        <time>2015-06-11T10:47:05Z</time>
      </trkpt>
      <trkpt lat="43.94217" lon="5.15788">
        <ele>616.82</ele>
        <time>2015-06-11T10:47:36Z</time>
      </trkpt>
      <trkpt lat="43.94217" lon="5.15789">
        <ele>616.82</ele>
        <time>2015-06-11T10:48:08Z</time>
      </trkpt>
      <trkpt lat="43.94217" lon="5.15789">
        <ele>616.82</ele>
        <time>2015-06-11T10:48:41Z</time>
      </trkpt>
      <trkpt lat="43.94218" lon="5.15789">
        <ele>616.82</ele>
        <time>2015-06-11T10:49:15Z</time>
      </trkpt>
      <trkpt lat="43.94217" lon="5.15788">
        <ele>616.82</ele>
        <time>2015-06-11T10:49:51Z</time>
      </trkpt>
      <trkpt lat="43.94218" lon="5.15788">
        <ele>616.82</ele>
        <time>2015-06-11T10:50:26Z</time>
      </trkpt>
      <trkpt lat="43.94217" lon="5.15789">
        <ele>616.82</ele>
        <time>2015-06-11T10:51:02Z</time>
      </trkpt>
      <trkpt lat="43.94218" lon="5.15789">
        <ele>616.82</ele>
        <time>2015-06-11T10:51:32Z</time>
      </trkpt>
      <trkpt lat="43.94217" lon="5.15789">
        <ele>616.34</ele>
        <time>2015-06-11T10:52:03Z</time>
      </trkpt>
      <trkpt lat="43.94218" lon="5.15789">
        <ele>617.3</ele>
        <time>2015-06-11T10:52:31Z</time>
      </trkpt>
      <trkpt lat="43.94217" lon="5.15789">
        <ele>616.82</ele>
        <time>2015-06-11T10:53:08Z</time>
      </trkpt>
      <trkpt lat="43.94217" lon="5.15789">
        <ele>617.3</ele>
        <time>2015-06-11T10:53:45Z</time>
      </trkpt>
      <trkpt lat="43.94217" lon="5.15789">
        <ele>617.3</ele>
        <time>2015-06-11T10:54:22Z</time>
      </trkpt>
      <trkpt lat="43.94217" lon="5.15788">
        <ele>617.3</ele>
        <time>2015-06-11T10:55:00Z</time>
      </trkpt>
      <trkpt lat="43.94217" lon="5.15788">
        <ele>617.3</ele>
        <time>2015-06-11T10:55:38Z</time>
      </trkpt>
      <trkpt lat="43.94217" lon="5.15788">
        <ele>617.3</ele>
        <time>2015-06-11T10:56:13Z</time>
      </trkpt>
      <trkpt lat="43.94217" lon="5.15787">
        <ele>617.3</ele>
        <time>2015-06-11T10:56:56Z</time>
      </trkpt>
      <trkpt lat="43.94217" lon="5.15787">
        <ele>617.78</ele>
        <time>2015-06-11T10:57:38Z</time>
      </trkpt>
      <trkpt lat="43.94217" lon="5.15788">
        <ele>618.26</ele>
        <time>2015-06-11T10:58:23Z</time>
      </trkpt>
      <trkpt lat="43.94217" lon="5.15788">
        <ele>617.78</ele>
        <time>2015-06-11T10:59:04Z</time>
      </trkpt>
      <trkpt lat="43.94217" lon="5.15788">
        <ele>618.26</ele>
        <time>2015-06-11T10:59:48Z</time>
      </trkpt>
      <trkpt lat="43.94217" lon="5.15788">
        <ele>618.26</ele>
        <time>2015-06-11T11:00:27Z</time>
      </trkpt>
      <trkpt lat="43.94217" lon="5.15787">
        <ele>617.78</ele>
        <time>2015-06-11T11:01:06Z</time>
      </trkpt>
      <trkpt lat="43.94217" lon="5.15788">
        <ele>618.26</ele>
        <time>2015-06-11T11:01:50Z</time>
      </trkpt>
      <trkpt lat="43.94217" lon="5.15788">
        <ele>617.78</ele>
        <time>2015-06-11T11:02:22Z</time>
      </trkpt>
      <trkpt lat="43.94217" lon="5.15788">
        <ele>617.78</ele>
        <time>2015-06-11T11:02:55Z</time>
      </trkpt>
      <trkpt lat="43.94217" lon="5.15788">
        <ele>618.26</ele>
        <time>2015-06-11T11:03:28Z</time>
      </trkpt>
      <trkpt lat="43.94217" lon="5.15788">
        <ele>618.26</ele>
        <time>2015-06-11T11:04:00Z</time>
      </trkpt>
      <trkpt lat="43.94217" lon="5.15788">
        <ele>618.26</ele>
        <time>2015-06-11T11:04:29Z</time>
      </trkpt>
      <trkpt lat="43.94217" lon="5.15788">
        <ele>618.26</ele>
        <time>2015-06-11T11:05:01Z</time>
      </trkpt>
      <trkpt lat="43.94217" lon="5.15788">
        <ele>618.26</ele>
        <time>2015-06-11T11:05:37Z</time>
      </trkpt>
      <trkpt lat="43.94217" lon="5.15787">
        <ele>618.75</ele>
        <time>2015-06-11T11:06:12Z</time>
      </trkpt>
      <trkpt lat="43.94217" lon="5.15788">
        <ele>618.75</ele>
        <time>2015-06-11T11:06:52Z</time>
      </trkpt>
      <trkpt lat="43.94218" lon="5.15787">
        <ele>618.26</ele>
        <time>2015-06-11T11:07:32Z</time>
      </trkpt>
      <trkpt lat="43.94217" lon="5.15786">
        <ele>618.26</ele>
        <time>2015-06-11T11:08:12Z</time>
      </trkpt>
      <trkpt lat="43.94217" lon="5.15786">
        <ele>618.26</ele>
        <time>2015-06-11T11:08:43Z</time>
      </trkpt>
      <trkpt lat="43.94217" lon="5.15786">
        <ele>618.75</ele>
        <time>2015-06-11T11:09:23Z</time>
      </trkpt>
      <trkpt lat="43.94217" lon="5.15786">
        <ele>618.75</ele>
        <time>2015-06-11T11:10:03Z</time>
      </trkpt>
      <trkpt lat="43.94217" lon="5.15786">
        <ele>618.75</ele>
        <time>2015-06-11T11:10:42Z</time>
      </trkpt>
      <trkpt lat="43.94217" lon="5.15787">
        <ele>618.75</ele>
        <time>2015-06-11T11:11:23Z</time>
      </trkpt>
      <trkpt lat="43.94217" lon="5.15787">
        <ele>618.75</ele>
        <time>2015-06-11T11:12:01Z</time>
      </trkpt>
      <trkpt lat="43.94217" lon="5.15787">
        <ele>618.75</ele>
        <time>2015-06-11T11:12:38Z</time>
      </trkpt>
      <trkpt lat="43.94217" lon="5.15787">
        <ele>618.75</ele>
        <time>2015-06-11T11:13:06Z</time>
      </trkpt>
      <trkpt lat="43.94217" lon="5.15788">
        <ele>618.75</ele>
        <time>2015-06-11T11:13:29Z</time>
      </trkpt>
      <trkpt lat="43.94216" lon="5.15786">
        <ele>618.75</ele>
        <time>2015-06-11T11:14:00Z</time>
      </trkpt>
      <trkpt lat="43.94215" lon="5.15785">
        <ele>618.75</ele>
        <time>2015-06-11T11:14:29Z</time>
      </trkpt>
      <trkpt lat="43.94216" lon="5.15786">
        <ele>618.26</ele>
        <time>2015-06-11T11:14:59Z</time>
      </trkpt>
      <trkpt lat="43.94216" lon="5.15786">
        <ele>618.75</ele>
        <time>2015-06-11T11:15:30Z</time>
      </trkpt>
      <trkpt lat="43.94216" lon="5.15786">
        <ele>618.75</ele>
        <time>2015-06-11T11:16:06Z</time>
      </trkpt>
      <trkpt lat="43.94216" lon="5.15786">
        <ele>619.23</ele>
        <time>2015-06-11T11:16:36Z</time>
      </trkpt>
      <trkpt lat="43.94216" lon="5.15787">
        <ele>618.75</ele>
        <time>2015-06-11T11:17:08Z</time>
      </trkpt>
      <trkpt lat="43.94216" lon="5.15787">
        <ele>618.75</ele>
        <time>2015-06-11T11:17:29Z</time>
      </trkpt>
      <trkpt lat="43.94216" lon="5.15786">
        <ele>618.75</ele>
        <time>2015-06-11T11:18:02Z</time>
      </trkpt>
      <trkpt lat="43.94216" lon="5.15786">
        <ele>619.23</ele>
        <time>2015-06-11T11:18:36Z</time>
      </trkpt>
      <trkpt lat="43.94216" lon="5.15786">
        <ele>619.23</ele>
        <time>2015-06-11T11:19:13Z</time>
      </trkpt>
      <trkpt lat="43.94217" lon="5.15787">
        <ele>619.71</ele>
        <time>2015-06-11T11:19:49Z</time>
      </trkpt>
      <trkpt lat="43.94217" lon="5.15786">
        <ele>619.71</ele>
        <time>2015-06-11T11:20:27Z</time>
      </trkpt>
      <trkpt lat="43.94216" lon="5.15786">
        <ele>619.71</ele>
        <time>2015-06-11T11:20:59Z</time>
      </trkpt>
      <trkpt lat="43.94217" lon="5.15786">
        <ele>619.71</ele>
        <time>2015-06-11T11:21:34Z</time>
      </trkpt>
      <trkpt lat="43.94217" lon="5.15787">
        <ele>619.71</ele>
        <time>2015-06-11T11:22:08Z</time>
      </trkpt>
      <trkpt lat="43.94217" lon="5.15786">
        <ele>620.19</ele>
        <time>2015-06-11T11:22:39Z</time>
      </trkpt>
      <trkpt lat="43.94217" lon="5.15787">
        <ele>620.19</ele>
        <time>2015-06-11T11:23:14Z</time>
      </trkpt>
      <trkpt lat="43.94217" lon="5.15787">
        <ele>619.71</ele>
        <time>2015-06-11T11:23:44Z</time>
      </trkpt>
      <trkpt lat="43.94217" lon="5.15788">
        <ele>620.19</ele>
        <time>2015-06-11T11:24:24Z</time>
      </trkpt>
      <trkpt lat="43.94218" lon="5.15788">
        <ele>620.19</ele>
        <time>2015-06-11T11:25:05Z</time>
      </trkpt>
      <trkpt lat="43.94218" lon="5.15788">
        <ele>620.19</ele>
        <time>2015-06-11T11:25:37Z</time>
      </trkpt>
      <trkpt lat="43.94218" lon="5.15788">
        <ele>619.71</ele>
        <time>2015-06-11T11:26:18Z</time>
      </trkpt>
      <trkpt lat="43.94218" lon="5.15787">
        <ele>619.71</ele>
        <time>2015-06-11T11:26:59Z</time>
      </trkpt>
      <trkpt lat="43.94218" lon="5.15787">
        <ele>620.19</ele>
        <time>2015-06-11T11:27:31Z</time>
      </trkpt>
      <trkpt lat="43.94218" lon="5.15787">
        <ele>620.19</ele>
        <time>2015-06-11T11:28:06Z</time>
      </trkpt>
      <trkpt lat="43.94218" lon="5.15787">
        <ele>620.19</ele>
        <time>2015-06-11T11:28:39Z</time>
      </trkpt>
      <trkpt lat="43.94218" lon="5.15788">
        <ele>620.19</ele>
        <time>2015-06-11T11:29:12Z</time>
      </trkpt>
      <trkpt lat="43.94218" lon="5.15788">
        <ele>620.19</ele>
        <time>2015-06-11T11:29:40Z</time>
      </trkpt>
      <trkpt lat="43.94219" lon="5.15788">
        <ele>620.19</ele>
        <time>2015-06-11T11:30:09Z</time>
      </trkpt>
      <trkpt lat="43.94219" lon="5.15788">
        <ele>620.19</ele>
        <time>2015-06-11T11:30:38Z</time>
      </trkpt>
      <trkpt lat="43.94218" lon="5.15788">
        <ele>620.19</ele>
        <time>2015-06-11T11:31:06Z</time>
      </trkpt>
      <trkpt lat="43.94218" lon="5.15788">
        <ele>620.67</ele>
        <time>2015-06-11T11:31:37Z</time>
      </trkpt>
      <trkpt lat="43.94218" lon="5.15788">
        <ele>620.19</ele>
        <time>2015-06-11T11:32:06Z</time>
      </trkpt>
      <trkpt lat="43.94219" lon="5.15788">
        <ele>620.67</ele>
        <time>2015-06-11T11:32:43Z</time>
      </trkpt>
      <trkpt lat="43.94219" lon="5.15787">
        <ele>621.15</ele>
        <time>2015-06-11T11:33:14Z</time>
      </trkpt>
      <trkpt lat="43.94219" lon="5.15787">
        <ele>620.67</ele>
        <time>2015-06-11T11:33:47Z</time>
      </trkpt>
      <trkpt lat="43.94219" lon="5.15787">
        <ele>620.67</ele>
        <time>2015-06-11T11:34:21Z</time>
      </trkpt>
      <trkpt lat="43.94219" lon="5.15787">
        <ele>620.67</ele>
        <time>2015-06-11T11:34:54Z</time>
      </trkpt>
      <trkpt lat="43.94218" lon="5.15788">
        <ele>620.67</ele>
        <time>2015-06-11T11:35:31Z</time>
      </trkpt>
      <trkpt lat="43.94218" lon="5.15788">
        <ele>621.15</ele>
        <time>2015-06-11T11:36:05Z</time>
      </trkpt>
      <trkpt lat="43.94218" lon="5.15788">
        <ele>621.15</ele>
        <time>2015-06-11T11:36:37Z</time>
      </trkpt>
      <trkpt lat="43.94218" lon="5.15788">
        <ele>620.67</ele>
        <time>2015-06-11T11:37:07Z</time>
      </trkpt>
      <trkpt lat="43.94218" lon="5.15788">
        <ele>620.67</ele>
        <time>2015-06-11T11:37:40Z</time>
      </trkpt>
      <trkpt lat="43.94218" lon="5.15788">
        <ele>621.15</ele>
        <time>2015-06-11T11:38:14Z</time>
      </trkpt>
      <trkpt lat="43.94218" lon="5.15788">
        <ele>621.15</ele>
        <time>2015-06-11T11:38:43Z</time>
      </trkpt>
      <trkpt lat="43.94218" lon="5.15787">
        <ele>620.67</ele>
        <time>2015-06-11T11:39:02Z</time>
      </trkpt>
      <trkpt lat="43.94217" lon="5.15786">
        <ele>621.15</ele>
        <time>2015-06-11T11:39:32Z</time>
      </trkpt>
      <trkpt lat="43.94217" lon="5.15786">
        <ele>621.15</ele>
        <time>2015-06-11T11:40:04Z</time>
      </trkpt>
      <trkpt lat="43.94218" lon="5.15786">
        <ele>621.15</ele>
        <time>2015-06-11T11:40:34Z</time>
      </trkpt>
      <trkpt lat="43.94218" lon="5.15787">
        <ele>621.15</ele>
        <time>2015-06-11T11:41:03Z</time>
      </trkpt>
      <trkpt lat="43.94218" lon="5.15786">
        <ele>621.15</ele>
        <time>2015-06-11T11:41:37Z</time>
      </trkpt>
      <trkpt lat="43.94218" lon="5.15786">
        <ele>621.15</ele>
        <time>2015-06-11T11:42:04Z</time>
      </trkpt>
      <trkpt lat="43.94218" lon="5.15786">
        <ele>620.67</ele>
        <time>2015-06-11T11:42:30Z</time>
      </trkpt>
      <trkpt lat="43.94218" lon="5.15786">
        <ele>622.11</ele>
        <time>2015-06-11T11:42:45Z</time>
      </trkpt>
      <trkpt lat="43.94218" lon="5.15786">
        <ele>622.11</ele>
        <time>2015-06-11T11:43:11Z</time>
      </trkpt>
      <trkpt lat="43.94219" lon="5.15786">
        <ele>622.11</ele>
        <time>2015-06-11T11:43:37Z</time>
      </trkpt>
      <trkpt lat="43.94219" lon="5.15786">
        <ele>622.11</ele>
        <time>2015-06-11T11:44:02Z</time>
      </trkpt>
      <trkpt lat="43.94219" lon="5.15786">
        <ele>622.11</ele>
        <time>2015-06-11T11:44:29Z</time>
      </trkpt>
      <trkpt lat="43.94218" lon="5.15787">
        <ele>622.11</ele>
        <time>2015-06-11T11:44:56Z</time>
      </trkpt>
      <trkpt lat="43.94218" lon="5.15787">
        <ele>622.11</ele>
        <time>2015-06-11T11:45:21Z</time>
      </trkpt>
      <trkpt lat="43.94218" lon="5.15787">
        <ele>622.11</ele>
        <time>2015-06-11T11:45:42Z</time>
      </trkpt>
      <trkpt lat="43.94219" lon="5.15787">
        <ele>622.59</ele>
        <time>2015-06-11T11:46:07Z</time>
      </trkpt>
      <trkpt lat="43.94219" lon="5.15788">
        <ele>622.11</ele>
        <time>2015-06-11T11:46:27Z</time>
      </trkpt>
      <trkpt lat="43.9422" lon="5.15789">
        <ele>622.11</ele>
        <time>2015-06-11T11:46:55Z</time>
      </trkpt>
      <trkpt lat="43.9422" lon="5.15787">
        <ele>622.11</ele>
        <time>2015-06-11T11:47:12Z</time>
      </trkpt>
      <trkpt lat="43.94221" lon="5.15786">
        <ele>622.11</ele>
        <time>2015-06-11T11:47:25Z</time>
      </trkpt>
      <trkpt lat="43.94222" lon="5.15784">
        <ele>621.63</ele>
        <time>2015-06-11T11:47:46Z</time>
      </trkpt>
      <trkpt lat="43.94224" lon="5.15775">
        <ele>621.63</ele>
        <time>2015-06-11T11:48:01Z</time>
      </trkpt>
      <trkpt lat="43.94218" lon="5.15765">
        <ele>621.15</ele>
        <time>2015-06-11T11:48:14Z</time>
      </trkpt>
      <trkpt lat="43.94208" lon="5.15765">
        <ele>620.67</ele>
        <time>2015-06-11T11:48:29Z</time>
      </trkpt>
      <trkpt lat="43.94207" lon="5.15766">
        <ele>620.19</ele>
        <time>2015-06-11T11:48:47Z</time>
      </trkpt>
      <trkpt lat="43.94197" lon="5.15766">
        <ele>619.23</ele>
        <time>2015-06-11T11:49:02Z</time>
      </trkpt>
      <trkpt lat="43.9418" lon="5.15765">
        <ele>617.3</ele>
        <time>2015-06-11T11:49:21Z</time>
      </trkpt>
      <trkpt lat="43.94177" lon="5.15765">
        <ele>617.3</ele>
        <time>2015-06-11T11:49:25Z</time>
      </trkpt>
      <trkpt lat="43.94163" lon="5.15765">
        <ele>615.86</ele>
        <time>2015-06-11T11:49:39Z</time>
      </trkpt>
      <trkpt lat="43.94146" lon="5.15763">
        <ele>613.46</ele>
        <time>2015-06-11T11:49:57Z</time>
      </trkpt>
      <trkpt lat="43.94131" lon="5.15764">
        <ele>611.06</ele>
        <time>2015-06-11T11:50:14Z</time>
      </trkpt>
      <trkpt lat="43.94116" lon="5.15766">
        <ele>607.69</ele>
        <time>2015-06-11T11:50:33Z</time>
      </trkpt>
      <trkpt lat="43.94101" lon="5.15773">
        <ele>605.29</ele>
        <time>2015-06-11T11:50:51Z</time>
      </trkpt>
      <trkpt lat="43.94088" lon="5.15777">
        <ele>602.88</ele>
        <time>2015-06-11T11:51:07Z</time>
      </trkpt>
      <trkpt lat="43.94074" lon="5.15775">
        <ele>600.48</ele>
        <time>2015-06-11T11:51:22Z</time>
      </trkpt>
      <trkpt lat="43.94061" lon="5.15775">
        <ele>597.6</ele>
        <time>2015-06-11T11:51:38Z</time>
      </trkpt>
      <trkpt lat="43.94047" lon="5.15775">
        <ele>594.71</ele>
        <time>2015-06-11T11:51:55Z</time>
      </trkpt>
      <trkpt lat="43.94032" lon="5.15775">
        <ele>591.83</ele>
        <time>2015-06-11T11:52:12Z</time>
      </trkpt>
      <trkpt lat="43.94021" lon="5.15779">
        <ele>589.91</ele>
        <time>2015-06-11T11:52:27Z</time>
      </trkpt>
      <trkpt lat="43.94005" lon="5.15777">
        <ele>587.5</ele>
        <time>2015-06-11T11:52:42Z</time>
      </trkpt>
      <trkpt lat="43.93994" lon="5.15777">
        <ele>585.1</ele>
        <time>2015-06-11T11:52:55Z</time>
      </trkpt>
      <trkpt lat="43.93981" lon="5.1578">
        <ele>582.22</ele>
        <time>2015-06-11T11:53:12Z</time>
      </trkpt>
      <trkpt lat="43.93972" lon="5.15783">
        <ele>579.33</ele>
        <time>2015-06-11T11:53:29Z</time>
      </trkpt>
      <trkpt lat="43.93964" lon="5.15787">
        <ele>577.41</ele>
        <time>2015-06-11T11:53:49Z</time>
      </trkpt>
      <trkpt lat="43.9395" lon="5.15785">
        <ele>575.01</ele>
        <time>2015-06-11T11:54:05Z</time>
      </trkpt>
      <trkpt lat="43.9394" lon="5.15788">
        <ele>571.64</ele>
        <time>2015-06-11T11:54:23Z</time>
      </trkpt>
      <trkpt lat="43.93926" lon="5.15786">
        <ele>568.76</ele>
        <time>2015-06-11T11:54:40Z</time>
      </trkpt>
      <trkpt lat="43.93912" lon="5.15783">
        <ele>565.87</ele>
        <time>2015-06-11T11:54:56Z</time>
      </trkpt>
      <trkpt lat="43.93902" lon="5.15774">
        <ele>562.99</ele>
        <time>2015-06-11T11:55:12Z</time>
      </trkpt>
      <trkpt lat="43.9389" lon="5.15767">
        <ele>560.11</ele>
        <time>2015-06-11T11:55:28Z</time>
      </trkpt>
      <trkpt lat="43.93879" lon="5.15754">
        <ele>557.7</ele>
        <time>2015-06-11T11:55:45Z</time>
      </trkpt>
      <trkpt lat="43.93866" lon="5.15744">
        <ele>554.82</ele>
        <time>2015-06-11T11:56:01Z</time>
      </trkpt>
      <trkpt lat="43.93853" lon="5.15735">
        <ele>552.41</ele>
        <time>2015-06-11T11:56:17Z</time>
      </trkpt>
      <trkpt lat="43.93838" lon="5.15727">
        <ele>550.49</ele>
        <time>2015-06-11T11:56:32Z</time>
      </trkpt>
      <trkpt lat="43.93823" lon="5.15723">
        <ele>548.57</ele>
        <time>2015-06-11T11:56:48Z</time>
      </trkpt>
      <trkpt lat="43.9381" lon="5.15723">
        <ele>546.65</ele>
        <time>2015-06-11T11:57:03Z</time>
      </trkpt>
      <trkpt lat="43.93795" lon="5.15721">
        <ele>545.2</ele>
        <time>2015-06-11T11:57:18Z</time>
      </trkpt>
      <trkpt lat="43.93783" lon="5.15722">
        <ele>543.76</ele>
        <time>2015-06-11T11:57:33Z</time>
      </trkpt>
      <trkpt lat="43.93769" lon="5.15725">
        <ele>541.84</ele>
        <time>2015-06-11T11:57:48Z</time>
      </trkpt>
      <trkpt lat="43.93752" lon="5.15731">
        <ele>539.92</ele>
        <time>2015-06-11T11:58:06Z</time>
      </trkpt>
      <trkpt lat="43.93741" lon="5.15741">
        <ele>538.48</ele>
        <time>2015-06-11T11:58:21Z</time>
      </trkpt>
      <trkpt lat="43.93728" lon="5.15748">
        <ele>537.03</ele>
        <time>2015-06-11T11:58:36Z</time>
      </trkpt>
      <trkpt lat="43.93714" lon="5.15754">
        <ele>534.63</ele>
        <time>2015-06-11T11:58:50Z</time>
      </trkpt>
      <trkpt lat="43.93697" lon="5.15762">
        <ele>533.19</ele>
        <time>2015-06-11T11:59:07Z</time>
      </trkpt>
      <trkpt lat="43.93677" lon="5.1577">
        <ele>531.75</ele>
        <time>2015-06-11T11:59:26Z</time>
      </trkpt>
      <trkpt lat="43.93664" lon="5.15779">
        <ele>530.3</ele>
        <time>2015-06-11T11:59:39Z</time>
      </trkpt>
      <trkpt lat="43.93653" lon="5.15785">
        <ele>528.38</ele>
        <time>2015-06-11T11:59:54Z</time>
      </trkpt>
      <trkpt lat="43.93636" lon="5.15793">
        <ele>526.94</ele>
        <time>2015-06-11T12:00:13Z</time>
      </trkpt>
      <trkpt lat="43.93622" lon="5.158">
        <ele>525.5</ele>
        <time>2015-06-11T12:00:28Z</time>
      </trkpt>
      <trkpt lat="43.9361" lon="5.15805">
        <ele>523.09</ele>
        <time>2015-06-11T12:00:43Z</time>
      </trkpt>
      <trkpt lat="43.93597" lon="5.15816">
        <ele>521.17</ele>
        <time>2015-06-11T12:00:59Z</time>
      </trkpt>
      <trkpt lat="43.9358" lon="5.15836">
        <ele>519.25</ele>
        <time>2015-06-11T12:01:17Z</time>
      </trkpt>
      <trkpt lat="43.93574" lon="5.15843">
        <ele>518.77</ele>
        <time>2015-06-11T12:01:26Z</time>
      </trkpt>
      <trkpt lat="43.93563" lon="5.15857">
        <ele>516.85</ele>
        <time>2015-06-11T12:01:41Z</time>
      </trkpt>
      <trkpt lat="43.93547" lon="5.15861">
        <ele>515.4</ele>
        <time>2015-06-11T12:01:59Z</time>
      </trkpt>
      <trkpt lat="43.93533" lon="5.15871">
        <ele>513.48</ele>
        <time>2015-06-11T12:02:15Z</time>
      </trkpt>
      <trkpt lat="43.93529" lon="5.15872">
        <ele>513</ele>
        <time>2015-06-11T12:02:18Z</time>
      </trkpt>
      <trkpt lat="43.93514" lon="5.15871">
        <ele>511.08</ele>
        <time>2015-06-11T12:02:34Z</time>
      </trkpt>
      <trkpt lat="43.93502" lon="5.15875">
        <ele>509.64</ele>
        <time>2015-06-11T12:02:49Z</time>
      </trkpt>
      <trkpt lat="43.93501" lon="5.15875">
        <ele>509.64</ele>
        <time>2015-06-11T12:02:50Z</time>
      </trkpt>
      <trkpt lat="43.93487" lon="5.15877">
        <ele>507.71</ele>
        <time>2015-06-11T12:03:05Z</time>
      </trkpt>
      <trkpt lat="43.93476" lon="5.15893">
        <ele>506.27</ele>
        <time>2015-06-11T12:03:24Z</time>
      </trkpt>
      <trkpt lat="43.93466" lon="5.15901">
        <ele>504.35</ele>
        <time>2015-06-11T12:03:38Z</time>
      </trkpt>
      <trkpt lat="43.93461" lon="5.15906">
        <ele>502.91</ele>
        <time>2015-06-11T12:03:56Z</time>
      </trkpt>
      <trkpt lat="43.93461" lon="5.15907">
        <ele>502.91</ele>
        <time>2015-06-11T12:04:22Z</time>
      </trkpt>
      <trkpt lat="43.93461" lon="5.15907">
        <ele>502.91</ele>
        <time>2015-06-11T12:04:45Z</time>
      </trkpt>
      <trkpt lat="43.93461" lon="5.15907">
        <ele>502.91</ele>
        <time>2015-06-11T12:05:14Z</time>
      </trkpt>
      <trkpt lat="43.93461" lon="5.15907">
        <ele>502.91</ele>
        <time>2015-06-11T12:05:37Z</time>
      </trkpt>
      <trkpt lat="43.93461" lon="5.15906">
        <ele>502.43</ele>
        <time>2015-06-11T12:06:01Z</time>
      </trkpt>
      <trkpt lat="43.93462" lon="5.15906">
        <ele>502.43</ele>
        <time>2015-06-11T12:06:22Z</time>
      </trkpt>
      <trkpt lat="43.93455" lon="5.15907">
        <ele>501.95</ele>
        <time>2015-06-11T12:06:42Z</time>
      </trkpt>
      <trkpt lat="43.9344" lon="5.15913">
        <ele>500.02</ele>
        <time>2015-06-11T12:06:57Z</time>
      </trkpt>
      <trkpt lat="43.93423" lon="5.15918">
        <ele>498.58</ele>
        <time>2015-06-11T12:07:13Z</time>
      </trkpt>
      <trkpt lat="43.93409" lon="5.1593">
        <ele>497.14</ele>
        <time>2015-06-11T12:07:30Z</time>
      </trkpt>
      <trkpt lat="43.93395" lon="5.15944">
        <ele>495.7</ele>
        <time>2015-06-11T12:07:47Z</time>
      </trkpt>
      <trkpt lat="43.9338" lon="5.15956">
        <ele>493.77</ele>
        <time>2015-06-11T12:08:02Z</time>
      </trkpt>
      <trkpt lat="43.93367" lon="5.15967">
        <ele>492.81</ele>
        <time>2015-06-11T12:08:19Z</time>
      </trkpt>
      <trkpt lat="43.93357" lon="5.15973">
        <ele>492.33</ele>
        <time>2015-06-11T12:08:29Z</time>
      </trkpt>
      <trkpt lat="43.93338" lon="5.15985">
        <ele>490.41</ele>
        <time>2015-06-11T12:08:49Z</time>
      </trkpt>
      <trkpt lat="43.93331" lon="5.15994">
        <ele>489.93</ele>
        <time>2015-06-11T12:08:58Z</time>
      </trkpt>
      <trkpt lat="43.93312" lon="5.16005">
        <ele>488.01</ele>
        <time>2015-06-11T12:09:17Z</time>
      </trkpt>
      <trkpt lat="43.93299" lon="5.16019">
        <ele>486.56</ele>
        <time>2015-06-11T12:09:34Z</time>
      </trkpt>
      <trkpt lat="43.93283" lon="5.16031">
        <ele>485.6</ele>
        <time>2015-06-11T12:09:51Z</time>
      </trkpt>
      <trkpt lat="43.93268" lon="5.16043">
        <ele>484.16</ele>
        <time>2015-06-11T12:10:08Z</time>
      </trkpt>
      <trkpt lat="43.93251" lon="5.16053">
        <ele>482.72</ele>
        <time>2015-06-11T12:10:25Z</time>
      </trkpt>
      <trkpt lat="43.93239" lon="5.16057">
        <ele>481.28</ele>
        <time>2015-06-11T12:10:37Z</time>
      </trkpt>
      <trkpt lat="43.93235" lon="5.16059">
        <ele>481.28</ele>
        <time>2015-06-11T12:10:41Z</time>
      </trkpt>
      <trkpt lat="43.9322" lon="5.16065">
        <ele>479.84</ele>
        <time>2015-06-11T12:10:55Z</time>
      </trkpt>
      <trkpt lat="43.93205" lon="5.16072">
        <ele>478.87</ele>
        <time>2015-06-11T12:11:10Z</time>
      </trkpt>
      <trkpt lat="43.93189" lon="5.16077">
        <ele>477.43</ele>
        <time>2015-06-11T12:11:27Z</time>
      </trkpt>
      <trkpt lat="43.93169" lon="5.16083">
        <ele>475.99</ele>
        <time>2015-06-11T12:11:47Z</time>
      </trkpt>
      <trkpt lat="43.93162" lon="5.16086">
        <ele>475.51</ele>
        <time>2015-06-11T12:11:55Z</time>
      </trkpt>
      <trkpt lat="43.93145" lon="5.16094">
        <ele>474.07</ele>
        <time>2015-06-11T12:12:11Z</time>
      </trkpt>
      <trkpt lat="43.9313" lon="5.16098">
        <ele>473.11</ele>
        <time>2015-06-11T12:12:26Z</time>
      </trkpt>
      <trkpt lat="43.93117" lon="5.1611">
        <ele>471.66</ele>
        <time>2015-06-11T12:12:43Z</time>
      </trkpt>
      <trkpt lat="43.93111" lon="5.16117">
        <ele>471.18</ele>
        <time>2015-06-11T12:12:50Z</time>
      </trkpt>
      <trkpt lat="43.93097" lon="5.16132">
        <ele>469.74</ele>
        <time>2015-06-11T12:13:07Z</time>
      </trkpt>
      <trkpt lat="43.9309" lon="5.16136">
        <ele>469.26</ele>
        <time>2015-06-11T12:13:13Z</time>
      </trkpt>
      <trkpt lat="43.93072" lon="5.16142">
        <ele>468.3</ele>
        <time>2015-06-11T12:13:29Z</time>
      </trkpt>
      <trkpt lat="43.93056" lon="5.16146">
        <ele>467.34</ele>
        <time>2015-06-11T12:13:45Z</time>
      </trkpt>
      <trkpt lat="43.93047" lon="5.16151">
        <ele>466.86</ele>
        <time>2015-06-11T12:13:54Z</time>
      </trkpt>
      <trkpt lat="43.93034" lon="5.16152">
        <ele>465.9</ele>
        <time>2015-06-11T12:14:08Z</time>
      </trkpt>
      <trkpt lat="43.93017" lon="5.16156">
        <ele>464.93</ele>
        <time>2015-06-11T12:14:23Z</time>
      </trkpt>
      <trkpt lat="43.93015" lon="5.16156">
        <ele>464.45</ele>
        <time>2015-06-11T12:14:26Z</time>
      </trkpt>
      <trkpt lat="43.93005" lon="5.16159">
        <ele>463.97</ele>
        <time>2015-06-11T12:14:36Z</time>
      </trkpt>
      <trkpt lat="43.92987" lon="5.16163">
        <ele>463.01</ele>
        <time>2015-06-11T12:14:54Z</time>
      </trkpt>
      <trkpt lat="43.92974" lon="5.16171">
        <ele>462.05</ele>
        <time>2015-06-11T12:15:08Z</time>
      </trkpt>
      <trkpt lat="43.92958" lon="5.16173">
        <ele>460.61</ele>
        <time>2015-06-11T12:15:24Z</time>
      </trkpt>
      <trkpt lat="43.92955" lon="5.16172">
        <ele>460.13</ele>
        <time>2015-06-11T12:15:27Z</time>
      </trkpt>
      <trkpt lat="43.92944" lon="5.16179">
        <ele>458.69</ele>
        <time>2015-06-11T12:15:39Z</time>
      </trkpt>
      <trkpt lat="43.92931" lon="5.1619">
        <ele>457.72</ele>
        <time>2015-06-11T12:15:52Z</time>
      </trkpt>
      <trkpt lat="43.92913" lon="5.16199">
        <ele>456.28</ele>
        <time>2015-06-11T12:16:10Z</time>
      </trkpt>
      <trkpt lat="43.92894" lon="5.16204">
        <ele>455.32</ele>
        <time>2015-06-11T12:16:27Z</time>
      </trkpt>
      <trkpt lat="43.92877" lon="5.16207">
        <ele>453.88</ele>
        <time>2015-06-11T12:16:42Z</time>
      </trkpt>
      <trkpt lat="43.92862" lon="5.16213">
        <ele>452.44</ele>
        <time>2015-06-11T12:16:56Z</time>
      </trkpt>
      <trkpt lat="43.92858" lon="5.16214">
        <ele>452.44</ele>
        <time>2015-06-11T12:17:00Z</time>
      </trkpt>
      <trkpt lat="43.9285" lon="5.16219">
        <ele>451.48</ele>
        <time>2015-06-11T12:17:09Z</time>
      </trkpt>
      <trkpt lat="43.92831" lon="5.16229">
        <ele>449.55</ele>
        <time>2015-06-11T12:17:29Z</time>
      </trkpt>
      <trkpt lat="43.92813" lon="5.16238">
        <ele>448.11</ele>
        <time>2015-06-11T12:17:46Z</time>
      </trkpt>
      <trkpt lat="43.92798" lon="5.16246">
        <ele>447.63</ele>
        <time>2015-06-11T12:18:00Z</time>
      </trkpt>
      <trkpt lat="43.92781" lon="5.16249">
        <ele>446.67</ele>
        <time>2015-06-11T12:18:15Z</time>
      </trkpt>
      <trkpt lat="43.92766" lon="5.16251">
        <ele>444.75</ele>
        <time>2015-06-11T12:18:30Z</time>
      </trkpt>
      <trkpt lat="43.92752" lon="5.16253">
        <ele>444.27</ele>
        <time>2015-06-11T12:18:45Z</time>
      </trkpt>
      <trkpt lat="43.9275" lon="5.16254">
        <ele>444.27</ele>
        <time>2015-06-11T12:18:50Z</time>
      </trkpt>
      <trkpt lat="43.92734" lon="5.16256">
        <ele>443.79</ele>
        <time>2015-06-11T12:19:05Z</time>
      </trkpt>
      <trkpt lat="43.92719" lon="5.16259">
        <ele>442.34</ele>
        <time>2015-06-11T12:19:19Z</time>
      </trkpt>
      <trkpt lat="43.92701" lon="5.16263">
        <ele>441.38</ele>
        <time>2015-06-11T12:19:35Z</time>
      </trkpt>
      <trkpt lat="43.92688" lon="5.16262">
        <ele>440.42</ele>
        <time>2015-06-11T12:19:47Z</time>
      </trkpt>
      <trkpt lat="43.92684" lon="5.16262">
        <ele>439.94</ele>
        <time>2015-06-11T12:19:50Z</time>
      </trkpt>
      <trkpt lat="43.92668" lon="5.16263">
        <ele>439.46</ele>
        <time>2015-06-11T12:20:06Z</time>
      </trkpt>
      <trkpt lat="43.92658" lon="5.16266">
        <ele>438.5</ele>
        <time>2015-06-11T12:20:16Z</time>
      </trkpt>
      <trkpt lat="43.92642" lon="5.16271">
        <ele>437.54</ele>
        <time>2015-06-11T12:20:32Z</time>
      </trkpt>
      <trkpt lat="43.9263" lon="5.16291">
        <ele>436.1</ele>
        <time>2015-06-11T12:20:50Z</time>
      </trkpt>
      <trkpt lat="43.92624" lon="5.16314">
        <ele>434.17</ele>
        <time>2015-06-11T12:21:06Z</time>
      </trkpt>
      <trkpt lat="43.92613" lon="5.16329">
        <ele>432.73</ele>
        <time>2015-06-11T12:21:22Z</time>
      </trkpt>
      <trkpt lat="43.92605" lon="5.16331">
        <ele>432.25</ele>
        <time>2015-06-11T12:21:29Z</time>
      </trkpt>
      <trkpt lat="43.92588" lon="5.16329">
        <ele>431.29</ele>
        <time>2015-06-11T12:21:46Z</time>
      </trkpt>
      <trkpt lat="43.92587" lon="5.16328">
        <ele>430.81</ele>
        <time>2015-06-11T12:21:47Z</time>
      </trkpt>
      <trkpt lat="43.9257" lon="5.16329">
        <ele>429.85</ele>
        <time>2015-06-11T12:22:03Z</time>
      </trkpt>
      <trkpt lat="43.92555" lon="5.1633">
        <ele>428.89</ele>
        <time>2015-06-11T12:22:18Z</time>
      </trkpt>
      <trkpt lat="43.92547" lon="5.16323">
        <ele>428.4</ele>
        <time>2015-06-11T12:22:28Z</time>
      </trkpt>
      <trkpt lat="43.9253" lon="5.16313">
        <ele>426.96</ele>
        <time>2015-06-11T12:22:44Z</time>
      </trkpt>
      <trkpt lat="43.92515" lon="5.16305">
        <ele>426</ele>
        <time>2015-06-11T12:22:58Z</time>
      </trkpt>
      <trkpt lat="43.92506" lon="5.16304">
        <ele>425.52</ele>
        <time>2015-06-11T12:23:06Z</time>
      </trkpt>
      <trkpt lat="43.92489" lon="5.16301">
        <ele>424.08</ele>
        <time>2015-06-11T12:23:23Z</time>
      </trkpt>
      <trkpt lat="43.92486" lon="5.16301">
        <ele>423.6</ele>
        <time>2015-06-11T12:23:26Z</time>
      </trkpt>
      <trkpt lat="43.92483" lon="5.16302">
        <ele>423.6</ele>
        <time>2015-06-11T12:23:28Z</time>
      </trkpt>
      <trkpt lat="43.92471" lon="5.16303">
        <ele>423.12</ele>
        <time>2015-06-11T12:23:38Z</time>
      </trkpt>
      <trkpt lat="43.92461" lon="5.16308">
        <ele>422.16</ele>
        <time>2015-06-11T12:23:48Z</time>
      </trkpt>
      <trkpt lat="43.9245" lon="5.16312">
        <ele>421.68</ele>
        <time>2015-06-11T12:24:00Z</time>
      </trkpt>
      <trkpt lat="43.92447" lon="5.16313">
        <ele>421.19</ele>
        <time>2015-06-11T12:24:02Z</time>
      </trkpt>
      <trkpt lat="43.9243" lon="5.16319">
        <ele>420.71</ele>
        <time>2015-06-11T12:24:17Z</time>
      </trkpt>
      <trkpt lat="43.92416" lon="5.16323">
        <ele>419.75</ele>
        <time>2015-06-11T12:24:30Z</time>
      </trkpt>
      <trkpt lat="43.92402" lon="5.16327">
        <ele>418.79</ele>
        <time>2015-06-11T12:24:44Z</time>
      </trkpt>
      <trkpt lat="43.92387" lon="5.16326">
        <ele>417.83</ele>
        <time>2015-06-11T12:24:57Z</time>
      </trkpt>
      <trkpt lat="43.92379" lon="5.16324">
        <ele>417.35</ele>
        <time>2015-06-11T12:25:05Z</time>
      </trkpt>
      <trkpt lat="43.92364" lon="5.16333">
        <ele>415.91</ele>
        <time>2015-06-11T12:25:21Z</time>
      </trkpt>
      <trkpt lat="43.92357" lon="5.1634">
        <ele>414.95</ele>
        <time>2015-06-11T12:25:31Z</time>
      </trkpt>
      <trkpt lat="43.92354" lon="5.16345">
        <ele>414.47</ele>
        <time>2015-06-11T12:25:35Z</time>
      </trkpt>
      <trkpt lat="43.9235" lon="5.16352">
        <ele>414.47</ele>
        <time>2015-06-11T12:25:40Z</time>
      </trkpt>
      <trkpt lat="43.9234" lon="5.16365">
        <ele>413.5</ele>
        <time>2015-06-11T12:25:56Z</time>
      </trkpt>
      <trkpt lat="43.92333" lon="5.16368">
        <ele>413.02</ele>
        <time>2015-06-11T12:26:05Z</time>
      </trkpt>
      <trkpt lat="43.9233" lon="5.16371">
        <ele>413.02</ele>
        <time>2015-06-11T12:26:09Z</time>
      </trkpt>
      <trkpt lat="43.92326" lon="5.16374">
        <ele>412.54</ele>
        <time>2015-06-11T12:26:13Z</time>
      </trkpt>
      <trkpt lat="43.9232" lon="5.16377">
        <ele>412.06</ele>
        <time>2015-06-11T12:26:18Z</time>
      </trkpt>
      <trkpt lat="43.92314" lon="5.16376">
        <ele>411.58</ele>
        <time>2015-06-11T12:26:24Z</time>
      </trkpt>
      <trkpt lat="43.923" lon="5.16371">
        <ele>410.62</ele>
        <time>2015-06-11T12:26:39Z</time>
      </trkpt>
      <trkpt lat="43.92297" lon="5.16371">
        <ele>410.14</ele>
        <time>2015-06-11T12:26:42Z</time>
      </trkpt>
      <trkpt lat="43.9229" lon="5.16368">
        <ele>410.14</ele>
        <time>2015-06-11T12:26:48Z</time>
      </trkpt>
      <trkpt lat="43.9227" lon="5.16371">
        <ele>408.7</ele>
        <time>2015-06-11T12:27:04Z</time>
      </trkpt>
      <trkpt lat="43.92254" lon="5.16376">
        <ele>407.74</ele>
        <time>2015-06-11T12:27:19Z</time>
      </trkpt>
      <trkpt lat="43.92239" lon="5.16384">
        <ele>407.26</ele>
        <time>2015-06-11T12:27:34Z</time>
      </trkpt>
      <trkpt lat="43.92228" lon="5.16396">
        <ele>405.81</ele>
        <time>2015-06-11T12:27:46Z</time>
      </trkpt>
      <trkpt lat="43.92214" lon="5.16404">
        <ele>404.85</ele>
        <time>2015-06-11T12:28:01Z</time>
      </trkpt>
      <trkpt lat="43.92197" lon="5.16416">
        <ele>403.41</ele>
        <time>2015-06-11T12:28:16Z</time>
      </trkpt>
      <trkpt lat="43.92192" lon="5.16418">
        <ele>402.93</ele>
        <time>2015-06-11T12:28:20Z</time>
      </trkpt>
      <trkpt lat="43.9219" lon="5.1642">
        <ele>402.93</ele>
        <time>2015-06-11T12:28:22Z</time>
      </trkpt>
      <trkpt lat="43.92178" lon="5.16426">
        <ele>401.97</ele>
        <time>2015-06-11T12:28:33Z</time>
      </trkpt>
      <trkpt lat="43.92164" lon="5.16425">
        <ele>401.01</ele>
        <time>2015-06-11T12:28:46Z</time>
      </trkpt>
      <trkpt lat="43.92146" lon="5.16424">
        <ele>400.53</ele>
        <time>2015-06-11T12:29:01Z</time>
      </trkpt>
      <trkpt lat="43.92135" lon="5.1642">
        <ele>399.57</ele>
        <time>2015-06-11T12:29:12Z</time>
      </trkpt>
      <trkpt lat="43.92122" lon="5.1641">
        <ele>398.6</ele>
        <time>2015-06-11T12:29:26Z</time>
      </trkpt>
      <trkpt lat="43.92107" lon="5.16404">
        <ele>397.16</ele>
        <time>2015-06-11T12:29:40Z</time>
      </trkpt>
      <trkpt lat="43.92093" lon="5.1641">
        <ele>396.2</ele>
        <time>2015-06-11T12:29:54Z</time>
      </trkpt>
      <trkpt lat="43.9208" lon="5.16417">
        <ele>395.24</ele>
        <time>2015-06-11T12:30:08Z</time>
      </trkpt>
      <trkpt lat="43.9208" lon="5.16417">
        <ele>395.24</ele>
        <time>2015-06-11T12:30:09Z</time>
      </trkpt>
      <trkpt lat="43.9208" lon="5.16418">
        <ele>393.8</ele>
        <time>2015-06-11T12:30:23Z</time>
      </trkpt>
      <trkpt lat="43.92079" lon="5.1642">
        <ele>394.28</ele>
        <time>2015-06-11T12:30:44Z</time>
      </trkpt>
      <trkpt lat="43.92079" lon="5.16423">
        <ele>394.28</ele>
        <time>2015-06-11T12:31:02Z</time>
      </trkpt>
      <trkpt lat="43.92078" lon="5.16422">
        <ele>394.76</ele>
        <time>2015-06-11T12:31:24Z</time>
      </trkpt>
      <trkpt lat="43.92078" lon="5.16422">
        <ele>394.28</ele>
        <time>2015-06-11T12:31:48Z</time>
      </trkpt>
      <trkpt lat="43.92078" lon="5.16422">
        <ele>394.28</ele>
        <time>2015-06-11T12:32:11Z</time>
      </trkpt>
      <trkpt lat="43.92078" lon="5.16422">
        <ele>394.28</ele>
        <time>2015-06-11T12:32:31Z</time>
      </trkpt>
      <trkpt lat="43.92079" lon="5.16422">
        <ele>394.28</ele>
        <time>2015-06-11T12:32:50Z</time>
      </trkpt>
      <trkpt lat="43.92079" lon="5.16422">
        <ele>394.28</ele>
        <time>2015-06-11T12:33:07Z</time>
      </trkpt>
      <trkpt lat="43.92078" lon="5.16422">
        <ele>394.76</ele>
        <time>2015-06-11T12:33:28Z</time>
      </trkpt>
      <trkpt lat="43.92079" lon="5.16422">
        <ele>394.28</ele>
        <time>2015-06-11T12:33:52Z</time>
      </trkpt>
      <trkpt lat="43.92078" lon="5.16423">
        <ele>394.28</ele>
        <time>2015-06-11T12:34:17Z</time>
      </trkpt>
      <trkpt lat="43.92077" lon="5.16423">
        <ele>394.28</ele>
        <time>2015-06-11T12:34:48Z</time>
      </trkpt>
      <trkpt lat="43.92078" lon="5.16423">
        <ele>393.8</ele>
        <time>2015-06-11T12:35:09Z</time>
      </trkpt>
      <trkpt lat="43.92078" lon="5.16424">
        <ele>394.28</ele>
        <time>2015-06-11T12:35:31Z</time>
      </trkpt>
      <trkpt lat="43.92078" lon="5.16424">
        <ele>394.28</ele>
        <time>2015-06-11T12:35:51Z</time>
      </trkpt>
      <trkpt lat="43.92078" lon="5.16425">
        <ele>394.28</ele>
        <time>2015-06-11T12:35:54Z</time>
      </trkpt>
      <trkpt lat="43.92075" lon="5.16428">
        <ele>394.28</ele>
        <time>2015-06-11T12:35:58Z</time>
      </trkpt>
      <trkpt lat="43.9207" lon="5.16433">
        <ele>393.8</ele>
        <time>2015-06-11T12:36:06Z</time>
      </trkpt>
      <trkpt lat="43.92065" lon="5.1644">
        <ele>393.32</ele>
        <time>2015-06-11T12:36:13Z</time>
      </trkpt>
      <trkpt lat="43.92061" lon="5.16447">
        <ele>392.84</ele>
        <time>2015-06-11T12:36:19Z</time>
      </trkpt>
      <trkpt lat="43.9206" lon="5.16448">
        <ele>392.84</ele>
        <time>2015-06-11T12:36:21Z</time>
      </trkpt>
      <trkpt lat="43.9205" lon="5.16457">
        <ele>392.36</ele>
        <time>2015-06-11T12:36:33Z</time>
      </trkpt>
      <trkpt lat="43.92032" lon="5.16461">
        <ele>391.39</ele>
        <time>2015-06-11T12:36:50Z</time>
      </trkpt>
      <trkpt lat="43.92017" lon="5.16459">
        <ele>389.95</ele>
        <time>2015-06-11T12:37:04Z</time>
      </trkpt>
      <trkpt lat="43.92001" lon="5.16454">
        <ele>389.47</ele>
        <time>2015-06-11T12:37:20Z</time>
      </trkpt>
      <trkpt lat="43.9199" lon="5.1646">
        <ele>388.99</ele>
        <time>2015-06-11T12:37:34Z</time>
      </trkpt>
      <trkpt lat="43.91984" lon="5.16461">
        <ele>388.99</ele>
        <time>2015-06-11T12:37:48Z</time>
      </trkpt>
      <trkpt lat="43.91972" lon="5.16467">
        <ele>389.95</ele>
        <time>2015-06-11T12:38:03Z</time>
      </trkpt>
      <trkpt lat="43.91964" lon="5.16478">
        <ele>392.36</ele>
        <time>2015-06-11T12:38:20Z</time>
      </trkpt>
      <trkpt lat="43.91957" lon="5.16483">
        <ele>393.8</ele>
        <time>2015-06-11T12:38:33Z</time>
      </trkpt>
      <trkpt lat="43.91946" lon="5.16484">
        <ele>395.72</ele>
        <time>2015-06-11T12:38:47Z</time>
      </trkpt>
      <trkpt lat="43.91938" lon="5.16491">
        <ele>398.6</ele>
        <time>2015-06-11T12:39:03Z</time>
      </trkpt>
      <trkpt lat="43.91928" lon="5.16493">
        <ele>400.53</ele>
        <time>2015-06-11T12:39:19Z</time>
      </trkpt>
      <trkpt lat="43.91921" lon="5.16496">
        <ele>403.41</ele>
        <time>2015-06-11T12:39:33Z</time>
      </trkpt>
      <trkpt lat="43.91912" lon="5.16497">
        <ele>405.81</ele>
        <time>2015-06-11T12:39:51Z</time>
      </trkpt>
      <trkpt lat="43.91904" lon="5.16496">
        <ele>408.22</ele>
        <time>2015-06-11T12:40:09Z</time>
      </trkpt>
      <trkpt lat="43.91896" lon="5.16498">
        <ele>411.58</ele>
        <time>2015-06-11T12:40:23Z</time>
      </trkpt>
      <trkpt lat="43.91886" lon="5.16496">
        <ele>413.98</ele>
        <time>2015-06-11T12:40:40Z</time>
      </trkpt>
      <trkpt lat="43.91875" lon="5.16498">
        <ele>417.35</ele>
        <time>2015-06-11T12:40:57Z</time>
      </trkpt>
      <trkpt lat="43.9186" lon="5.16496">
        <ele>419.75</ele>
        <time>2015-06-11T12:41:14Z</time>
      </trkpt>
      <trkpt lat="43.91845" lon="5.1649">
        <ele>419.75</ele>
        <time>2015-06-11T12:41:32Z</time>
      </trkpt>
      <trkpt lat="43.91832" lon="5.16484">
        <ele>418.31</ele>
        <time>2015-06-11T12:41:46Z</time>
      </trkpt>
      <trkpt lat="43.91821" lon="5.16486">
        <ele>416.87</ele>
        <time>2015-06-11T12:42:05Z</time>
      </trkpt>
      <trkpt lat="43.91822" lon="5.16488">
        <ele>416.39</ele>
        <time>2015-06-11T12:42:31Z</time>
      </trkpt>
      <trkpt lat="43.9182" lon="5.16486">
        <ele>416.39</ele>
        <time>2015-06-11T12:42:51Z</time>
      </trkpt>
      <trkpt lat="43.91822" lon="5.16486">
        <ele>415.43</ele>
        <time>2015-06-11T12:43:06Z</time>
      </trkpt>
      <trkpt lat="43.91814" lon="5.16487">
        <ele>415.43</ele>
        <time>2015-06-11T12:43:28Z</time>
      </trkpt>
      <trkpt lat="43.91806" lon="5.16487">
        <ele>413.98</ele>
        <time>2015-06-11T12:43:39Z</time>
      </trkpt>
      <trkpt lat="43.91786" lon="5.16492">
        <ele>411.58</ele>
        <time>2015-06-11T12:43:54Z</time>
      </trkpt>
      <trkpt lat="43.91785" lon="5.16492">
        <ele>411.58</ele>
        <time>2015-06-11T12:43:55Z</time>
      </trkpt>
      <trkpt lat="43.91776" lon="5.16493">
        <ele>409.66</ele>
        <time>2015-06-11T12:44:04Z</time>
      </trkpt>
      <trkpt lat="43.91767" lon="5.16495">
        <ele>407.26</ele>
        <time>2015-06-11T12:44:15Z</time>
      </trkpt>
      <trkpt lat="43.91758" lon="5.16493">
        <ele>405.81</ele>
        <time>2015-06-11T12:44:23Z</time>
      </trkpt>
      <trkpt lat="43.91745" lon="5.1649">
        <ele>402.45</ele>
        <time>2015-06-11T12:44:38Z</time>
      </trkpt>
      <trkpt lat="43.91731" lon="5.16491">
        <ele>401.01</ele>
        <time>2015-06-11T12:44:52Z</time>
      </trkpt>
      <trkpt lat="43.91725" lon="5.16493">
        <ele>399.57</ele>
        <time>2015-06-11T12:44:59Z</time>
      </trkpt>
      <trkpt lat="43.91714" lon="5.16498">
        <ele>397.16</ele>
        <time>2015-06-11T12:45:11Z</time>
      </trkpt>
      <trkpt lat="43.91703" lon="5.16507">
        <ele>394.76</ele>
        <time>2015-06-11T12:45:25Z</time>
      </trkpt>
      <trkpt lat="43.91698" lon="5.16516">
        <ele>392.84</ele>
        <time>2015-06-11T12:45:33Z</time>
      </trkpt>
      <trkpt lat="43.91691" lon="5.16526">
        <ele>391.39</ele>
        <time>2015-06-11T12:45:44Z</time>
      </trkpt>
      <trkpt lat="43.91684" lon="5.16526">
        <ele>389.95</ele>
        <time>2015-06-11T12:45:50Z</time>
      </trkpt>
      <trkpt lat="43.91674" lon="5.16527">
        <ele>388.51</ele>
        <time>2015-06-11T12:45:59Z</time>
      </trkpt>
      <trkpt lat="43.91661" lon="5.16532">
        <ele>386.11</ele>
        <time>2015-06-11T12:46:10Z</time>
      </trkpt>
      <trkpt lat="43.91645" lon="5.16537">
        <ele>384.66</ele>
        <time>2015-06-11T12:46:27Z</time>
      </trkpt>
      <trkpt lat="43.9164" lon="5.16536">
        <ele>383.7</ele>
        <time>2015-06-11T12:46:40Z</time>
      </trkpt>
      <trkpt lat="43.91639" lon="5.16532">
        <ele>383.7</ele>
        <time>2015-06-11T12:46:44Z</time>
      </trkpt>
      <trkpt lat="43.91639" lon="5.16528">
        <ele>383.22</ele>
        <time>2015-06-11T12:46:47Z</time>
      </trkpt>
      <trkpt lat="43.91633" lon="5.16521">
        <ele>382.26</ele>
        <time>2015-06-11T12:47:02Z</time>
      </trkpt>
      <trkpt lat="43.91632" lon="5.16521">
        <ele>382.26</ele>
        <time>2015-06-11T12:47:20Z</time>
      </trkpt>
      <trkpt lat="43.91632" lon="5.16521">
        <ele>382.26</ele>
        <time>2015-06-11T12:47:42Z</time>
      </trkpt>
      <trkpt lat="43.91632" lon="5.16523">
        <ele>382.26</ele>
        <time>2015-06-11T12:48:02Z</time>
      </trkpt>
      <trkpt lat="43.91632" lon="5.16523">
        <ele>382.26</ele>
        <time>2015-06-11T12:48:24Z</time>
      </trkpt>
      <trkpt lat="43.9163" lon="5.16524">
        <ele>381.3</ele>
        <time>2015-06-11T12:48:48Z</time>
      </trkpt>
      <trkpt lat="43.9163" lon="5.16524">
        <ele>381.3</ele>
        <time>2015-06-11T12:49:08Z</time>
      </trkpt>
      <trkpt lat="43.91631" lon="5.16524">
        <ele>381.3</ele>
        <time>2015-06-11T12:49:40Z</time>
      </trkpt>
      <trkpt lat="43.91631" lon="5.16522">
        <ele>381.78</ele>
        <time>2015-06-11T12:49:59Z</time>
      </trkpt>
      <trkpt lat="43.91631" lon="5.16521">
        <ele>381.3</ele>
        <time>2015-06-11T12:50:24Z</time>
      </trkpt>
      <trkpt lat="43.91627" lon="5.16521">
        <ele>380.82</ele>
        <time>2015-06-11T12:50:40Z</time>
      </trkpt>
      <trkpt lat="43.91617" lon="5.16525">
        <ele>379.38</ele>
        <time>2015-06-11T12:50:50Z</time>
      </trkpt>
      <trkpt lat="43.91607" lon="5.16544">
        <ele>378.9</ele>
        <time>2015-06-11T12:51:06Z</time>
      </trkpt>
      <trkpt lat="43.91596" lon="5.16545">
        <ele>377.45</ele>
        <time>2015-06-11T12:51:17Z</time>
      </trkpt>
      <trkpt lat="43.91594" lon="5.16545">
        <ele>376.97</ele>
        <time>2015-06-11T12:51:19Z</time>
      </trkpt>
      <trkpt lat="43.91575" lon="5.1654">
        <ele>375.53</ele>
        <time>2015-06-11T12:51:35Z</time>
      </trkpt>
      <trkpt lat="43.91561" lon="5.16534">
        <ele>373.61</ele>
        <time>2015-06-11T12:51:49Z</time>
      </trkpt>
      <trkpt lat="43.91554" lon="5.16531">
        <ele>373.61</ele>
        <time>2015-06-11T12:51:55Z</time>
      </trkpt>
      <trkpt lat="43.91539" lon="5.16533">
        <ele>372.65</ele>
        <time>2015-06-11T12:52:09Z</time>
      </trkpt>
      <trkpt lat="43.91538" lon="5.16533">
        <ele>372.65</ele>
        <time>2015-06-11T12:52:10Z</time>
      </trkpt>
      <trkpt lat="43.91529" lon="5.16537">
        <ele>372.17</ele>
        <time>2015-06-11T12:52:18Z</time>
      </trkpt>
      <trkpt lat="43.91511" lon="5.16545">
        <ele>370.73</ele>
        <time>2015-06-11T12:52:33Z</time>
      </trkpt>
      <trkpt lat="43.91495" lon="5.16546">
        <ele>368.8</ele>
        <time>2015-06-11T12:52:50Z</time>
      </trkpt>
      <trkpt lat="43.91474" lon="5.16543">
        <ele>367.36</ele>
        <time>2015-06-11T12:53:05Z</time>
      </trkpt>
      <trkpt lat="43.91461" lon="5.1654">
        <ele>365.92</ele>
        <time>2015-06-11T12:53:17Z</time>
      </trkpt>
      <trkpt lat="43.91453" lon="5.16535">
        <ele>365.44</ele>
        <time>2015-06-11T12:53:24Z</time>
      </trkpt>
      <trkpt lat="43.91447" lon="5.16533">
        <ele>364.96</ele>
        <time>2015-06-11T12:53:29Z</time>
      </trkpt>
      <trkpt lat="43.91429" lon="5.16526">
        <ele>363.04</ele>
        <time>2015-06-11T12:53:44Z</time>
      </trkpt>
      <trkpt lat="43.9141" lon="5.16517">
        <ele>361.59</ele>
        <time>2015-06-11T12:54:00Z</time>
      </trkpt>
      <trkpt lat="43.91398" lon="5.16522">
        <ele>360.15</ele>
        <time>2015-06-11T12:54:11Z</time>
      </trkpt>
      <trkpt lat="43.9139" lon="5.16524">
        <ele>359.67</ele>
        <time>2015-06-11T12:54:26Z</time>
      </trkpt>
      <trkpt lat="43.91387" lon="5.16524">
        <ele>359.19</ele>
        <time>2015-06-11T12:54:29Z</time>
      </trkpt>
      <trkpt lat="43.91384" lon="5.16526">
        <ele>358.71</ele>
        <time>2015-06-11T12:54:32Z</time>
      </trkpt>
      <trkpt lat="43.91379" lon="5.16527">
        <ele>358.23</ele>
        <time>2015-06-11T12:54:36Z</time>
      </trkpt>
      <trkpt lat="43.91379" lon="5.16554">
        <ele>357.27</ele>
        <time>2015-06-11T12:54:50Z</time>
      </trkpt>
      <trkpt lat="43.91382" lon="5.16577">
        <ele>355.34</ele>
        <time>2015-06-11T12:55:05Z</time>
      </trkpt>
      <trkpt lat="43.91378" lon="5.16596">
        <ele>353.42</ele>
        <time>2015-06-11T12:55:20Z</time>
      </trkpt>
      <trkpt lat="43.91376" lon="5.16597">
        <ele>352.94</ele>
        <time>2015-06-11T12:55:22Z</time>
      </trkpt>
      <trkpt lat="43.91364" lon="5.16614">
        <ele>351.98</ele>
        <time>2015-06-11T12:55:37Z</time>
      </trkpt>
      <trkpt lat="43.91369" lon="5.16644">
        <ele>353.42</ele>
        <time>2015-06-11T12:55:55Z</time>
      </trkpt>
      <trkpt lat="43.91362" lon="5.16668">
        <ele>353.9</ele>
        <time>2015-06-11T12:56:12Z</time>
      </trkpt>
      <trkpt lat="43.91355" lon="5.16686">
        <ele>354.86</ele>
        <time>2015-06-11T12:56:27Z</time>
      </trkpt>
      <trkpt lat="43.91344" lon="5.16693">
        <ele>355.83</ele>
        <time>2015-06-11T12:56:41Z</time>
      </trkpt>
      <trkpt lat="43.91346" lon="5.16713">
        <ele>357.27</ele>
        <time>2015-06-11T12:56:55Z</time>
      </trkpt>
      <trkpt lat="43.91345" lon="5.1672">
        <ele>357.75</ele>
        <time>2015-06-11T12:57:01Z</time>
      </trkpt>
      <trkpt lat="43.91344" lon="5.16725">
        <ele>357.75</ele>
        <time>2015-06-11T12:57:04Z</time>
      </trkpt>
      <trkpt lat="43.91332" lon="5.16743">
        <ele>357.75</ele>
        <time>2015-06-11T12:57:19Z</time>
      </trkpt>
      <trkpt lat="43.91324" lon="5.16758">
        <ele>357.75</ele>
        <time>2015-06-11T12:57:31Z</time>
      </trkpt>
      <trkpt lat="43.91324" lon="5.16759">
        <ele>357.75</ele>
        <time>2015-06-11T12:57:32Z</time>
      </trkpt>
      <trkpt lat="43.91319" lon="5.16767">
        <ele>358.23</ele>
        <time>2015-06-11T12:57:40Z</time>
      </trkpt>
      <trkpt lat="43.91318" lon="5.16772">
        <ele>357.75</ele>
        <time>2015-06-11T12:57:43Z</time>
      </trkpt>
      <trkpt lat="43.91326" lon="5.16782">
        <ele>358.71</ele>
        <time>2015-06-11T12:57:54Z</time>
      </trkpt>
      <trkpt lat="43.91328" lon="5.16784">
        <ele>358.71</ele>
        <time>2015-06-11T12:57:56Z</time>
      </trkpt>
      <trkpt lat="43.91334" lon="5.16793">
        <ele>359.67</ele>
        <time>2015-06-11T12:58:05Z</time>
      </trkpt>
      <trkpt lat="43.9134" lon="5.16801">
        <ele>359.19</ele>
        <time>2015-06-11T12:58:13Z</time>
      </trkpt>
      <trkpt lat="43.91342" lon="5.16807">
        <ele>359.67</ele>
        <time>2015-06-11T12:58:18Z</time>
      </trkpt>
      <trkpt lat="43.91348" lon="5.16822">
        <ele>360.63</ele>
        <time>2015-06-11T12:58:30Z</time>
      </trkpt>
      <trkpt lat="43.91355" lon="5.16836">
        <ele>361.59</ele>
        <time>2015-06-11T12:58:42Z</time>
      </trkpt>
      <trkpt lat="43.91363" lon="5.16852">
        <ele>363.04</ele>
        <time>2015-06-11T12:58:55Z</time>
      </trkpt>
      <trkpt lat="43.91367" lon="5.16862">
        <ele>364</ele>
        <time>2015-06-11T12:59:06Z</time>
      </trkpt>
      <trkpt lat="43.91369" lon="5.16867">
        <ele>364</ele>
        <time>2015-06-11T12:59:10Z</time>
      </trkpt>
      <trkpt lat="43.91371" lon="5.1687">
        <ele>364.48</ele>
        <time>2015-06-11T12:59:13Z</time>
      </trkpt>
      <trkpt lat="43.91376" lon="5.16879">
        <ele>364.96</ele>
        <time>2015-06-11T12:59:20Z</time>
      </trkpt>
      <trkpt lat="43.9138" lon="5.16897">
        <ele>365.92</ele>
        <time>2015-06-11T12:59:36Z</time>
      </trkpt>
      <trkpt lat="43.91373" lon="5.16901">
        <ele>364.96</ele>
        <time>2015-06-11T12:59:51Z</time>
      </trkpt>
      <trkpt lat="43.91377" lon="5.16899">
        <ele>365.44</ele>
        <time>2015-06-11T13:00:10Z</time>
      </trkpt>
      <trkpt lat="43.91378" lon="5.16898">
        <ele>365.44</ele>
        <time>2015-06-11T13:00:34Z</time>
      </trkpt>
      <trkpt lat="43.91378" lon="5.16898">
        <ele>365.44</ele>
        <time>2015-06-11T13:00:56Z</time>
      </trkpt>
      <trkpt lat="43.91379" lon="5.16898">
        <ele>365.44</ele>
        <time>2015-06-11T13:01:14Z</time>
      </trkpt>
      <trkpt lat="43.91379" lon="5.16894">
        <ele>365.44</ele>
        <time>2015-06-11T13:01:26Z</time>
      </trkpt>
      <trkpt lat="43.91379" lon="5.16894">
        <ele>365.44</ele>
        <time>2015-06-11T13:01:55Z</time>
      </trkpt>
      <trkpt lat="43.91379" lon="5.16893">
        <ele>365.44</ele>
        <time>2015-06-11T13:02:15Z</time>
      </trkpt>
      <trkpt lat="43.91378" lon="5.16894">
        <ele>364.96</ele>
        <time>2015-06-11T13:02:38Z</time>
      </trkpt>
      <trkpt lat="43.91378" lon="5.16895">
        <ele>364.96</ele>
        <time>2015-06-11T13:03:05Z</time>
      </trkpt>
      <trkpt lat="43.91379" lon="5.16895">
        <ele>364.96</ele>
        <time>2015-06-11T13:03:23Z</time>
      </trkpt>
      <trkpt lat="43.91378" lon="5.16895">
        <ele>364.96</ele>
        <time>2015-06-11T13:03:56Z</time>
      </trkpt>
      <trkpt lat="43.91378" lon="5.16895">
        <ele>364.96</ele>
        <time>2015-06-11T13:04:17Z</time>
      </trkpt>
      <trkpt lat="43.91378" lon="5.16896">
        <ele>364.96</ele>
        <time>2015-06-11T13:04:36Z</time>
      </trkpt>
      <trkpt lat="43.91379" lon="5.16896">
        <ele>364.96</ele>
        <time>2015-06-11T13:04:57Z</time>
      </trkpt>
      <trkpt lat="43.91378" lon="5.16896">
        <ele>364.96</ele>
        <time>2015-06-11T13:05:27Z</time>
      </trkpt>
      <trkpt lat="43.91379" lon="5.16896">
        <ele>364.96</ele>
        <time>2015-06-11T13:05:52Z</time>
      </trkpt>
      <trkpt lat="43.91378" lon="5.16894">
        <ele>364.48</ele>
        <time>2015-06-11T13:06:13Z</time>
      </trkpt>
      <trkpt lat="43.91379" lon="5.16894">
        <ele>364.48</ele>
        <time>2015-06-11T13:06:32Z</time>
      </trkpt>
      <trkpt lat="43.91379" lon="5.16894">
        <ele>364.48</ele>
        <time>2015-06-11T13:06:54Z</time>
      </trkpt>
      <trkpt lat="43.91378" lon="5.16894">
        <ele>364</ele>
        <time>2015-06-11T13:07:19Z</time>
      </trkpt>
      <trkpt lat="43.91378" lon="5.16894">
        <ele>364</ele>
        <time>2015-06-11T13:07:41Z</time>
      </trkpt>
      <trkpt lat="43.91378" lon="5.16894">
        <ele>363.52</ele>
        <time>2015-06-11T13:08:04Z</time>
      </trkpt>
      <trkpt lat="43.91378" lon="5.16894">
        <ele>364</ele>
        <time>2015-06-11T13:08:23Z</time>
      </trkpt>
      <trkpt lat="43.91372" lon="5.16901">
        <ele>363.52</ele>
        <time>2015-06-11T13:08:39Z</time>
      </trkpt>
      <trkpt lat="43.91363" lon="5.16908">
        <ele>361.59</ele>
        <time>2015-06-11T13:08:53Z</time>
      </trkpt>
      <trkpt lat="43.91352" lon="5.16917">
        <ele>360.15</ele>
        <time>2015-06-11T13:09:08Z</time>
      </trkpt>
      <trkpt lat="43.91343" lon="5.16915">
        <ele>358.71</ele>
        <time>2015-06-11T13:09:20Z</time>
      </trkpt>
      <trkpt lat="43.91332" lon="5.16909">
        <ele>357.27</ele>
        <time>2015-06-11T13:09:35Z</time>
      </trkpt>
      <trkpt lat="43.91331" lon="5.16907">
        <ele>357.27</ele>
        <time>2015-06-11T13:09:40Z</time>
      </trkpt>
      <trkpt lat="43.91328" lon="5.16907">
        <ele>356.79</ele>
        <time>2015-06-11T13:09:42Z</time>
      </trkpt>
      <trkpt lat="43.91315" lon="5.16908">
        <ele>354.38</ele>
        <time>2015-06-11T13:09:56Z</time>
      </trkpt>
      <trkpt lat="43.91298" lon="5.16909">
        <ele>352.46</ele>
        <time>2015-06-11T13:10:12Z</time>
      </trkpt>
      <trkpt lat="43.91285" lon="5.1693">
        <ele>351.02</ele>
        <time>2015-06-11T13:10:28Z</time>
      </trkpt>
      <trkpt lat="43.91285" lon="5.16931">
        <ele>351.02</ele>
        <time>2015-06-11T13:10:44Z</time>
      </trkpt>
      <trkpt lat="43.91282" lon="5.16935">
        <ele>350.54</ele>
        <time>2015-06-11T13:10:48Z</time>
      </trkpt>
      <trkpt lat="43.91275" lon="5.16947">
        <ele>349.1</ele>
        <time>2015-06-11T13:11:02Z</time>
      </trkpt>
      <trkpt lat="43.91273" lon="5.1695">
        <ele>349.1</ele>
        <time>2015-06-11T13:11:07Z</time>
      </trkpt>
      <trkpt lat="43.91271" lon="5.16954">
        <ele>348.62</ele>
        <time>2015-06-11T13:11:23Z</time>
      </trkpt>
      <trkpt lat="43.91271" lon="5.16958">
        <ele>348.62</ele>
        <time>2015-06-11T13:11:43Z</time>
      </trkpt>
      <trkpt lat="43.91271" lon="5.16958">
        <ele>348.13</ele>
        <time>2015-06-11T13:12:07Z</time>
      </trkpt>
      <trkpt lat="43.91271" lon="5.16962">
        <ele>348.62</ele>
        <time>2015-06-11T13:12:22Z</time>
      </trkpt>
      <trkpt lat="43.91272" lon="5.16959">
        <ele>347.17</ele>
        <time>2015-06-11T13:12:34Z</time>
      </trkpt>
      <trkpt lat="43.91271" lon="5.1696">
        <ele>347.65</ele>
        <time>2015-06-11T13:13:02Z</time>
      </trkpt>
      <trkpt lat="43.91272" lon="5.16961">
        <ele>347.65</ele>
        <time>2015-06-11T13:13:15Z</time>
      </trkpt>
      <trkpt lat="43.91272" lon="5.16961">
        <ele>348.13</ele>
        <time>2015-06-11T13:13:33Z</time>
      </trkpt>
      <trkpt lat="43.91272" lon="5.16963">
        <ele>348.13</ele>
        <time>2015-06-11T13:13:47Z</time>
      </trkpt>
      <trkpt lat="43.91272" lon="5.16975">
        <ele>348.13</ele>
        <time>2015-06-11T13:13:57Z</time>
      </trkpt>
      <trkpt lat="43.91271" lon="5.16993">
        <ele>348.62</ele>
        <time>2015-06-11T13:14:11Z</time>
      </trkpt>
      <trkpt lat="43.9127" lon="5.17017">
        <ele>348.13</ele>
        <time>2015-06-11T13:14:26Z</time>
      </trkpt>
      <trkpt lat="43.91271" lon="5.1704">
        <ele>348.13</ele>
        <time>2015-06-11T13:14:41Z</time>
      </trkpt>
      <trkpt lat="43.91272" lon="5.17064">
        <ele>348.13</ele>
        <time>2015-06-11T13:14:56Z</time>
      </trkpt>
      <trkpt lat="43.91271" lon="5.17091">
        <ele>348.13</ele>
        <time>2015-06-11T13:15:12Z</time>
      </trkpt>
      <trkpt lat="43.91272" lon="5.17111">
        <ele>347.65</ele>
        <time>2015-06-11T13:15:26Z</time>
      </trkpt>
      <trkpt lat="43.91269" lon="5.17124">
        <ele>347.65</ele>
        <time>2015-06-11T13:15:41Z</time>
      </trkpt>
      <trkpt lat="43.91268" lon="5.17128">
        <ele>348.13</ele>
        <time>2015-06-11T13:15:44Z</time>
      </trkpt>
      <trkpt lat="43.91267" lon="5.17133">
        <ele>348.13</ele>
        <time>2015-06-11T13:15:47Z</time>
      </trkpt>
      <trkpt lat="43.91265" lon="5.17157">
        <ele>348.62</ele>
        <time>2015-06-11T13:16:03Z</time>
      </trkpt>
      <trkpt lat="43.91263" lon="5.17182">
        <ele>348.13</ele>
        <time>2015-06-11T13:16:19Z</time>
      </trkpt>
      <trkpt lat="43.91261" lon="5.17186">
        <ele>347.65</ele>
        <time>2015-06-11T13:16:23Z</time>
      </trkpt>
      <trkpt lat="43.9126" lon="5.17191">
        <ele>348.13</ele>
        <time>2015-06-11T13:16:26Z</time>
      </trkpt>
      <trkpt lat="43.91259" lon="5.17215">
        <ele>347.17</ele>
        <time>2015-06-11T13:16:43Z</time>
      </trkpt>
      <trkpt lat="43.91259" lon="5.17227">
        <ele>347.17</ele>
        <time>2015-06-11T13:17:00Z</time>
      </trkpt>
      <trkpt lat="43.91258" lon="5.17228">
        <ele>346.69</ele>
        <time>2015-06-11T13:17:01Z</time>
      </trkpt>
      <trkpt lat="43.91257" lon="5.17244">
        <ele>346.69</ele>
        <time>2015-06-11T13:17:18Z</time>
      </trkpt>
      <trkpt lat="43.91257" lon="5.17246">
        <ele>346.69</ele>
        <time>2015-06-11T13:17:25Z</time>
      </trkpt>
      <trkpt lat="43.91256" lon="5.17277">
        <ele>346.69</ele>
        <time>2015-06-11T13:17:42Z</time>
      </trkpt>
      <trkpt lat="43.91262" lon="5.17288">
        <ele>347.17</ele>
        <time>2015-06-11T13:17:55Z</time>
      </trkpt>
      <trkpt lat="43.91264" lon="5.17289">
        <ele>347.17</ele>
        <time>2015-06-11T13:18:03Z</time>
      </trkpt>
      <trkpt lat="43.91271" lon="5.17287">
        <ele>347.65</ele>
        <time>2015-06-11T13:18:09Z</time>
      </trkpt>
      <trkpt lat="43.91281" lon="5.17278">
        <ele>348.13</ele>
        <time>2015-06-11T13:18:24Z</time>
      </trkpt>
      <trkpt lat="43.91283" lon="5.17277">
        <ele>348.13</ele>
        <time>2015-06-11T13:18:45Z</time>
      </trkpt>
      <trkpt lat="43.91281" lon="5.17287">
        <ele>348.13</ele>
        <time>2015-06-11T13:18:58Z</time>
      </trkpt>
      <trkpt lat="43.91276" lon="5.17295">
        <ele>347.65</ele>
        <time>2015-06-11T13:19:08Z</time>
      </trkpt>
      <trkpt lat="43.91275" lon="5.17296">
        <ele>347.65</ele>
        <time>2015-06-11T13:19:25Z</time>
      </trkpt>
      <trkpt lat="43.91275" lon="5.17295">
        <ele>347.65</ele>
        <time>2015-06-11T13:19:40Z</time>
      </trkpt>
      <trkpt lat="43.91275" lon="5.17294">
        <ele>347.65</ele>
        <time>2015-06-11T13:20:03Z</time>
      </trkpt>
      <trkpt lat="43.91275" lon="5.17295">
        <ele>347.17</ele>
        <time>2015-06-11T13:20:31Z</time>
      </trkpt>
      <trkpt lat="43.91276" lon="5.17295">
        <ele>347.65</ele>
        <time>2015-06-11T13:20:59Z</time>
      </trkpt>
      <trkpt lat="43.91279" lon="5.17295">
        <ele>347.65</ele>
        <time>2015-06-11T13:21:27Z</time>
      </trkpt>
      <trkpt lat="43.91281" lon="5.17296">
        <ele>348.13</ele>
        <time>2015-06-11T13:21:41Z</time>
      </trkpt>
      <trkpt lat="43.9128" lon="5.17298">
        <ele>348.13</ele>
        <time>2015-06-11T13:22:00Z</time>
      </trkpt>
      <trkpt lat="43.9128" lon="5.17299">
        <ele>347.65</ele>
        <time>2015-06-11T13:22:23Z</time>
      </trkpt>
      <trkpt lat="43.91283" lon="5.17314">
        <ele>347.17</ele>
        <time>2015-06-11T13:22:36Z</time>
      </trkpt>
      <trkpt lat="43.91286" lon="5.17323">
        <ele>347.17</ele>
        <time>2015-06-11T13:22:53Z</time>
      </trkpt>
      <trkpt lat="43.91286" lon="5.17325">
        <ele>346.69</ele>
        <time>2015-06-11T13:23:13Z</time>
      </trkpt>
      <trkpt lat="43.91284" lon="5.17327">
        <ele>346.21</ele>
        <time>2015-06-11T13:23:30Z</time>
      </trkpt>
      <trkpt lat="43.91283" lon="5.17325">
        <ele>346.21</ele>
        <time>2015-06-11T13:23:54Z</time>
      </trkpt>
      <trkpt lat="43.91286" lon="5.17327">
        <ele>346.69</ele>
        <time>2015-06-11T13:24:17Z</time>
      </trkpt>
      <trkpt lat="43.91286" lon="5.17329">
        <ele>346.69</ele>
        <time>2015-06-11T13:24:43Z</time>
      </trkpt>
      <trkpt lat="43.91282" lon="5.17329">
        <ele>346.21</ele>
        <time>2015-06-11T13:25:08Z</time>
      </trkpt>
      <trkpt lat="43.91263" lon="5.17332">
        <ele>343.81</ele>
        <time>2015-06-11T13:25:28Z</time>
      </trkpt>
      <trkpt lat="43.91249" lon="5.17335">
        <ele>342.85</ele>
        <time>2015-06-11T13:25:44Z</time>
      </trkpt>
      <trkpt lat="43.9124" lon="5.17334">
        <ele>341.89</ele>
        <time>2015-06-11T13:25:59Z</time>
      </trkpt>
      <trkpt lat="43.91236" lon="5.17336">
        <ele>340.92</ele>
        <time>2015-06-11T13:26:04Z</time>
      </trkpt>
      <trkpt lat="43.91217" lon="5.17337">
        <ele>339.96</ele>
        <time>2015-06-11T13:26:21Z</time>
      </trkpt>
      <trkpt lat="43.91207" lon="5.17323">
        <ele>338.52</ele>
        <time>2015-06-11T13:26:38Z</time>
      </trkpt>
      <trkpt lat="43.91201" lon="5.17335">
        <ele>338.04</ele>
        <time>2015-06-11T13:26:54Z</time>
      </trkpt>
      <trkpt lat="43.91205" lon="5.1734">
        <ele>338.52</ele>
        <time>2015-06-11T13:27:07Z</time>
      </trkpt>
      <trkpt lat="43.91203" lon="5.17336">
        <ele>339</ele>
        <time>2015-06-11T13:27:25Z</time>
      </trkpt>
      <trkpt lat="43.9121" lon="5.17344">
        <ele>339</ele>
        <time>2015-06-11T13:28:03Z</time>
      </trkpt>
      <trkpt lat="43.91209" lon="5.17344">
        <ele>339.48</ele>
        <time>2015-06-11T13:28:21Z</time>
      </trkpt>
      <trkpt lat="43.91207" lon="5.17346">
        <ele>339</ele>
        <time>2015-06-11T13:28:43Z</time>
      </trkpt>
      <trkpt lat="43.91207" lon="5.17349">
        <ele>339</ele>
        <time>2015-06-11T13:29:00Z</time>
      </trkpt>
      <trkpt lat="43.91209" lon="5.17349">
        <ele>339</ele>
        <time>2015-06-11T13:29:15Z</time>
      </trkpt>
      <trkpt lat="43.91208" lon="5.17348">
        <ele>339</ele>
        <time>2015-06-11T13:29:35Z</time>
      </trkpt>
      <trkpt lat="43.91201" lon="5.17343">
        <ele>338.52</ele>
        <time>2015-06-11T13:29:51Z</time>
      </trkpt>
      <trkpt lat="43.91201" lon="5.17339">
        <ele>337.56</ele>
        <time>2015-06-11T13:30:03Z</time>
      </trkpt>
      <trkpt lat="43.91201" lon="5.17338">
        <ele>339</ele>
        <time>2015-06-11T13:30:29Z</time>
      </trkpt>
      <trkpt lat="43.91201" lon="5.17337">
        <ele>338.52</ele>
        <time>2015-06-11T13:30:46Z</time>
      </trkpt>
      <trkpt lat="43.91201" lon="5.17336">
        <ele>338.52</ele>
        <time>2015-06-11T13:31:11Z</time>
      </trkpt>
      <trkpt lat="43.91198" lon="5.17338">
        <ele>338.52</ele>
        <time>2015-06-11T13:31:29Z</time>
      </trkpt>
      <trkpt lat="43.91195" lon="5.1734">
        <ele>338.52</ele>
        <time>2015-06-11T13:31:49Z</time>
      </trkpt>
      <trkpt lat="43.91187" lon="5.17348">
        <ele>337.08</ele>
        <time>2015-06-11T13:32:08Z</time>
      </trkpt>
      <trkpt lat="43.91179" lon="5.17356">
        <ele>336.6</ele>
        <time>2015-06-11T13:32:25Z</time>
      </trkpt>
      <trkpt lat="43.91177" lon="5.17364">
        <ele>336.12</ele>
        <time>2015-06-11T13:32:36Z</time>
      </trkpt>
      <trkpt lat="43.91166" lon="5.17376">
        <ele>335.16</ele>
        <time>2015-06-11T13:32:56Z</time>
      </trkpt>
      <trkpt lat="43.91164" lon="5.17388">
        <ele>334.68</ele>
        <time>2015-06-11T13:33:10Z</time>
      </trkpt>
      <trkpt lat="43.91164" lon="5.17392">
        <ele>334.68</ele>
        <time>2015-06-11T13:33:29Z</time>
      </trkpt>
      <trkpt lat="43.91162" lon="5.17389">
        <ele>334.2</ele>
        <time>2015-06-11T13:33:41Z</time>
      </trkpt>
      <trkpt lat="43.91162" lon="5.17389">
        <ele>334.2</ele>
        <time>2015-06-11T13:34:11Z</time>
      </trkpt>
      <trkpt lat="43.91165" lon="5.17392">
        <ele>334.2</ele>
        <time>2015-06-11T13:34:34Z</time>
      </trkpt>
      <trkpt lat="43.91164" lon="5.17388">
        <ele>334.68</ele>
        <time>2015-06-11T13:34:44Z</time>
      </trkpt>
      <trkpt lat="43.91158" lon="5.17379">
        <ele>334.68</ele>
        <time>2015-06-11T13:34:58Z</time>
      </trkpt>
      <trkpt lat="43.91153" lon="5.17378">
        <ele>333.71</ele>
        <time>2015-06-11T13:35:12Z</time>
      </trkpt>
      <trkpt lat="43.9114" lon="5.17386">
        <ele>332.27</ele>
        <time>2015-06-11T13:35:28Z</time>
      </trkpt>
      <trkpt lat="43.91126" lon="5.1739">
        <ele>330.83</ele>
        <time>2015-06-11T13:35:43Z</time>
      </trkpt>
      <trkpt lat="43.91117" lon="5.17393">
        <ele>329.39</ele>
        <time>2015-06-11T13:35:56Z</time>
      </trkpt>
      <trkpt lat="43.91105" lon="5.17394">
        <ele>328.43</ele>
        <time>2015-06-11T13:36:11Z</time>
      </trkpt>
      <trkpt lat="43.91095" lon="5.17398">
        <ele>327.47</ele>
        <time>2015-06-11T13:36:26Z</time>
      </trkpt>
      <trkpt lat="43.91093" lon="5.17399">
        <ele>326.5</ele>
        <time>2015-06-11T13:36:42Z</time>
      </trkpt>
      <trkpt lat="43.91094" lon="5.17403">
        <ele>326.02</ele>
        <time>2015-06-11T13:37:02Z</time>
      </trkpt>
      <trkpt lat="43.91101" lon="5.17408">
        <ele>325.06</ele>
        <time>2015-06-11T13:37:15Z</time>
      </trkpt>
      <trkpt lat="43.91107" lon="5.17404">
        <ele>324.58</ele>
        <time>2015-06-11T13:37:27Z</time>
      </trkpt>
      <trkpt lat="43.91109" lon="5.17402">
        <ele>324.1</ele>
        <time>2015-06-11T13:37:30Z</time>
      </trkpt>
      <trkpt lat="43.91113" lon="5.17398">
        <ele>324.58</ele>
        <time>2015-06-11T13:37:36Z</time>
      </trkpt>
      <trkpt lat="43.91129" lon="5.17402">
        <ele>322.66</ele>
        <time>2015-06-11T13:37:50Z</time>
      </trkpt>
      <trkpt lat="43.91139" lon="5.17403">
        <ele>321.7</ele>
        <time>2015-06-11T13:38:04Z</time>
      </trkpt>
      <trkpt lat="43.91142" lon="5.17405">
        <ele>321.22</ele>
        <time>2015-06-11T13:38:08Z</time>
      </trkpt>
      <trkpt lat="43.91151" lon="5.17403">
        <ele>319.78</ele>
        <time>2015-06-11T13:38:18Z</time>
      </trkpt>
      <trkpt lat="43.91156" lon="5.17402">
        <ele>319.3</ele>
        <time>2015-06-11T13:38:23Z</time>
      </trkpt>
      <trkpt lat="43.91169" lon="5.17399">
        <ele>317.85</ele>
        <time>2015-06-11T13:38:37Z</time>
      </trkpt>
      <trkpt lat="43.91181" lon="5.17401">
        <ele>316.41</ele>
        <time>2015-06-11T13:38:49Z</time>
      </trkpt>
      <trkpt lat="43.91182" lon="5.17401">
        <ele>316.41</ele>
        <time>2015-06-11T13:38:50Z</time>
      </trkpt>
      <trkpt lat="43.91185" lon="5.17402">
        <ele>315.93</ele>
        <time>2015-06-11T13:38:53Z</time>
      </trkpt>
      <trkpt lat="43.91198" lon="5.17401">
        <ele>316.41</ele>
        <time>2015-06-11T13:39:08Z</time>
      </trkpt>
      <trkpt lat="43.91207" lon="5.17405">
        <ele>315.93</ele>
        <time>2015-06-11T13:39:15Z</time>
      </trkpt>
      <trkpt lat="43.91219" lon="5.17403">
        <ele>315.93</ele>
        <time>2015-06-11T13:39:29Z</time>
      </trkpt>
      <trkpt lat="43.9122" lon="5.17406">
        <ele>314.97</ele>
        <time>2015-06-11T13:39:32Z</time>
      </trkpt>
      <trkpt lat="43.91225" lon="5.1741">
        <ele>313.53</ele>
        <time>2015-06-11T13:39:39Z</time>
      </trkpt>
      <trkpt lat="43.91232" lon="5.17412">
        <ele>314.01</ele>
        <time>2015-06-11T13:39:45Z</time>
      </trkpt>
      <trkpt lat="43.9124" lon="5.1742">
        <ele>312.09</ele>
        <time>2015-06-11T13:39:55Z</time>
      </trkpt>
      <trkpt lat="43.91249" lon="5.17425">
        <ele>310.64</ele>
        <time>2015-06-11T13:40:06Z</time>
      </trkpt>
      <trkpt lat="43.91256" lon="5.17433">
        <ele>308.72</ele>
        <time>2015-06-11T13:40:16Z</time>
      </trkpt>
      <trkpt lat="43.91266" lon="5.17446">
        <ele>305.84</ele>
        <time>2015-06-11T13:40:31Z</time>
      </trkpt>
      <trkpt lat="43.91267" lon="5.1745">
        <ele>305.36</ele>
        <time>2015-06-11T13:40:35Z</time>
      </trkpt>
      <trkpt lat="43.91276" lon="5.17462">
        <ele>302.47</ele>
        <time>2015-06-11T13:40:50Z</time>
      </trkpt>
      <trkpt lat="43.91286" lon="5.17471">
        <ele>300.55</ele>
        <time>2015-06-11T13:41:03Z</time>
      </trkpt>
      <trkpt lat="43.91297" lon="5.17481">
        <ele>297.67</ele>
        <time>2015-06-11T13:41:17Z</time>
      </trkpt>
      <trkpt lat="43.91305" lon="5.17492">
        <ele>294.78</ele>
        <time>2015-06-11T13:41:29Z</time>
      </trkpt>
      <trkpt lat="43.91318" lon="5.17505">
        <ele>292.86</ele>
        <time>2015-06-11T13:41:44Z</time>
      </trkpt>
      <trkpt lat="43.91323" lon="5.17508">
        <ele>291.9</ele>
        <time>2015-06-11T13:42:02Z</time>
      </trkpt>
      <trkpt lat="43.91327" lon="5.17514">
        <ele>289.97</ele>
        <time>2015-06-11T13:42:07Z</time>
      </trkpt>
      <trkpt lat="43.91333" lon="5.1753">
        <ele>288.05</ele>
        <time>2015-06-11T13:42:21Z</time>
      </trkpt>
      <trkpt lat="43.91337" lon="5.17542">
        <ele>285.17</ele>
        <time>2015-06-11T13:42:35Z</time>
      </trkpt>
      <trkpt lat="43.91341" lon="5.17555">
        <ele>282.77</ele>
        <time>2015-06-11T13:42:48Z</time>
      </trkpt>
      <trkpt lat="43.91341" lon="5.17556">
        <ele>282.77</ele>
        <time>2015-06-11T13:42:49Z</time>
      </trkpt>
      <trkpt lat="43.91341" lon="5.17562">
        <ele>281.32</ele>
        <time>2015-06-11T13:42:55Z</time>
      </trkpt>
      <trkpt lat="43.91347" lon="5.17579">
        <ele>278.44</ele>
        <time>2015-06-11T13:43:11Z</time>
      </trkpt>
      <trkpt lat="43.91347" lon="5.1758">
        <ele>278.44</ele>
        <time>2015-06-11T13:43:12Z</time>
      </trkpt>
      <trkpt lat="43.91351" lon="5.17584">
        <ele>277.48</ele>
        <time>2015-06-11T13:43:17Z</time>
      </trkpt>
      <trkpt lat="43.91363" lon="5.1759">
        <ele>276.52</ele>
        <time>2015-06-11T13:43:31Z</time>
      </trkpt>
      <trkpt lat="43.9137" lon="5.17596">
        <ele>274.59</ele>
        <time>2015-06-11T13:43:40Z</time>
      </trkpt>
      <trkpt lat="43.91377" lon="5.176">
        <ele>273.15</ele>
        <time>2015-06-11T13:43:48Z</time>
      </trkpt>
      <trkpt lat="43.91386" lon="5.1761">
        <ele>270.27</ele>
        <time>2015-06-11T13:44:03Z</time>
      </trkpt>
      <trkpt lat="43.91389" lon="5.17624">
        <ele>268.83</ele>
        <time>2015-06-11T13:44:16Z</time>
      </trkpt>
      <trkpt lat="43.91389" lon="5.17628">
        <ele>268.83</ele>
        <time>2015-06-11T13:44:31Z</time>
      </trkpt>
      <trkpt lat="43.9139" lon="5.17626">
        <ele>269.31</ele>
        <time>2015-06-11T13:44:47Z</time>
      </trkpt>
      <trkpt lat="43.91391" lon="5.17626">
        <ele>268.83</ele>
        <time>2015-06-11T13:45:07Z</time>
      </trkpt>
      <trkpt lat="43.9139" lon="5.17627">
        <ele>268.35</ele>
        <time>2015-06-11T13:45:28Z</time>
      </trkpt>
      <trkpt lat="43.91392" lon="5.17626">
        <ele>268.35</ele>
        <time>2015-06-11T13:45:52Z</time>
      </trkpt>
      <trkpt lat="43.91393" lon="5.17627">
        <ele>269.31</ele>
        <time>2015-06-11T13:46:15Z</time>
      </trkpt>
      <trkpt lat="43.91395" lon="5.17626">
        <ele>269.31</ele>
        <time>2015-06-11T13:46:37Z</time>
      </trkpt>
      <trkpt lat="43.91395" lon="5.17626">
        <ele>269.31</ele>
        <time>2015-06-11T13:47:03Z</time>
      </trkpt>
      <trkpt lat="43.91396" lon="5.17626">
        <ele>269.31</ele>
        <time>2015-06-11T13:47:19Z</time>
      </trkpt>
      <trkpt lat="43.91408" lon="5.17627">
        <ele>270.75</ele>
        <time>2015-06-11T13:47:35Z</time>
      </trkpt>
      <trkpt lat="43.91418" lon="5.17628">
        <ele>272.19</ele>
        <time>2015-06-11T13:47:48Z</time>
      </trkpt>
      <trkpt lat="43.91427" lon="5.17631">
        <ele>272.19</ele>
        <time>2015-06-11T13:47:56Z</time>
      </trkpt>
      <trkpt lat="43.91443" lon="5.17633">
        <ele>272.19</ele>
        <time>2015-06-11T13:48:08Z</time>
      </trkpt>
      <trkpt lat="43.91451" lon="5.17636">
        <ele>272.67</ele>
        <time>2015-06-11T13:48:16Z</time>
      </trkpt>
      <trkpt lat="43.91458" lon="5.17638">
        <ele>272.67</ele>
        <time>2015-06-11T13:48:22Z</time>
      </trkpt>
      <trkpt lat="43.91461" lon="5.17639">
        <ele>272.67</ele>
        <time>2015-06-11T13:48:25Z</time>
      </trkpt>
      <trkpt lat="43.91468" lon="5.17643">
        <ele>273.15</ele>
        <time>2015-06-11T13:48:33Z</time>
      </trkpt>
      <trkpt lat="43.91473" lon="5.17646">
        <ele>273.15</ele>
        <time>2015-06-11T13:48:38Z</time>
      </trkpt>
      <trkpt lat="43.91478" lon="5.1765">
        <ele>273.63</ele>
        <time>2015-06-11T13:48:43Z</time>
      </trkpt>
      <trkpt lat="43.91482" lon="5.17656">
        <ele>273.63</ele>
        <time>2015-06-11T13:48:47Z</time>
      </trkpt>
      <trkpt lat="43.91486" lon="5.17665">
        <ele>274.11</ele>
        <time>2015-06-11T13:49:00Z</time>
      </trkpt>
      <trkpt lat="43.91486" lon="5.17664">
        <ele>273.63</ele>
        <time>2015-06-11T13:49:18Z</time>
      </trkpt>
      <trkpt lat="43.91486" lon="5.17668">
        <ele>273.63</ele>
        <time>2015-06-11T13:49:35Z</time>
      </trkpt>
      <trkpt lat="43.91482" lon="5.17673">
        <ele>272.67</ele>
        <time>2015-06-11T13:49:53Z</time>
      </trkpt>
      <trkpt lat="43.91475" lon="5.17681">
        <ele>270.27</ele>
        <time>2015-06-11T13:50:08Z</time>
      </trkpt>
      <trkpt lat="43.91474" lon="5.17689">
        <ele>271.23</ele>
        <time>2015-06-11T13:50:25Z</time>
      </trkpt>
      <trkpt lat="43.91473" lon="5.17693">
        <ele>273.15</ele>
        <time>2015-06-11T13:50:39Z</time>
      </trkpt>
      <trkpt lat="43.91475" lon="5.177">
        <ele>273.63</ele>
        <time>2015-06-11T13:50:45Z</time>
      </trkpt>
      <trkpt lat="43.91476" lon="5.17702">
        <ele>273.63</ele>
        <time>2015-06-11T13:50:47Z</time>
      </trkpt>
      <trkpt lat="43.91484" lon="5.17715">
        <ele>274.59</ele>
        <time>2015-06-11T13:50:59Z</time>
      </trkpt>
      <trkpt lat="43.91495" lon="5.17729">
        <ele>275.56</ele>
        <time>2015-06-11T13:51:13Z</time>
      </trkpt>
      <trkpt lat="43.91504" lon="5.17742">
        <ele>276.52</ele>
        <time>2015-06-11T13:51:28Z</time>
      </trkpt>
      <trkpt lat="43.91509" lon="5.17751">
        <ele>276.52</ele>
        <time>2015-06-11T13:51:36Z</time>
      </trkpt>
      <trkpt lat="43.91512" lon="5.17757">
        <ele>276.52</ele>
        <time>2015-06-11T13:51:39Z</time>
      </trkpt>
      <trkpt lat="43.91514" lon="5.17762">
        <ele>276.52</ele>
        <time>2015-06-11T13:51:43Z</time>
      </trkpt>
      <trkpt lat="43.91523" lon="5.17772">
        <ele>277</ele>
        <time>2015-06-11T13:51:55Z</time>
      </trkpt>
      <trkpt lat="43.91532" lon="5.17776">
        <ele>277.96</ele>
        <time>2015-06-11T13:52:06Z</time>
      </trkpt>
      <trkpt lat="43.91551" lon="5.17792">
        <ele>277.96</ele>
        <time>2015-06-11T13:52:23Z</time>
      </trkpt>
      <trkpt lat="43.91553" lon="5.17794">
        <ele>277.96</ele>
        <time>2015-06-11T13:52:25Z</time>
      </trkpt>
      <trkpt lat="43.91566" lon="5.178">
        <ele>277.96</ele>
        <time>2015-06-11T13:52:38Z</time>
      </trkpt>
      <trkpt lat="43.91568" lon="5.17801">
        <ele>278.44</ele>
        <time>2015-06-11T13:52:40Z</time>
      </trkpt>
      <trkpt lat="43.91571" lon="5.17805">
        <ele>278.44</ele>
        <time>2015-06-11T13:52:44Z</time>
      </trkpt>
      <trkpt lat="43.91578" lon="5.17813">
        <ele>278.92</ele>
        <time>2015-06-11T13:52:51Z</time>
      </trkpt>
      <trkpt lat="43.91579" lon="5.17816">
        <ele>278.92</ele>
        <time>2015-06-11T13:52:53Z</time>
      </trkpt>
      <trkpt lat="43.91587" lon="5.17825">
        <ele>278.92</ele>
        <time>2015-06-11T13:53:05Z</time>
      </trkpt>
      <trkpt lat="43.91587" lon="5.17836">
        <ele>279.88</ele>
        <time>2015-06-11T13:53:13Z</time>
      </trkpt>
      <trkpt lat="43.91589" lon="5.17844">
        <ele>280.36</ele>
        <time>2015-06-11T13:53:18Z</time>
      </trkpt>
      <trkpt lat="43.91598" lon="5.17864">
        <ele>281.32</ele>
        <time>2015-06-11T13:53:33Z</time>
      </trkpt>
      <trkpt lat="43.916" lon="5.17882">
        <ele>282.28</ele>
        <time>2015-06-11T13:53:48Z</time>
      </trkpt>
      <trkpt lat="43.91604" lon="5.1789">
        <ele>281.32</ele>
        <time>2015-06-11T13:53:56Z</time>
      </trkpt>
      <trkpt lat="43.91613" lon="5.17911">
        <ele>281.8</ele>
        <time>2015-06-11T13:54:12Z</time>
      </trkpt>
      <trkpt lat="43.91618" lon="5.17915">
        <ele>281.8</ele>
        <time>2015-06-11T13:54:17Z</time>
      </trkpt>
      <trkpt lat="43.91633" lon="5.17927">
        <ele>283.25</ele>
        <time>2015-06-11T13:54:36Z</time>
      </trkpt>
      <trkpt lat="43.9164" lon="5.17935">
        <ele>284.21</ele>
        <time>2015-06-11T13:54:53Z</time>
      </trkpt>
      <trkpt lat="43.91649" lon="5.17933">
        <ele>284.21</ele>
        <time>2015-06-11T13:55:13Z</time>
      </trkpt>
      <trkpt lat="43.91656" lon="5.17936">
        <ele>284.21</ele>
        <time>2015-06-11T13:55:32Z</time>
      </trkpt>
      <trkpt lat="43.91649" lon="5.17951">
        <ele>284.21</ele>
        <time>2015-06-11T13:55:50Z</time>
      </trkpt>
      <trkpt lat="43.91648" lon="5.17954">
        <ele>284.69</ele>
        <time>2015-06-11T13:55:53Z</time>
      </trkpt>
      <trkpt lat="43.91632" lon="5.17976">
        <ele>285.17</ele>
        <time>2015-06-11T13:56:18Z</time>
      </trkpt>
      <trkpt lat="43.91599" lon="5.18016">
        <ele>284.21</ele>
        <time>2015-06-11T13:56:39Z</time>
      </trkpt>
      <trkpt lat="43.91574" lon="5.18016">
        <ele>284.21</ele>
        <time>2015-06-11T13:57:00Z</time>
      </trkpt>
      <trkpt lat="43.9165" lon="5.17913">
        <ele>284.21</ele>
        <time>2015-06-11T13:57:15Z</time>
      </trkpt>
      <trkpt lat="43.91655" lon="5.17907">
        <ele>284.69</ele>
        <time>2015-06-11T13:57:33Z</time>
      </trkpt>
      <trkpt lat="43.91704" lon="5.17889">
        <ele>285.17</ele>
        <time>2015-06-11T13:57:51Z</time>
      </trkpt>
      <trkpt lat="43.91672" lon="5.17923">
        <ele>283.73</ele>
        <time>2015-06-11T13:58:00Z</time>
      </trkpt>
      <trkpt lat="43.91673" lon="5.17923">
        <ele>283.73</ele>
        <time>2015-06-11T13:58:02Z</time>
      </trkpt>
      <trkpt lat="43.91673" lon="5.17923">
        <ele>283.73</ele>
        <time>2015-06-11T13:58:10Z</time>
      </trkpt>
      <trkpt lat="43.91669" lon="5.17936">
        <ele>283.25</ele>
        <time>2015-06-11T13:58:15Z</time>
      </trkpt>
      <trkpt lat="43.91668" lon="5.17939">
        <ele>283.73</ele>
        <time>2015-06-11T13:58:16Z</time>
      </trkpt>
      <trkpt lat="43.9164" lon="5.17977">
        <ele>282.77</ele>
        <time>2015-06-11T13:58:29Z</time>
      </trkpt>
      <trkpt lat="43.91639" lon="5.17978">
        <ele>283.73</ele>
        <time>2015-06-11T13:58:43Z</time>
      </trkpt>
      <trkpt lat="43.91636" lon="5.17978">
        <ele>285.65</ele>
        <time>2015-06-11T13:58:47Z</time>
      </trkpt>
      <trkpt lat="43.91625" lon="5.17984">
        <ele>285.65</ele>
        <time>2015-06-11T13:59:02Z</time>
      </trkpt>
      <trkpt lat="43.91625" lon="5.18005">
        <ele>285.65</ele>
        <time>2015-06-11T13:59:20Z</time>
      </trkpt>
      <trkpt lat="43.9166" lon="5.17996">
        <ele>286.13</ele>
        <time>2015-06-11T13:59:46Z</time>
      </trkpt>
      <trkpt lat="43.91662" lon="5.17995">
        <ele>285.65</ele>
        <time>2015-06-11T13:59:48Z</time>
      </trkpt>
      <trkpt lat="43.91663" lon="5.17985">
        <ele>285.65</ele>
        <time>2015-06-11T14:00:07Z</time>
      </trkpt>
      <trkpt lat="43.91647" lon="5.17992">
        <ele>282.77</ele>
        <time>2015-06-11T14:00:23Z</time>
      </trkpt>
      <trkpt lat="43.91648" lon="5.17992">
        <ele>282.77</ele>
        <time>2015-06-11T14:00:26Z</time>
      </trkpt>
      <trkpt lat="43.9165" lon="5.17996">
        <ele>284.69</ele>
        <time>2015-06-11T14:00:42Z</time>
      </trkpt>
      <trkpt lat="43.91651" lon="5.17999">
        <ele>284.21</ele>
        <time>2015-06-11T14:00:46Z</time>
      </trkpt>
      <trkpt lat="43.91655" lon="5.18012">
        <ele>285.17</ele>
        <time>2015-06-11T14:00:57Z</time>
      </trkpt>
      <trkpt lat="43.91659" lon="5.18024">
        <ele>286.61</ele>
        <time>2015-06-11T14:01:12Z</time>
      </trkpt>
      <trkpt lat="43.91662" lon="5.18028">
        <ele>287.09</ele>
        <time>2015-06-11T14:01:18Z</time>
      </trkpt>
      <trkpt lat="43.9167" lon="5.18032">
        <ele>286.61</ele>
        <time>2015-06-11T14:01:26Z</time>
      </trkpt>
      <trkpt lat="43.91672" lon="5.18032">
        <ele>286.13</ele>
        <time>2015-06-11T14:01:28Z</time>
      </trkpt>
      <trkpt lat="43.91685" lon="5.18037">
        <ele>283.73</ele>
        <time>2015-06-11T14:01:41Z</time>
      </trkpt>
      <trkpt lat="43.91685" lon="5.18042">
        <ele>284.21</ele>
        <time>2015-06-11T14:01:50Z</time>
      </trkpt>
      <trkpt lat="43.9169" lon="5.18053">
        <ele>285.65</ele>
        <time>2015-06-11T14:02:12Z</time>
      </trkpt>
      <trkpt lat="43.91687" lon="5.18055">
        <ele>285.17</ele>
        <time>2015-06-11T14:02:14Z</time>
      </trkpt>
      <trkpt lat="43.91673" lon="5.18067">
        <ele>284.69</ele>
        <time>2015-06-11T14:02:30Z</time>
      </trkpt>
      <trkpt lat="43.91679" lon="5.18074">
        <ele>288.05</ele>
        <time>2015-06-11T14:02:43Z</time>
      </trkpt>
      <trkpt lat="43.91679" lon="5.18075">
        <ele>288.05</ele>
        <time>2015-06-11T14:02:44Z</time>
      </trkpt>
      <trkpt lat="43.91679" lon="5.18076">
        <ele>288.05</ele>
        <time>2015-06-11T14:02:45Z</time>
      </trkpt>
      <trkpt lat="43.9169" lon="5.18093">
        <ele>287.57</ele>
        <time>2015-06-11T14:03:00Z</time>
      </trkpt>
      <trkpt lat="43.91692" lon="5.18098">
        <ele>287.57</ele>
        <time>2015-06-11T14:03:03Z</time>
      </trkpt>
      <trkpt lat="43.91697" lon="5.18114">
        <ele>289.49</ele>
        <time>2015-06-11T14:03:20Z</time>
      </trkpt>
      <trkpt lat="43.917" lon="5.18132">
        <ele>289.01</ele>
        <time>2015-06-11T14:03:33Z</time>
      </trkpt>
      <trkpt lat="43.91702" lon="5.18136">
        <ele>289.01</ele>
        <time>2015-06-11T14:03:36Z</time>
      </trkpt>
      <trkpt lat="43.91706" lon="5.18153">
        <ele>290.46</ele>
        <time>2015-06-11T14:03:55Z</time>
      </trkpt>
      <trkpt lat="43.91717" lon="5.18171">
        <ele>293.82</ele>
        <time>2015-06-11T14:04:11Z</time>
      </trkpt>
      <trkpt lat="43.91732" lon="5.18191">
        <ele>295.26</ele>
        <time>2015-06-11T14:04:29Z</time>
      </trkpt>
      <trkpt lat="43.91737" lon="5.18205">
        <ele>295.26</ele>
        <time>2015-06-11T14:04:44Z</time>
      </trkpt>
      <trkpt lat="43.91736" lon="5.18208">
        <ele>294.3</ele>
        <time>2015-06-11T14:04:49Z</time>
      </trkpt>
      <trkpt lat="43.91729" lon="5.18218">
        <ele>294.3</ele>
        <time>2015-06-11T14:05:06Z</time>
      </trkpt>
      <trkpt lat="43.91734" lon="5.18216">
        <ele>294.78</ele>
        <time>2015-06-11T14:05:16Z</time>
      </trkpt>
      <trkpt lat="43.91737" lon="5.1822">
        <ele>294.3</ele>
        <time>2015-06-11T14:05:19Z</time>
      </trkpt>
      <trkpt lat="43.91821" lon="5.1819">
        <ele>294.3</ele>
        <time>2015-06-11T14:05:52Z</time>
      </trkpt>
      <trkpt lat="43.91821" lon="5.18195">
        <ele>294.3</ele>
        <time>2015-06-11T14:06:09Z</time>
      </trkpt>
      <trkpt lat="43.9183" lon="5.18185">
        <ele>296.7</ele>
        <time>2015-06-11T14:06:22Z</time>
      </trkpt>
      <trkpt lat="43.91844" lon="5.18179">
        <ele>299.59</ele>
        <time>2015-06-11T14:06:39Z</time>
      </trkpt>
      <trkpt lat="43.91861" lon="5.18179">
        <ele>300.55</ele>
        <time>2015-06-11T14:06:57Z</time>
      </trkpt>
      <trkpt lat="43.91862" lon="5.18183">
        <ele>301.99</ele>
        <time>2015-06-11T14:07:04Z</time>
      </trkpt>
      <trkpt lat="43.91891" lon="5.18175">
        <ele>301.99</ele>
        <time>2015-06-11T14:07:23Z</time>
      </trkpt>
      <trkpt lat="43.91906" lon="5.18165">
        <ele>304.39</ele>
        <time>2015-06-11T14:07:39Z</time>
      </trkpt>
      <trkpt lat="43.91909" lon="5.18167">
        <ele>305.36</ele>
        <time>2015-06-11T14:07:48Z</time>
      </trkpt>
      <trkpt lat="43.91928" lon="5.18161">
        <ele>305.36</ele>
        <time>2015-06-11T14:08:03Z</time>
      </trkpt>
      <trkpt lat="43.91937" lon="5.1816">
        <ele>306.8</ele>
        <time>2015-06-11T14:08:15Z</time>
      </trkpt>
      <trkpt lat="43.9195" lon="5.18156">
        <ele>308.72</ele>
        <time>2015-06-11T14:08:31Z</time>
      </trkpt>
      <trkpt lat="43.91951" lon="5.18158">
        <ele>308.72</ele>
        <time>2015-06-11T14:08:37Z</time>
      </trkpt>
      <trkpt lat="43.91953" lon="5.18157">
        <ele>309.2</ele>
        <time>2015-06-11T14:08:39Z</time>
      </trkpt>
      <trkpt lat="43.91961" lon="5.18156">
        <ele>310.64</ele>
        <time>2015-06-11T14:08:53Z</time>
      </trkpt>
      <trkpt lat="43.91966" lon="5.18162">
        <ele>311.6</ele>
        <time>2015-06-11T14:09:09Z</time>
      </trkpt>
      <trkpt lat="43.91972" lon="5.1816">
        <ele>312.57</ele>
        <time>2015-06-11T14:09:14Z</time>
      </trkpt>
      <trkpt lat="43.91975" lon="5.1816">
        <ele>314.01</ele>
        <time>2015-06-11T14:09:24Z</time>
      </trkpt>
      <trkpt lat="43.91985" lon="5.1816">
        <ele>316.41</ele>
        <time>2015-06-11T14:09:37Z</time>
      </trkpt>
      <trkpt lat="43.91996" lon="5.18159">
        <ele>315.93</ele>
        <time>2015-06-11T14:09:53Z</time>
      </trkpt>
      <trkpt lat="43.92001" lon="5.18159">
        <ele>315.45</ele>
        <time>2015-06-11T14:10:07Z</time>
      </trkpt>
      <trkpt lat="43.92004" lon="5.18162">
        <ele>315.45</ele>
        <time>2015-06-11T14:10:13Z</time>
      </trkpt>
      <trkpt lat="43.92011" lon="5.18165">
        <ele>316.41</ele>
        <time>2015-06-11T14:10:22Z</time>
      </trkpt>
      <trkpt lat="43.92024" lon="5.18179">
        <ele>317.85</ele>
        <time>2015-06-11T14:10:38Z</time>
      </trkpt>
      <trkpt lat="43.92029" lon="5.18187">
        <ele>318.33</ele>
        <time>2015-06-11T14:10:47Z</time>
      </trkpt>
      <trkpt lat="43.9203" lon="5.18193">
        <ele>317.85</ele>
        <time>2015-06-11T14:10:51Z</time>
      </trkpt>
      <trkpt lat="43.92037" lon="5.18202">
        <ele>317.85</ele>
        <time>2015-06-11T14:11:05Z</time>
      </trkpt>
      <trkpt lat="43.9204" lon="5.18204">
        <ele>318.81</ele>
        <time>2015-06-11T14:11:29Z</time>
      </trkpt>
      <trkpt lat="43.92039" lon="5.18206">
        <ele>318.33</ele>
        <time>2015-06-11T14:11:45Z</time>
      </trkpt>
      <trkpt lat="43.9204" lon="5.18205">
        <ele>318.33</ele>
        <time>2015-06-11T14:12:06Z</time>
      </trkpt>
      <trkpt lat="43.92039" lon="5.18204">
        <ele>318.81</ele>
        <time>2015-06-11T14:12:26Z</time>
      </trkpt>
      <trkpt lat="43.92039" lon="5.18208">
        <ele>318.81</ele>
        <time>2015-06-11T14:12:45Z</time>
      </trkpt>
      <trkpt lat="43.9204" lon="5.18209">
        <ele>318.81</ele>
        <time>2015-06-11T14:13:01Z</time>
      </trkpt>
      <trkpt lat="43.92043" lon="5.18218">
        <ele>319.78</ele>
        <time>2015-06-11T14:13:16Z</time>
      </trkpt>
      <trkpt lat="43.92044" lon="5.1822">
        <ele>319.78</ele>
        <time>2015-06-11T14:13:18Z</time>
      </trkpt>
      <trkpt lat="43.92047" lon="5.18223">
        <ele>320.26</ele>
        <time>2015-06-11T14:13:21Z</time>
      </trkpt>
      <trkpt lat="43.92051" lon="5.18232">
        <ele>319.78</ele>
        <time>2015-06-11T14:13:30Z</time>
      </trkpt>
      <trkpt lat="43.92057" lon="5.1824">
        <ele>320.74</ele>
        <time>2015-06-11T14:13:41Z</time>
      </trkpt>
      <trkpt lat="43.92059" lon="5.18241">
        <ele>320.74</ele>
        <time>2015-06-11T14:13:43Z</time>
      </trkpt>
      <trkpt lat="43.92064" lon="5.18253">
        <ele>322.18</ele>
        <time>2015-06-11T14:13:58Z</time>
      </trkpt>
      <trkpt lat="43.92065" lon="5.18259">
        <ele>321.7</ele>
        <time>2015-06-11T14:14:05Z</time>
      </trkpt>
      <trkpt lat="43.92067" lon="5.18262">
        <ele>320.74</ele>
        <time>2015-06-11T14:14:08Z</time>
      </trkpt>
      <trkpt lat="43.92073" lon="5.18273">
        <ele>320.74</ele>
        <time>2015-06-11T14:14:17Z</time>
      </trkpt>
      <trkpt lat="43.92078" lon="5.18283">
        <ele>321.7</ele>
        <time>2015-06-11T14:14:30Z</time>
      </trkpt>
      <trkpt lat="43.92079" lon="5.18295">
        <ele>322.18</ele>
        <time>2015-06-11T14:14:43Z</time>
      </trkpt>
      <trkpt lat="43.92083" lon="5.18308">
        <ele>322.66</ele>
        <time>2015-06-11T14:14:56Z</time>
      </trkpt>
      <trkpt lat="43.9209" lon="5.18322">
        <ele>324.1</ele>
        <time>2015-06-11T14:15:10Z</time>
      </trkpt>
      <trkpt lat="43.92096" lon="5.18337">
        <ele>323.62</ele>
        <time>2015-06-11T14:15:23Z</time>
      </trkpt>
      <trkpt lat="43.92101" lon="5.18358">
        <ele>321.7</ele>
        <time>2015-06-11T14:15:41Z</time>
      </trkpt>
      <trkpt lat="43.92102" lon="5.18367">
        <ele>318.81</ele>
        <time>2015-06-11T14:15:57Z</time>
      </trkpt>
      <trkpt lat="43.92105" lon="5.18384">
        <ele>316.89</ele>
        <time>2015-06-11T14:16:13Z</time>
      </trkpt>
      <trkpt lat="43.92107" lon="5.18391">
        <ele>318.81</ele>
        <time>2015-06-11T14:16:28Z</time>
      </trkpt>
      <trkpt lat="43.92119" lon="5.18388">
        <ele>319.3</ele>
        <time>2015-06-11T14:16:44Z</time>
      </trkpt>
      <trkpt lat="43.92127" lon="5.18394">
        <ele>320.74</ele>
        <time>2015-06-11T14:16:59Z</time>
      </trkpt>
      <trkpt lat="43.92131" lon="5.18396">
        <ele>322.66</ele>
        <time>2015-06-11T14:17:13Z</time>
      </trkpt>
      <trkpt lat="43.92136" lon="5.18403">
        <ele>323.62</ele>
        <time>2015-06-11T14:17:28Z</time>
      </trkpt>
      <trkpt lat="43.92159" lon="5.1841">
        <ele>323.62</ele>
        <time>2015-06-11T14:17:42Z</time>
      </trkpt>
      <trkpt lat="43.9218" lon="5.18409">
        <ele>323.14</ele>
        <time>2015-06-11T14:17:57Z</time>
      </trkpt>
      <trkpt lat="43.92193" lon="5.18417">
        <ele>326.02</ele>
        <time>2015-06-11T14:18:15Z</time>
      </trkpt>
      <trkpt lat="43.92198" lon="5.18418">
        <ele>326.99</ele>
        <time>2015-06-11T14:18:22Z</time>
      </trkpt>
      <trkpt lat="43.92212" lon="5.18414">
        <ele>327.47</ele>
        <time>2015-06-11T14:18:38Z</time>
      </trkpt>
      <trkpt lat="43.92221" lon="5.18413">
        <ele>326.5</ele>
        <time>2015-06-11T14:18:57Z</time>
      </trkpt>
      <trkpt lat="43.92224" lon="5.18413">
        <ele>325.06</ele>
        <time>2015-06-11T14:19:09Z</time>
      </trkpt>
      <trkpt lat="43.92229" lon="5.18407">
        <ele>323.62</ele>
        <time>2015-06-11T14:19:21Z</time>
      </trkpt>
      <trkpt lat="43.92237" lon="5.18405">
        <ele>324.1</ele>
        <time>2015-06-11T14:19:28Z</time>
      </trkpt>
      <trkpt lat="43.92239" lon="5.18404">
        <ele>324.58</ele>
        <time>2015-06-11T14:19:30Z</time>
      </trkpt>
      <trkpt lat="43.92241" lon="5.18403">
        <ele>324.1</ele>
        <time>2015-06-11T14:19:31Z</time>
      </trkpt>
      <trkpt lat="43.92242" lon="5.18403">
        <ele>324.58</ele>
        <time>2015-06-11T14:19:32Z</time>
      </trkpt>
      <trkpt lat="43.92243" lon="5.18402">
        <ele>324.58</ele>
        <time>2015-06-11T14:19:33Z</time>
      </trkpt>
      <trkpt lat="43.92257" lon="5.18402">
        <ele>326.02</ele>
        <time>2015-06-11T14:19:45Z</time>
      </trkpt>
      <trkpt lat="43.92264" lon="5.18402">
        <ele>326.02</ele>
        <time>2015-06-11T14:20:00Z</time>
      </trkpt>
      <trkpt lat="43.92268" lon="5.18399">
        <ele>326.02</ele>
        <time>2015-06-11T14:20:23Z</time>
      </trkpt>
      <trkpt lat="43.92277" lon="5.18392">
        <ele>326.99</ele>
        <time>2015-06-11T14:20:38Z</time>
      </trkpt>
      <trkpt lat="43.92295" lon="5.18394">
        <ele>329.39</ele>
        <time>2015-06-11T14:20:55Z</time>
      </trkpt>
      <trkpt lat="43.92301" lon="5.18393">
        <ele>329.39</ele>
        <time>2015-06-11T14:21:12Z</time>
      </trkpt>
      <trkpt lat="43.92302" lon="5.18392">
        <ele>328.43</ele>
        <time>2015-06-11T14:21:28Z</time>
      </trkpt>
      <trkpt lat="43.92315" lon="5.18392">
        <ele>329.39</ele>
        <time>2015-06-11T14:21:44Z</time>
      </trkpt>
      <trkpt lat="43.92334" lon="5.18392">
        <ele>328.43</ele>
        <time>2015-06-11T14:22:02Z</time>
      </trkpt>
      <trkpt lat="43.92337" lon="5.18395">
        <ele>327.95</ele>
        <time>2015-06-11T14:22:35Z</time>
      </trkpt>
      <trkpt lat="43.92338" lon="5.18396">
        <ele>328.91</ele>
        <time>2015-06-11T14:22:57Z</time>
      </trkpt>
      <trkpt lat="43.92338" lon="5.18396">
        <ele>328.91</ele>
        <time>2015-06-11T14:23:27Z</time>
      </trkpt>
      <trkpt lat="43.92339" lon="5.18397">
        <ele>328.91</ele>
        <time>2015-06-11T14:23:53Z</time>
      </trkpt>
      <trkpt lat="43.92339" lon="5.18396">
        <ele>329.39</ele>
        <time>2015-06-11T14:24:11Z</time>
      </trkpt>
      <trkpt lat="43.92339" lon="5.18391">
        <ele>330.35</ele>
        <time>2015-06-11T14:24:27Z</time>
      </trkpt>
      <trkpt lat="43.92355" lon="5.18394">
        <ele>330.83</ele>
        <time>2015-06-11T14:24:41Z</time>
      </trkpt>
      <trkpt lat="43.92375" lon="5.18392">
        <ele>332.27</ele>
        <time>2015-06-11T14:24:57Z</time>
      </trkpt>
      <trkpt lat="43.92385" lon="5.18389">
        <ele>332.27</ele>
        <time>2015-06-11T14:25:14Z</time>
      </trkpt>
      <trkpt lat="43.92391" lon="5.1839">
        <ele>332.27</ele>
        <time>2015-06-11T14:25:28Z</time>
      </trkpt>
      <trkpt lat="43.92396" lon="5.1839">
        <ele>332.27</ele>
        <time>2015-06-11T14:25:40Z</time>
      </trkpt>
      <trkpt lat="43.92399" lon="5.18393">
        <ele>333.71</ele>
        <time>2015-06-11T14:25:50Z</time>
      </trkpt>
      <trkpt lat="43.92399" lon="5.18426">
        <ele>335.64</ele>
        <time>2015-06-11T14:26:10Z</time>
      </trkpt>
      <trkpt lat="43.92411" lon="5.18404">
        <ele>334.2</ele>
        <time>2015-06-11T14:26:30Z</time>
      </trkpt>
      <trkpt lat="43.92416" lon="5.18384">
        <ele>333.23</ele>
        <time>2015-06-11T14:26:46Z</time>
      </trkpt>
      <trkpt lat="43.92423" lon="5.18377">
        <ele>334.68</ele>
        <time>2015-06-11T14:27:04Z</time>
      </trkpt>
      <trkpt lat="43.92432" lon="5.18371">
        <ele>336.12</ele>
        <time>2015-06-11T14:27:22Z</time>
      </trkpt>
      <trkpt lat="43.92439" lon="5.18366">
        <ele>335.64</ele>
        <time>2015-06-11T14:27:43Z</time>
      </trkpt>
      <trkpt lat="43.92444" lon="5.18365">
        <ele>335.16</ele>
        <time>2015-06-11T14:28:02Z</time>
      </trkpt>
      <trkpt lat="43.92452" lon="5.18362">
        <ele>335.16</ele>
        <time>2015-06-11T14:28:21Z</time>
      </trkpt>
      <trkpt lat="43.92458" lon="5.18354">
        <ele>337.08</ele>
        <time>2015-06-11T14:28:38Z</time>
      </trkpt>
      <trkpt lat="43.92461" lon="5.18347">
        <ele>337.56</ele>
        <time>2015-06-11T14:29:00Z</time>
      </trkpt>
      <trkpt lat="43.92463" lon="5.18351">
        <ele>335.64</ele>
        <time>2015-06-11T14:29:18Z</time>
      </trkpt>
      <trkpt lat="43.92471" lon="5.18347">
        <ele>336.12</ele>
        <time>2015-06-11T14:29:32Z</time>
      </trkpt>
      <trkpt lat="43.92473" lon="5.18349">
        <ele>338.52</ele>
        <time>2015-06-11T14:29:47Z</time>
      </trkpt>
      <trkpt lat="43.92473" lon="5.1835">
        <ele>338.52</ele>
        <time>2015-06-11T14:30:07Z</time>
      </trkpt>
      <trkpt lat="43.92473" lon="5.18349">
        <ele>337.56</ele>
        <time>2015-06-11T14:30:31Z</time>
      </trkpt>
      <trkpt lat="43.92471" lon="5.1835">
        <ele>338.52</ele>
        <time>2015-06-11T14:30:53Z</time>
      </trkpt>
      <trkpt lat="43.9247" lon="5.18347">
        <ele>339</ele>
        <time>2015-06-11T14:31:17Z</time>
      </trkpt>
      <trkpt lat="43.9247" lon="5.18347">
        <ele>338.52</ele>
        <time>2015-06-11T14:31:32Z</time>
      </trkpt>
      <trkpt lat="43.92469" lon="5.1835">
        <ele>339</ele>
        <time>2015-06-11T14:31:50Z</time>
      </trkpt>
      <trkpt lat="43.92471" lon="5.1835">
        <ele>338.52</ele>
        <time>2015-06-11T14:32:07Z</time>
      </trkpt>
      <trkpt lat="43.92474" lon="5.1835">
        <ele>339.96</ele>
        <time>2015-06-11T14:32:23Z</time>
      </trkpt>
      <trkpt lat="43.92477" lon="5.18352">
        <ele>340.44</ele>
        <time>2015-06-11T14:32:36Z</time>
      </trkpt>
      <trkpt lat="43.9248" lon="5.18345">
        <ele>341.41</ele>
        <time>2015-06-11T14:32:53Z</time>
      </trkpt>
      <trkpt lat="43.92483" lon="5.18348">
        <ele>341.41</ele>
        <time>2015-06-11T14:33:14Z</time>
      </trkpt>
      <trkpt lat="43.92487" lon="5.18348">
        <ele>341.41</ele>
        <time>2015-06-11T14:33:33Z</time>
      </trkpt>
      <trkpt lat="43.92488" lon="5.18348">
        <ele>340.92</ele>
        <time>2015-06-11T14:33:53Z</time>
      </trkpt>
      <trkpt lat="43.92489" lon="5.18347">
        <ele>340.44</ele>
        <time>2015-06-11T14:34:06Z</time>
      </trkpt>
      <trkpt lat="43.9249" lon="5.18344">
        <ele>341.89</ele>
        <time>2015-06-11T14:34:10Z</time>
      </trkpt>
      <trkpt lat="43.92492" lon="5.18346">
        <ele>343.33</ele>
        <time>2015-06-11T14:34:23Z</time>
      </trkpt>
      <trkpt lat="43.92497" lon="5.18347">
        <ele>344.29</ele>
        <time>2015-06-11T14:34:36Z</time>
      </trkpt>
      <trkpt lat="43.925" lon="5.18352">
        <ele>344.29</ele>
        <time>2015-06-11T14:34:43Z</time>
      </trkpt>
      <trkpt lat="43.92505" lon="5.18358">
        <ele>344.29</ele>
        <time>2015-06-11T14:34:52Z</time>
      </trkpt>
      <trkpt lat="43.9251" lon="5.18367">
        <ele>343.81</ele>
        <time>2015-06-11T14:35:08Z</time>
      </trkpt>
      <trkpt lat="43.92516" lon="5.18379">
        <ele>344.29</ele>
        <time>2015-06-11T14:35:29Z</time>
      </trkpt>
      <trkpt lat="43.92516" lon="5.1839">
        <ele>343.33</ele>
        <time>2015-06-11T14:35:44Z</time>
      </trkpt>
      <trkpt lat="43.92527" lon="5.18397">
        <ele>344.29</ele>
        <time>2015-06-11T14:35:59Z</time>
      </trkpt>
      <trkpt lat="43.92532" lon="5.184">
        <ele>345.73</ele>
        <time>2015-06-11T14:36:16Z</time>
      </trkpt>
      <trkpt lat="43.92542" lon="5.18404">
        <ele>346.69</ele>
        <time>2015-06-11T14:36:31Z</time>
      </trkpt>
      <trkpt lat="43.92547" lon="5.18406">
        <ele>347.17</ele>
        <time>2015-06-11T14:36:47Z</time>
      </trkpt>
      <trkpt lat="43.92549" lon="5.18411">
        <ele>346.21</ele>
        <time>2015-06-11T14:37:06Z</time>
      </trkpt>
      <trkpt lat="43.9255" lon="5.18412">
        <ele>346.21</ele>
        <time>2015-06-11T14:37:29Z</time>
      </trkpt>
      <trkpt lat="43.92552" lon="5.18414">
        <ele>346.69</ele>
        <time>2015-06-11T14:37:50Z</time>
      </trkpt>
      <trkpt lat="43.92559" lon="5.18419">
        <ele>346.21</ele>
        <time>2015-06-11T14:38:11Z</time>
      </trkpt>
      <trkpt lat="43.92564" lon="5.18421">
        <ele>347.65</ele>
        <time>2015-06-11T14:38:19Z</time>
      </trkpt>
      <trkpt lat="43.92571" lon="5.18432">
        <ele>347.17</ele>
        <time>2015-06-11T14:38:36Z</time>
      </trkpt>
      <trkpt lat="43.92581" lon="5.18431">
        <ele>349.1</ele>
        <time>2015-06-11T14:38:50Z</time>
      </trkpt>
      <trkpt lat="43.92589" lon="5.18433">
        <ele>350.06</ele>
        <time>2015-06-11T14:39:02Z</time>
      </trkpt>
      <trkpt lat="43.92596" lon="5.18444">
        <ele>349.1</ele>
        <time>2015-06-11T14:39:20Z</time>
      </trkpt>
      <trkpt lat="43.92602" lon="5.18446">
        <ele>351.98</ele>
        <time>2015-06-11T14:39:40Z</time>
      </trkpt>
      <trkpt lat="43.92609" lon="5.18446">
        <ele>354.86</ele>
        <time>2015-06-11T14:39:52Z</time>
      </trkpt>
      <trkpt lat="43.92614" lon="5.18441">
        <ele>356.31</ele>
        <time>2015-06-11T14:39:59Z</time>
      </trkpt>
      <trkpt lat="43.92619" lon="5.1844">
        <ele>355.34</ele>
        <time>2015-06-11T14:40:14Z</time>
      </trkpt>
      <trkpt lat="43.92618" lon="5.18442">
        <ele>355.34</ele>
        <time>2015-06-11T14:40:41Z</time>
      </trkpt>
      <trkpt lat="43.92619" lon="5.18438">
        <ele>354.86</ele>
        <time>2015-06-11T14:41:01Z</time>
      </trkpt>
      <trkpt lat="43.92618" lon="5.18436">
        <ele>355.34</ele>
        <time>2015-06-11T14:41:31Z</time>
      </trkpt>
      <trkpt lat="43.92619" lon="5.18436">
        <ele>356.31</ele>
        <time>2015-06-11T14:41:51Z</time>
      </trkpt>
      <trkpt lat="43.92616" lon="5.18434">
        <ele>355.83</ele>
        <time>2015-06-11T14:42:12Z</time>
      </trkpt>
      <trkpt lat="43.92615" lon="5.18434">
        <ele>355.34</ele>
        <time>2015-06-11T14:42:40Z</time>
      </trkpt>
      <trkpt lat="43.92616" lon="5.18434">
        <ele>356.31</ele>
        <time>2015-06-11T14:43:06Z</time>
      </trkpt>
      <trkpt lat="43.92617" lon="5.18436">
        <ele>356.31</ele>
        <time>2015-06-11T14:43:28Z</time>
      </trkpt>
      <trkpt lat="43.92616" lon="5.18437">
        <ele>356.31</ele>
        <time>2015-06-11T14:43:45Z</time>
      </trkpt>
      <trkpt lat="43.92612" lon="5.18442">
        <ele>356.31</ele>
        <time>2015-06-11T14:44:05Z</time>
      </trkpt>
      <trkpt lat="43.92611" lon="5.18441">
        <ele>356.79</ele>
        <time>2015-06-11T14:44:35Z</time>
      </trkpt>
      <trkpt lat="43.92611" lon="5.18439">
        <ele>356.79</ele>
        <time>2015-06-11T14:45:04Z</time>
      </trkpt>
      <trkpt lat="43.92612" lon="5.18434">
        <ele>357.27</ele>
        <time>2015-06-11T14:45:28Z</time>
      </trkpt>
      <trkpt lat="43.92612" lon="5.18438">
        <ele>357.27</ele>
        <time>2015-06-11T14:45:56Z</time>
      </trkpt>
      <trkpt lat="43.92618" lon="5.18426">
        <ele>357.27</ele>
        <time>2015-06-11T14:46:24Z</time>
      </trkpt>
      <trkpt lat="43.92617" lon="5.18426">
        <ele>357.27</ele>
        <time>2015-06-11T14:46:44Z</time>
      </trkpt>
      <trkpt lat="43.92615" lon="5.1843">
        <ele>356.31</ele>
        <time>2015-06-11T14:47:02Z</time>
      </trkpt>
      <trkpt lat="43.92617" lon="5.18432">
        <ele>357.27</ele>
        <time>2015-06-11T14:47:21Z</time>
      </trkpt>
      <trkpt lat="43.92621" lon="5.18434">
        <ele>358.23</ele>
        <time>2015-06-11T14:47:36Z</time>
      </trkpt>
      <trkpt lat="43.92623" lon="5.18435">
        <ele>358.71</ele>
        <time>2015-06-11T14:47:40Z</time>
      </trkpt>
      <trkpt lat="43.92626" lon="5.1844">
        <ele>358.71</ele>
        <time>2015-06-11T14:47:43Z</time>
      </trkpt>
      <trkpt lat="43.92632" lon="5.18462">
        <ele>357.75</ele>
        <time>2015-06-11T14:47:57Z</time>
      </trkpt>
      <trkpt lat="43.92633" lon="5.18464">
        <ele>357.75</ele>
        <time>2015-06-11T14:47:59Z</time>
      </trkpt>
      <trkpt lat="43.92638" lon="5.18477">
        <ele>357.75</ele>
        <time>2015-06-11T14:48:12Z</time>
      </trkpt>
      <trkpt lat="43.92637" lon="5.18482">
        <ele>357.75</ele>
        <time>2015-06-11T14:48:17Z</time>
      </trkpt>
      <trkpt lat="43.92642" lon="5.18488">
        <ele>357.75</ele>
        <time>2015-06-11T14:48:23Z</time>
      </trkpt>
      <trkpt lat="43.92649" lon="5.18497">
        <ele>356.79</ele>
        <time>2015-06-11T14:48:36Z</time>
      </trkpt>
      <trkpt lat="43.92652" lon="5.18503">
        <ele>356.79</ele>
        <time>2015-06-11T14:48:41Z</time>
      </trkpt>
      <trkpt lat="43.92659" lon="5.18523">
        <ele>356.79</ele>
        <time>2015-06-11T14:48:55Z</time>
      </trkpt>
      <trkpt lat="43.92666" lon="5.18537">
        <ele>357.27</ele>
        <time>2015-06-11T14:49:06Z</time>
      </trkpt>
      <trkpt lat="43.9268" lon="5.18563">
        <ele>358.23</ele>
        <time>2015-06-11T14:49:21Z</time>
      </trkpt>
      <trkpt lat="43.92692" lon="5.18576">
        <ele>359.19</ele>
        <time>2015-06-11T14:49:35Z</time>
      </trkpt>
      <trkpt lat="43.92703" lon="5.18585">
        <ele>360.63</ele>
        <time>2015-06-11T14:49:50Z</time>
      </trkpt>
      <trkpt lat="43.92709" lon="5.18594">
        <ele>361.11</ele>
        <time>2015-06-11T14:50:00Z</time>
      </trkpt>
      <trkpt lat="43.92714" lon="5.18601">
        <ele>361.11</ele>
        <time>2015-06-11T14:50:05Z</time>
      </trkpt>
      <trkpt lat="43.92715" lon="5.18614">
        <ele>362.07</ele>
        <time>2015-06-11T14:50:19Z</time>
      </trkpt>
      <trkpt lat="43.92716" lon="5.18618">
        <ele>361.59</ele>
        <time>2015-06-11T14:50:40Z</time>
      </trkpt>
      <trkpt lat="43.92715" lon="5.18624">
        <ele>361.59</ele>
        <time>2015-06-11T14:50:44Z</time>
      </trkpt>
      <trkpt lat="43.92717" lon="5.18645">
        <ele>363.04</ele>
        <time>2015-06-11T14:51:04Z</time>
      </trkpt>
      <trkpt lat="43.92717" lon="5.18646">
        <ele>363.04</ele>
        <time>2015-06-11T14:51:23Z</time>
      </trkpt>
      <trkpt lat="43.92719" lon="5.18644">
        <ele>362.55</ele>
        <time>2015-06-11T14:51:45Z</time>
      </trkpt>
      <trkpt lat="43.92719" lon="5.18656">
        <ele>363.04</ele>
        <time>2015-06-11T14:52:09Z</time>
      </trkpt>
      <trkpt lat="43.92719" lon="5.18659">
        <ele>364.48</ele>
        <time>2015-06-11T14:52:26Z</time>
      </trkpt>
      <trkpt lat="43.92718" lon="5.18661">
        <ele>364.96</ele>
        <time>2015-06-11T14:52:50Z</time>
      </trkpt>
      <trkpt lat="43.92727" lon="5.18668">
        <ele>367.36</ele>
        <time>2015-06-11T14:53:11Z</time>
      </trkpt>
      <trkpt lat="43.92742" lon="5.18675">
        <ele>367.84</ele>
        <time>2015-06-11T14:53:29Z</time>
      </trkpt>
      <trkpt lat="43.92749" lon="5.18676">
        <ele>367.84</ele>
        <time>2015-06-11T14:53:37Z</time>
      </trkpt>
      <trkpt lat="43.92777" lon="5.18674">
        <ele>367.36</ele>
        <time>2015-06-11T14:54:04Z</time>
      </trkpt>
      <trkpt lat="43.9281" lon="5.18682">
        <ele>369.28</ele>
        <time>2015-06-11T14:54:24Z</time>
      </trkpt>
      <trkpt lat="43.92829" lon="5.18734">
        <ele>371.21</ele>
        <time>2015-06-11T14:54:38Z</time>
      </trkpt>
      <trkpt lat="43.92848" lon="5.18761">
        <ele>372.17</ele>
        <time>2015-06-11T14:54:55Z</time>
      </trkpt>
      <trkpt lat="43.9285" lon="5.18763">
        <ele>372.17</ele>
        <time>2015-06-11T14:54:57Z</time>
      </trkpt>
      <trkpt lat="43.92867" lon="5.18777">
        <ele>373.61</ele>
        <time>2015-06-11T14:55:12Z</time>
      </trkpt>
      <trkpt lat="43.92882" lon="5.1879">
        <ele>374.57</ele>
        <time>2015-06-11T14:55:27Z</time>
      </trkpt>
      <trkpt lat="43.92897" lon="5.1881">
        <ele>373.61</ele>
        <time>2015-06-11T14:55:43Z</time>
      </trkpt>
      <trkpt lat="43.92909" lon="5.18822">
        <ele>372.65</ele>
        <time>2015-06-11T14:55:59Z</time>
      </trkpt>
      <trkpt lat="43.92914" lon="5.18825">
        <ele>371.69</ele>
        <time>2015-06-11T14:56:09Z</time>
      </trkpt>
      <trkpt lat="43.92915" lon="5.18823">
        <ele>371.69</ele>
        <time>2015-06-11T14:56:10Z</time>
      </trkpt>
      <trkpt lat="43.92929" lon="5.18774">
        <ele>372.65</ele>
        <time>2015-06-11T14:56:21Z</time>
      </trkpt>
      <trkpt lat="43.92946" lon="5.18738">
        <ele>372.65</ele>
        <time>2015-06-11T14:56:36Z</time>
      </trkpt>
      <trkpt lat="43.92958" lon="5.18783">
        <ele>373.13</ele>
        <time>2015-06-11T14:56:48Z</time>
      </trkpt>
      <trkpt lat="43.92981" lon="5.18808">
        <ele>373.61</ele>
        <time>2015-06-11T14:57:08Z</time>
      </trkpt>
      <trkpt lat="43.92998" lon="5.18828">
        <ele>374.57</ele>
        <time>2015-06-11T14:57:24Z</time>
      </trkpt>
      <trkpt lat="43.93018" lon="5.18849">
        <ele>375.53</ele>
        <time>2015-06-11T14:57:46Z</time>
      </trkpt>
      <trkpt lat="43.93099" lon="5.18894">
        <ele>377.45</ele>
        <time>2015-06-11T15:00:27Z</time>
      </trkpt>
      <trkpt lat="43.931" lon="5.18904">
        <ele>377.45</ele>
        <time>2015-06-11T15:00:49Z</time>
      </trkpt>
      <trkpt lat="43.93104" lon="5.18895">
        <ele>377.45</ele>
        <time>2015-06-11T15:01:14Z</time>
      </trkpt>
      <trkpt lat="43.93104" lon="5.18901">
        <ele>377.94</ele>
        <time>2015-06-11T15:01:45Z</time>
      </trkpt>
      <trkpt lat="43.93107" lon="5.18889">
        <ele>378.42</ele>
        <time>2015-06-11T15:02:07Z</time>
      </trkpt>
      <trkpt lat="43.93106" lon="5.18885">
        <ele>379.38</ele>
        <time>2015-06-11T15:02:20Z</time>
      </trkpt>
      <trkpt lat="43.93105" lon="5.18885">
        <ele>378.9</ele>
        <time>2015-06-11T15:02:42Z</time>
      </trkpt>
    </trkseg>
  </trk>
</gpx>